<?xml version="1.0" encoding="UTF-8" standalone="no" ?>
<gpx xmlns="http://www.topografix.com/GPX/1/1" xmlns:xsi="http://www.w3.org/2001/XMLSchema-instance" xsi:schemaLocation="http://www.topografix.com/GPX/1/1 http://www.topografix.com/GPX/1/1/gpx.xsd" version="1.1" creator="VisuGPX - https://www.visugpx.com">
  <metadata>
    <name>La Sampoutaire 57km 1500D+ 2023</name>
  </metadata>
  <trk>
    <name><![CDATA[57km 1500D+ 2023 OK-16297506]]></name>
    <trkseg>
      <trkpt lat="45.47523" lon="4.57997">
        <ele>433</ele>
        <time>2023-05-21T12:30:53Z</time>
      </trkpt>
      <trkpt lat="45.475" lon="4.57945">
        <ele>434</ele>
        <time>2023-05-21T12:31:03Z</time>
      </trkpt>
      <trkpt lat="45.47474" lon="4.57904">
        <ele>437</ele>
        <time>2023-05-21T12:31:12Z</time>
      </trkpt>
      <trkpt lat="45.47454" lon="4.57879">
        <ele>439</ele>
        <time>2023-05-21T12:31:18Z</time>
      </trkpt>
      <trkpt lat="45.47441" lon="4.57874">
        <ele>439</ele>
        <time>2023-05-21T12:31:21Z</time>
      </trkpt>
      <trkpt lat="45.47426" lon="4.5783">
        <ele>440</ele>
        <time>2023-05-21T12:31:29Z</time>
      </trkpt>
      <trkpt lat="45.47486" lon="4.57883">
        <ele>440</ele>
        <time>2023-05-21T12:31:46Z</time>
      </trkpt>
      <trkpt lat="45.47545" lon="4.57928">
        <ele>441</ele>
        <time>2023-05-21T12:32:02Z</time>
      </trkpt>
      <trkpt lat="45.4758" lon="4.57939">
        <ele>445</ele>
        <time>2023-05-21T12:32:10Z</time>
      </trkpt>
      <trkpt lat="45.47623" lon="4.57961">
        <ele>442</ele>
        <time>2023-05-21T12:32:21Z</time>
      </trkpt>
      <trkpt lat="45.4765" lon="4.57968">
        <ele>441</ele>
        <time>2023-05-21T12:32:27Z</time>
      </trkpt>
      <trkpt lat="45.4772" lon="4.57969">
        <ele>436</ele>
        <time>2023-05-21T12:32:43Z</time>
      </trkpt>
      <trkpt lat="45.47766" lon="4.57954">
        <ele>434</ele>
        <time>2023-05-21T12:32:54Z</time>
      </trkpt>
      <trkpt lat="45.47793" lon="4.57942">
        <ele>431</ele>
        <time>2023-05-21T12:33:01Z</time>
      </trkpt>
      <trkpt lat="45.47803" lon="4.58027">
        <ele>424</ele>
        <time>2023-05-21T12:33:15Z</time>
      </trkpt>
      <trkpt lat="45.47806" lon="4.58035">
        <ele>424</ele>
        <time>2023-05-21T12:33:17Z</time>
      </trkpt>
      <trkpt lat="45.47817" lon="4.58042">
        <ele>422</ele>
        <time>2023-05-21T12:33:19Z</time>
      </trkpt>
      <trkpt lat="45.47831" lon="4.58057">
        <ele>420</ele>
        <time>2023-05-21T12:33:24Z</time>
      </trkpt>
      <trkpt lat="45.47834" lon="4.58066">
        <ele>419</ele>
        <time>2023-05-21T12:33:25Z</time>
      </trkpt>
      <trkpt lat="45.4783" lon="4.58078">
        <ele>419</ele>
        <time>2023-05-21T12:33:27Z</time>
      </trkpt>
      <trkpt lat="45.47809" lon="4.58103">
        <ele>418</ele>
        <time>2023-05-21T12:33:34Z</time>
      </trkpt>
      <trkpt lat="45.4781" lon="4.58113">
        <ele>417</ele>
        <time>2023-05-21T12:33:35Z</time>
      </trkpt>
      <trkpt lat="45.47841" lon="4.5816">
        <ele>410</ele>
        <time>2023-05-21T12:33:46Z</time>
      </trkpt>
      <trkpt lat="45.47822" lon="4.58198">
        <ele>409</ele>
        <time>2023-05-21T12:33:54Z</time>
      </trkpt>
      <trkpt lat="45.47805" lon="4.58245">
        <ele>408</ele>
        <time>2023-05-21T12:34:02Z</time>
      </trkpt>
      <trkpt lat="45.47781" lon="4.58294">
        <ele>406</ele>
        <time>2023-05-21T12:34:12Z</time>
      </trkpt>
      <trkpt lat="45.47731" lon="4.58373">
        <ele>403</ele>
        <time>2023-05-21T12:34:29Z</time>
      </trkpt>
      <trkpt lat="45.47699" lon="4.58419">
        <ele>400</ele>
        <time>2023-05-21T12:34:40Z</time>
      </trkpt>
      <trkpt lat="45.4766" lon="4.58446">
        <ele>396</ele>
        <time>2023-05-21T12:34:50Z</time>
      </trkpt>
      <trkpt lat="45.47611" lon="4.58466">
        <ele>390</ele>
        <time>2023-05-21T12:35:02Z</time>
      </trkpt>
      <trkpt lat="45.47593" lon="4.58459">
        <ele>390</ele>
        <time>2023-05-21T12:35:06Z</time>
      </trkpt>
      <trkpt lat="45.4758" lon="4.58445">
        <ele>391</ele>
        <time>2023-05-21T12:35:10Z</time>
      </trkpt>
      <trkpt lat="45.47541" lon="4.58376">
        <ele>401</ele>
        <time>2023-05-21T12:35:25Z</time>
      </trkpt>
      <trkpt lat="45.47532" lon="4.58374">
        <ele>400</ele>
        <time>2023-05-21T12:35:27Z</time>
      </trkpt>
      <trkpt lat="45.47525" lon="4.58378">
        <ele>399</ele>
        <time>2023-05-21T12:35:29Z</time>
      </trkpt>
      <trkpt lat="45.47521" lon="4.58395">
        <ele>396</ele>
        <time>2023-05-21T12:35:32Z</time>
      </trkpt>
      <trkpt lat="45.47524" lon="4.58414">
        <ele>392</ele>
        <time>2023-05-21T12:35:35Z</time>
      </trkpt>
      <trkpt lat="45.47534" lon="4.58429">
        <ele>391</ele>
        <time>2023-05-21T12:35:38Z</time>
      </trkpt>
      <trkpt lat="45.47533" lon="4.58454">
        <ele>389</ele>
        <time>2023-05-21T12:35:42Z</time>
      </trkpt>
      <trkpt lat="45.47527" lon="4.58471">
        <ele>387</ele>
        <time>2023-05-21T12:35:45Z</time>
      </trkpt>
      <trkpt lat="45.47496" lon="4.58495">
        <ele>386</ele>
        <time>2023-05-21T12:35:54Z</time>
      </trkpt>
      <trkpt lat="45.47485" lon="4.58501">
        <ele>387</ele>
        <time>2023-05-21T12:35:56Z</time>
      </trkpt>
      <trkpt lat="45.47442" lon="4.58479">
        <ele>388</ele>
        <time>2023-05-21T12:36:07Z</time>
      </trkpt>
      <trkpt lat="45.4743" lon="4.58478">
        <ele>389</ele>
        <time>2023-05-21T12:36:10Z</time>
      </trkpt>
      <trkpt lat="45.47413" lon="4.58483">
        <ele>389</ele>
        <time>2023-05-21T12:36:14Z</time>
      </trkpt>
      <trkpt lat="45.47394" lon="4.58502">
        <ele>388</ele>
        <time>2023-05-21T12:36:19Z</time>
      </trkpt>
      <trkpt lat="45.47387" lon="4.58519">
        <ele>390</ele>
        <time>2023-05-21T12:36:23Z</time>
      </trkpt>
      <trkpt lat="45.4742" lon="4.58508">
        <ele>389</ele>
        <time>2023-05-21T12:36:30Z</time>
      </trkpt>
      <trkpt lat="45.47443" lon="4.58506">
        <ele>388</ele>
        <time>2023-05-21T12:36:36Z</time>
      </trkpt>
      <trkpt lat="45.47466" lon="4.58517">
        <ele>390</ele>
        <time>2023-05-21T12:36:42Z</time>
      </trkpt>
      <trkpt lat="45.4752" lon="4.5856">
        <ele>394</ele>
        <time>2023-05-21T12:36:56Z</time>
      </trkpt>
      <trkpt lat="45.47549" lon="4.58574">
        <ele>393</ele>
        <time>2023-05-21T12:37:03Z</time>
      </trkpt>
      <trkpt lat="45.47589" lon="4.58584">
        <ele>390</ele>
        <time>2023-05-21T12:37:13Z</time>
      </trkpt>
      <trkpt lat="45.47632" lon="4.58607">
        <ele>392</ele>
        <time>2023-05-21T12:37:23Z</time>
      </trkpt>
      <trkpt lat="45.47686" lon="4.58643">
        <ele>396</ele>
        <time>2023-05-21T12:37:37Z</time>
      </trkpt>
      <trkpt lat="45.47711" lon="4.58645">
        <ele>394</ele>
        <time>2023-05-21T12:37:43Z</time>
      </trkpt>
      <trkpt lat="45.47773" lon="4.58619">
        <ele>386</ele>
        <time>2023-05-21T12:37:58Z</time>
      </trkpt>
      <trkpt lat="45.47845" lon="4.58614">
        <ele>386</ele>
        <time>2023-05-21T12:38:15Z</time>
      </trkpt>
      <trkpt lat="45.47867" lon="4.58608">
        <ele>388</ele>
        <time>2023-05-21T12:38:20Z</time>
      </trkpt>
      <trkpt lat="45.47895" lon="4.58584">
        <ele>388</ele>
        <time>2023-05-21T12:38:28Z</time>
      </trkpt>
      <trkpt lat="45.47932" lon="4.58531">
        <ele>385</ele>
        <time>2023-05-21T12:38:40Z</time>
      </trkpt>
      <trkpt lat="45.48013" lon="4.58439">
        <ele>381</ele>
        <time>2023-05-21T12:39:04Z</time>
      </trkpt>
      <trkpt lat="45.48062" lon="4.58419">
        <ele>378</ele>
        <time>2023-05-21T12:39:16Z</time>
      </trkpt>
      <trkpt lat="45.4809" lon="4.58418">
        <ele>379</ele>
        <time>2023-05-21T12:39:23Z</time>
      </trkpt>
      <trkpt lat="45.48147" lon="4.58432">
        <ele>385</ele>
        <time>2023-05-21T12:39:36Z</time>
      </trkpt>
      <trkpt lat="45.48177" lon="4.5842">
        <ele>385</ele>
        <time>2023-05-21T12:39:44Z</time>
      </trkpt>
      <trkpt lat="45.48201" lon="4.58399">
        <ele>385</ele>
        <time>2023-05-21T12:39:50Z</time>
      </trkpt>
      <trkpt lat="45.48223" lon="4.58362">
        <ele>381</ele>
        <time>2023-05-21T12:39:58Z</time>
      </trkpt>
      <trkpt lat="45.48253" lon="4.58253">
        <ele>373</ele>
        <time>2023-05-21T12:40:17Z</time>
      </trkpt>
      <trkpt lat="45.48278" lon="4.58178">
        <ele>377</ele>
        <time>2023-05-21T12:40:31Z</time>
      </trkpt>
      <trkpt lat="45.48295" lon="4.58138">
        <ele>376</ele>
        <time>2023-05-21T12:40:38Z</time>
      </trkpt>
      <trkpt lat="45.48337" lon="4.5798">
        <ele>377</ele>
        <time>2023-05-21T12:41:06Z</time>
      </trkpt>
      <trkpt lat="45.48343" lon="4.57939">
        <ele>380</ele>
        <time>2023-05-21T12:41:13Z</time>
      </trkpt>
      <trkpt lat="45.4838" lon="4.57852">
        <ele>382</ele>
        <time>2023-05-21T12:41:30Z</time>
      </trkpt>
      <trkpt lat="45.48381" lon="4.57817">
        <ele>383</ele>
        <time>2023-05-21T12:41:35Z</time>
      </trkpt>
      <trkpt lat="45.48375" lon="4.57791">
        <ele>385</ele>
        <time>2023-05-21T12:41:40Z</time>
      </trkpt>
      <trkpt lat="45.48388" lon="4.57776">
        <ele>383</ele>
        <time>2023-05-21T12:41:44Z</time>
      </trkpt>
      <trkpt lat="45.48395" lon="4.57723">
        <ele>385</ele>
        <time>2023-05-21T12:41:53Z</time>
      </trkpt>
      <trkpt lat="45.48399" lon="4.57717">
        <ele>385</ele>
        <time>2023-05-21T12:41:54Z</time>
      </trkpt>
      <trkpt lat="45.48403" lon="4.57781">
        <ele>382</ele>
        <time>2023-05-21T12:42:04Z</time>
      </trkpt>
      <trkpt lat="45.48418" lon="4.57839">
        <ele>377</ele>
        <time>2023-05-21T12:42:15Z</time>
      </trkpt>
      <trkpt lat="45.4847" lon="4.5794">
        <ele>363</ele>
        <time>2023-05-21T12:42:35Z</time>
      </trkpt>
      <trkpt lat="45.48477" lon="4.57994">
        <ele>356</ele>
        <time>2023-05-21T12:42:44Z</time>
      </trkpt>
      <trkpt lat="45.48485" lon="4.5803">
        <ele>357</ele>
        <time>2023-05-21T12:42:50Z</time>
      </trkpt>
      <trkpt lat="45.48523" lon="4.58047">
        <ele>357</ele>
        <time>2023-05-21T12:43:00Z</time>
      </trkpt>
      <trkpt lat="45.48528" lon="4.58052">
        <ele>357</ele>
        <time>2023-05-21T12:43:01Z</time>
      </trkpt>
      <trkpt lat="45.48533" lon="4.58063">
        <ele>358</ele>
        <time>2023-05-21T12:43:03Z</time>
      </trkpt>
      <trkpt lat="45.48586" lon="4.58136">
        <ele>365</ele>
        <time>2023-05-21T12:43:20Z</time>
      </trkpt>
      <trkpt lat="45.48591" lon="4.58156">
        <ele>368</ele>
        <time>2023-05-21T12:43:24Z</time>
      </trkpt>
      <trkpt lat="45.48589" lon="4.58198">
        <ele>372</ele>
        <time>2023-05-21T12:43:31Z</time>
      </trkpt>
      <trkpt lat="45.48578" lon="4.58288">
        <ele>380</ele>
        <time>2023-05-21T12:43:46Z</time>
      </trkpt>
      <trkpt lat="45.48582" lon="4.58305">
        <ele>381</ele>
        <time>2023-05-21T12:43:49Z</time>
      </trkpt>
      <trkpt lat="45.48593" lon="4.58321">
        <ele>382</ele>
        <time>2023-05-21T12:43:52Z</time>
      </trkpt>
      <trkpt lat="45.4862" lon="4.58342">
        <ele>384</ele>
        <time>2023-05-21T12:43:59Z</time>
      </trkpt>
      <trkpt lat="45.48725" lon="4.58413">
        <ele>395</ele>
        <time>2023-05-21T12:44:27Z</time>
      </trkpt>
      <trkpt lat="45.48766" lon="4.58436">
        <ele>397</ele>
        <time>2023-05-21T12:44:37Z</time>
      </trkpt>
      <trkpt lat="45.48776" lon="4.58447">
        <ele>398</ele>
        <time>2023-05-21T12:44:40Z</time>
      </trkpt>
      <trkpt lat="45.48785" lon="4.58469">
        <ele>400</ele>
        <time>2023-05-21T12:44:44Z</time>
      </trkpt>
      <trkpt lat="45.48828" lon="4.58603">
        <ele>408</ele>
        <time>2023-05-21T12:45:08Z</time>
      </trkpt>
      <trkpt lat="45.48836" lon="4.5867">
        <ele>410</ele>
        <time>2023-05-21T12:45:19Z</time>
      </trkpt>
      <trkpt lat="45.4885" lon="4.58757">
        <ele>412</ele>
        <time>2023-05-21T12:45:34Z</time>
      </trkpt>
      <trkpt lat="45.48852" lon="4.58849">
        <ele>414</ele>
        <time>2023-05-21T12:45:49Z</time>
      </trkpt>
      <trkpt lat="45.4886" lon="4.58914">
        <ele>417</ele>
        <time>2023-05-21T12:46:00Z</time>
      </trkpt>
      <trkpt lat="45.48876" lon="4.58959">
        <ele>419</ele>
        <time>2023-05-21T12:46:08Z</time>
      </trkpt>
      <trkpt lat="45.48923" lon="4.59061">
        <ele>422</ele>
        <time>2023-05-21T12:46:28Z</time>
      </trkpt>
      <trkpt lat="45.48956" lon="4.59124">
        <ele>423</ele>
        <time>2023-05-21T12:46:41Z</time>
      </trkpt>
      <trkpt lat="45.48995" lon="4.59217">
        <ele>426</ele>
        <time>2023-05-21T12:46:59Z</time>
      </trkpt>
      <trkpt lat="45.49037" lon="4.59306">
        <ele>429</ele>
        <time>2023-05-21T12:47:16Z</time>
      </trkpt>
      <trkpt lat="45.49191" lon="4.59507">
        <ele>438</ele>
        <time>2023-05-21T12:48:05Z</time>
      </trkpt>
      <trkpt lat="45.49219" lon="4.59567">
        <ele>444</ele>
        <time>2023-05-21T12:48:17Z</time>
      </trkpt>
      <trkpt lat="45.4924" lon="4.59597">
        <ele>446</ele>
        <time>2023-05-21T12:48:24Z</time>
      </trkpt>
      <trkpt lat="45.49267" lon="4.59624">
        <ele>446</ele>
        <time>2023-05-21T12:48:31Z</time>
      </trkpt>
      <trkpt lat="45.49277" lon="4.5964">
        <ele>447</ele>
        <time>2023-05-21T12:48:35Z</time>
      </trkpt>
      <trkpt lat="45.49288" lon="4.59689">
        <ele>450</ele>
        <time>2023-05-21T12:48:43Z</time>
      </trkpt>
      <trkpt lat="45.49286" lon="4.59697">
        <ele>451</ele>
        <time>2023-05-21T12:48:45Z</time>
      </trkpt>
      <trkpt lat="45.49287" lon="4.59741">
        <ele>455</ele>
        <time>2023-05-21T12:48:52Z</time>
      </trkpt>
      <trkpt lat="45.49295" lon="4.59746">
        <ele>455</ele>
        <time>2023-05-21T12:48:54Z</time>
      </trkpt>
      <trkpt lat="45.49301" lon="4.59762">
        <ele>454</ele>
        <time>2023-05-21T12:48:57Z</time>
      </trkpt>
      <trkpt lat="45.49313" lon="4.59765">
        <ele>453</ele>
        <time>2023-05-21T12:49:00Z</time>
      </trkpt>
      <trkpt lat="45.49316" lon="4.59762">
        <ele>453</ele>
        <time>2023-05-21T12:49:01Z</time>
      </trkpt>
      <trkpt lat="45.49324" lon="4.59762">
        <ele>453</ele>
        <time>2023-05-21T12:49:02Z</time>
      </trkpt>
      <trkpt lat="45.4933" lon="4.59755">
        <ele>453</ele>
        <time>2023-05-21T12:49:04Z</time>
      </trkpt>
      <trkpt lat="45.49334" lon="4.59736">
        <ele>452</ele>
        <time>2023-05-21T12:49:08Z</time>
      </trkpt>
      <trkpt lat="45.4937" lon="4.5974">
        <ele>449</ele>
        <time>2023-05-21T12:49:16Z</time>
      </trkpt>
      <trkpt lat="45.49402" lon="4.59764">
        <ele>447</ele>
        <time>2023-05-21T12:49:24Z</time>
      </trkpt>
      <trkpt lat="45.49508" lon="4.59826">
        <ele>434</ele>
        <time>2023-05-21T12:49:51Z</time>
      </trkpt>
      <trkpt lat="45.49509" lon="4.59879">
        <ele>432</ele>
        <time>2023-05-21T12:50:00Z</time>
      </trkpt>
      <trkpt lat="45.49537" lon="4.59978">
        <ele>423</ele>
        <time>2023-05-21T12:50:17Z</time>
      </trkpt>
      <trkpt lat="45.49546" lon="4.60035">
        <ele>418</ele>
        <time>2023-05-21T12:50:27Z</time>
      </trkpt>
      <trkpt lat="45.49547" lon="4.60057">
        <ele>417</ele>
        <time>2023-05-21T12:50:31Z</time>
      </trkpt>
      <trkpt lat="45.49542" lon="4.60114">
        <ele>412</ele>
        <time>2023-05-21T12:50:40Z</time>
      </trkpt>
      <trkpt lat="45.49541" lon="4.6018">
        <ele>406</ele>
        <time>2023-05-21T12:50:51Z</time>
      </trkpt>
      <trkpt lat="45.49485" lon="4.60188">
        <ele>403</ele>
        <time>2023-05-21T12:51:04Z</time>
      </trkpt>
      <trkpt lat="45.49461" lon="4.602">
        <ele>400</ele>
        <time>2023-05-21T12:51:10Z</time>
      </trkpt>
      <trkpt lat="45.49421" lon="4.60231">
        <ele>392</ele>
        <time>2023-05-21T12:51:20Z</time>
      </trkpt>
      <trkpt lat="45.49389" lon="4.60221">
        <ele>394</ele>
        <time>2023-05-21T12:51:28Z</time>
      </trkpt>
      <trkpt lat="45.49383" lon="4.60224">
        <ele>393</ele>
        <time>2023-05-21T12:51:30Z</time>
      </trkpt>
      <trkpt lat="45.49387" lon="4.6023">
        <ele>392</ele>
        <time>2023-05-21T12:51:31Z</time>
      </trkpt>
      <trkpt lat="45.49382" lon="4.60237">
        <ele>391</ele>
        <time>2023-05-21T12:51:33Z</time>
      </trkpt>
      <trkpt lat="45.4937" lon="4.60235">
        <ele>391</ele>
        <time>2023-05-21T12:51:35Z</time>
      </trkpt>
      <trkpt lat="45.49348" lon="4.60248">
        <ele>389</ele>
        <time>2023-05-21T12:51:41Z</time>
      </trkpt>
      <trkpt lat="45.49345" lon="4.60257">
        <ele>389</ele>
        <time>2023-05-21T12:51:43Z</time>
      </trkpt>
      <trkpt lat="45.49347" lon="4.60262">
        <ele>389</ele>
        <time>2023-05-21T12:51:44Z</time>
      </trkpt>
      <trkpt lat="45.49368" lon="4.60274">
        <ele>390</ele>
        <time>2023-05-21T12:51:49Z</time>
      </trkpt>
      <trkpt lat="45.49396" lon="4.603">
        <ele>390</ele>
        <time>2023-05-21T12:51:57Z</time>
      </trkpt>
      <trkpt lat="45.49424" lon="4.60315">
        <ele>389</ele>
        <time>2023-05-21T12:52:04Z</time>
      </trkpt>
      <trkpt lat="45.49462" lon="4.60352">
        <ele>389</ele>
        <time>2023-05-21T12:52:14Z</time>
      </trkpt>
      <trkpt lat="45.49544" lon="4.60406">
        <ele>388</ele>
        <time>2023-05-21T12:52:35Z</time>
      </trkpt>
      <trkpt lat="45.4958" lon="4.60414">
        <ele>385</ele>
        <time>2023-05-21T12:52:44Z</time>
      </trkpt>
      <trkpt lat="45.49624" lon="4.60432">
        <ele>385</ele>
        <time>2023-05-21T12:52:55Z</time>
      </trkpt>
      <trkpt lat="45.49656" lon="4.60467">
        <ele>389</ele>
        <time>2023-05-21T12:53:04Z</time>
      </trkpt>
      <trkpt lat="45.49724" lon="4.60568">
        <ele>403</ele>
        <time>2023-05-21T12:53:27Z</time>
      </trkpt>
      <trkpt lat="45.49739" lon="4.60574">
        <ele>403</ele>
        <time>2023-05-21T12:53:31Z</time>
      </trkpt>
      <trkpt lat="45.49768" lon="4.60634">
        <ele>409</ele>
        <time>2023-05-21T12:53:43Z</time>
      </trkpt>
      <trkpt lat="45.49785" lon="4.60661">
        <ele>411</ele>
        <time>2023-05-21T12:53:48Z</time>
      </trkpt>
      <trkpt lat="45.49796" lon="4.60694">
        <ele>415</ele>
        <time>2023-05-21T12:53:54Z</time>
      </trkpt>
      <trkpt lat="45.49805" lon="4.60707">
        <ele>416</ele>
        <time>2023-05-21T12:53:57Z</time>
      </trkpt>
      <trkpt lat="45.49836" lon="4.60739">
        <ele>417</ele>
        <time>2023-05-21T12:54:06Z</time>
      </trkpt>
      <trkpt lat="45.49847" lon="4.6076">
        <ele>418</ele>
        <time>2023-05-21T12:54:11Z</time>
      </trkpt>
      <trkpt lat="45.4985" lon="4.60807">
        <ele>423</ele>
        <time>2023-05-21T12:54:18Z</time>
      </trkpt>
      <trkpt lat="45.49861" lon="4.60894">
        <ele>428</ele>
        <time>2023-05-21T12:54:33Z</time>
      </trkpt>
      <trkpt lat="45.49876" lon="4.60956">
        <ele>430</ele>
        <time>2023-05-21T12:54:44Z</time>
      </trkpt>
      <trkpt lat="45.49897" lon="4.61003">
        <ele>431</ele>
        <time>2023-05-21T12:54:53Z</time>
      </trkpt>
      <trkpt lat="45.49915" lon="4.61028">
        <ele>430</ele>
        <time>2023-05-21T12:54:59Z</time>
      </trkpt>
      <trkpt lat="45.49931" lon="4.61044">
        <ele>428</ele>
        <time>2023-05-21T12:55:03Z</time>
      </trkpt>
      <trkpt lat="45.49944" lon="4.61064">
        <ele>427</ele>
        <time>2023-05-21T12:55:08Z</time>
      </trkpt>
      <trkpt lat="45.49958" lon="4.61097">
        <ele>428</ele>
        <time>2023-05-21T12:55:14Z</time>
      </trkpt>
      <trkpt lat="45.49969" lon="4.61113">
        <ele>427</ele>
        <time>2023-05-21T12:55:18Z</time>
      </trkpt>
      <trkpt lat="45.49973" lon="4.61131">
        <ele>427</ele>
        <time>2023-05-21T12:55:21Z</time>
      </trkpt>
      <trkpt lat="45.49973" lon="4.61146">
        <ele>428</ele>
        <time>2023-05-21T12:55:23Z</time>
      </trkpt>
      <trkpt lat="45.49965" lon="4.61205">
        <ele>434</ele>
        <time>2023-05-21T12:55:33Z</time>
      </trkpt>
      <trkpt lat="45.49975" lon="4.61226">
        <ele>433</ele>
        <time>2023-05-21T12:55:37Z</time>
      </trkpt>
      <trkpt lat="45.4999" lon="4.61234">
        <ele>431</ele>
        <time>2023-05-21T12:55:41Z</time>
      </trkpt>
      <trkpt lat="45.50045" lon="4.61253">
        <ele>427</ele>
        <time>2023-05-21T12:55:54Z</time>
      </trkpt>
      <trkpt lat="45.50082" lon="4.6125">
        <ele>424</ele>
        <time>2023-05-21T12:56:03Z</time>
      </trkpt>
      <trkpt lat="45.50098" lon="4.61253">
        <ele>422</ele>
        <time>2023-05-21T12:56:07Z</time>
      </trkpt>
      <trkpt lat="45.50109" lon="4.6126">
        <ele>421</ele>
        <time>2023-05-21T12:56:09Z</time>
      </trkpt>
      <trkpt lat="45.5038" lon="4.61496">
        <ele>406</ele>
        <time>2023-05-21T12:57:23Z</time>
      </trkpt>
      <trkpt lat="45.50403" lon="4.6152">
        <ele>405</ele>
        <time>2023-05-21T12:57:30Z</time>
      </trkpt>
      <trkpt lat="45.50409" lon="4.61546">
        <ele>407</ele>
        <time>2023-05-21T12:57:35Z</time>
      </trkpt>
      <trkpt lat="45.50452" lon="4.61649">
        <ele>414</ele>
        <time>2023-05-21T12:57:54Z</time>
      </trkpt>
      <trkpt lat="45.50511" lon="4.61733">
        <ele>415</ele>
        <time>2023-05-21T12:58:14Z</time>
      </trkpt>
      <trkpt lat="45.50531" lon="4.61808">
        <ele>416</ele>
        <time>2023-05-21T12:58:27Z</time>
      </trkpt>
      <trkpt lat="45.50519" lon="4.61818">
        <ele>418</ele>
        <time>2023-05-21T12:58:30Z</time>
      </trkpt>
      <trkpt lat="45.5051" lon="4.61881">
        <ele>420</ele>
        <time>2023-05-21T12:58:41Z</time>
      </trkpt>
      <trkpt lat="45.50477" lon="4.61996">
        <ele>423</ele>
        <time>2023-05-21T12:59:01Z</time>
      </trkpt>
      <trkpt lat="45.50502" lon="4.62124">
        <ele>415</ele>
        <time>2023-05-21T12:59:23Z</time>
      </trkpt>
      <trkpt lat="45.50507" lon="4.62167">
        <ele>412</ele>
        <time>2023-05-21T12:59:30Z</time>
      </trkpt>
      <trkpt lat="45.50505" lon="4.62192">
        <ele>411</ele>
        <time>2023-05-21T12:59:34Z</time>
      </trkpt>
      <trkpt lat="45.50485" lon="4.62203">
        <ele>411</ele>
        <time>2023-05-21T12:59:39Z</time>
      </trkpt>
      <trkpt lat="45.5046" lon="4.62209">
        <ele>412</ele>
        <time>2023-05-21T12:59:45Z</time>
      </trkpt>
      <trkpt lat="45.50417" lon="4.62209">
        <ele>414</ele>
        <time>2023-05-21T12:59:55Z</time>
      </trkpt>
      <trkpt lat="45.5036" lon="4.62199">
        <ele>419</ele>
        <time>2023-05-21T13:00:08Z</time>
      </trkpt>
      <trkpt lat="45.50331" lon="4.62204">
        <ele>421</ele>
        <time>2023-05-21T13:00:15Z</time>
      </trkpt>
      <trkpt lat="45.50304" lon="4.62218">
        <ele>424</ele>
        <time>2023-05-21T13:00:22Z</time>
      </trkpt>
      <trkpt lat="45.50275" lon="4.62238">
        <ele>426</ele>
        <time>2023-05-21T13:00:29Z</time>
      </trkpt>
      <trkpt lat="45.50252" lon="4.62263">
        <ele>428</ele>
        <time>2023-05-21T13:00:36Z</time>
      </trkpt>
      <trkpt lat="45.50219" lon="4.62311">
        <ele>428</ele>
        <time>2023-05-21T13:00:47Z</time>
      </trkpt>
      <trkpt lat="45.50185" lon="4.62374">
        <ele>430</ele>
        <time>2023-05-21T13:01:00Z</time>
      </trkpt>
      <trkpt lat="45.50147" lon="4.62424">
        <ele>431</ele>
        <time>2023-05-21T13:01:12Z</time>
      </trkpt>
      <trkpt lat="45.50133" lon="4.62437">
        <ele>431</ele>
        <time>2023-05-21T13:01:16Z</time>
      </trkpt>
      <trkpt lat="45.50118" lon="4.62445">
        <ele>431</ele>
        <time>2023-05-21T13:01:20Z</time>
      </trkpt>
      <trkpt lat="45.50097" lon="4.62446">
        <ele>432</ele>
        <time>2023-05-21T13:01:25Z</time>
      </trkpt>
      <trkpt lat="45.50084" lon="4.62443">
        <ele>433</ele>
        <time>2023-05-21T13:01:28Z</time>
      </trkpt>
      <trkpt lat="45.5003" lon="4.62421">
        <ele>428</ele>
        <time>2023-05-21T13:01:41Z</time>
      </trkpt>
      <trkpt lat="45.50017" lon="4.62413">
        <ele>428</ele>
        <time>2023-05-21T13:01:44Z</time>
      </trkpt>
      <trkpt lat="45.49996" lon="4.62393">
        <ele>430</ele>
        <time>2023-05-21T13:01:50Z</time>
      </trkpt>
      <trkpt lat="45.49945" lon="4.62367">
        <ele>430</ele>
        <time>2023-05-21T13:02:03Z</time>
      </trkpt>
      <trkpt lat="45.49906" lon="4.6234">
        <ele>430</ele>
        <time>2023-05-21T13:02:13Z</time>
      </trkpt>
      <trkpt lat="45.49892" lon="4.62323">
        <ele>427</ele>
        <time>2023-05-21T13:02:17Z</time>
      </trkpt>
      <trkpt lat="45.49877" lon="4.62293">
        <ele>424</ele>
        <time>2023-05-21T13:02:23Z</time>
      </trkpt>
      <trkpt lat="45.49868" lon="4.62247">
        <ele>424</ele>
        <time>2023-05-21T13:02:31Z</time>
      </trkpt>
      <trkpt lat="45.49862" lon="4.62231">
        <ele>425</ele>
        <time>2023-05-21T13:02:34Z</time>
      </trkpt>
      <trkpt lat="45.49854" lon="4.62217">
        <ele>425</ele>
        <time>2023-05-21T13:02:37Z</time>
      </trkpt>
      <trkpt lat="45.4984" lon="4.62204">
        <ele>423</ele>
        <time>2023-05-21T13:02:41Z</time>
      </trkpt>
      <trkpt lat="45.49828" lon="4.62186">
        <ele>424</ele>
        <time>2023-05-21T13:02:45Z</time>
      </trkpt>
      <trkpt lat="45.49803" lon="4.62142">
        <ele>431</ele>
        <time>2023-05-21T13:02:54Z</time>
      </trkpt>
      <trkpt lat="45.49794" lon="4.62137">
        <ele>432</ele>
        <time>2023-05-21T13:02:56Z</time>
      </trkpt>
      <trkpt lat="45.49768" lon="4.62144">
        <ele>429</ele>
        <time>2023-05-21T13:03:03Z</time>
      </trkpt>
      <trkpt lat="45.49747" lon="4.62145">
        <ele>427</ele>
        <time>2023-05-21T13:03:08Z</time>
      </trkpt>
      <trkpt lat="45.49659" lon="4.62136">
        <ele>430</ele>
        <time>2023-05-21T13:03:28Z</time>
      </trkpt>
      <trkpt lat="45.4962" lon="4.62136">
        <ele>427</ele>
        <time>2023-05-21T13:03:37Z</time>
      </trkpt>
      <trkpt lat="45.4956" lon="4.62125">
        <ele>421</ele>
        <time>2023-05-21T13:03:51Z</time>
      </trkpt>
      <trkpt lat="45.4954" lon="4.62107">
        <ele>418</ele>
        <time>2023-05-21T13:03:57Z</time>
      </trkpt>
      <trkpt lat="45.49528" lon="4.6209">
        <ele>418</ele>
        <time>2023-05-21T13:04:01Z</time>
      </trkpt>
      <trkpt lat="45.49511" lon="4.62051">
        <ele>419</ele>
        <time>2023-05-21T13:04:08Z</time>
      </trkpt>
      <trkpt lat="45.49436" lon="4.61854">
        <ele>432</ele>
        <time>2023-05-21T13:04:45Z</time>
      </trkpt>
      <trkpt lat="45.4943" lon="4.61849">
        <ele>432</ele>
        <time>2023-05-21T13:04:47Z</time>
      </trkpt>
      <trkpt lat="45.49419" lon="4.61848">
        <ele>431</ele>
        <time>2023-05-21T13:04:49Z</time>
      </trkpt>
      <trkpt lat="45.49407" lon="4.61852">
        <ele>431</ele>
        <time>2023-05-21T13:04:52Z</time>
      </trkpt>
      <trkpt lat="45.49399" lon="4.61864">
        <ele>431</ele>
        <time>2023-05-21T13:04:55Z</time>
      </trkpt>
      <trkpt lat="45.49391" lon="4.61912">
        <ele>425</ele>
        <time>2023-05-21T13:05:03Z</time>
      </trkpt>
      <trkpt lat="45.49366" lon="4.61979">
        <ele>421</ele>
        <time>2023-05-21T13:05:15Z</time>
      </trkpt>
      <trkpt lat="45.49341" lon="4.62031">
        <ele>420</ele>
        <time>2023-05-21T13:05:26Z</time>
      </trkpt>
      <trkpt lat="45.49326" lon="4.62045">
        <ele>421</ele>
        <time>2023-05-21T13:05:30Z</time>
      </trkpt>
      <trkpt lat="45.49277" lon="4.62072">
        <ele>422</ele>
        <time>2023-05-21T13:05:42Z</time>
      </trkpt>
      <trkpt lat="45.49256" lon="4.62076">
        <ele>423</ele>
        <time>2023-05-21T13:05:47Z</time>
      </trkpt>
      <trkpt lat="45.49234" lon="4.62074">
        <ele>423</ele>
        <time>2023-05-21T13:05:52Z</time>
      </trkpt>
      <trkpt lat="45.49215" lon="4.62069">
        <ele>422</ele>
        <time>2023-05-21T13:05:57Z</time>
      </trkpt>
      <trkpt lat="45.49199" lon="4.6206">
        <ele>423</ele>
        <time>2023-05-21T13:06:01Z</time>
      </trkpt>
      <trkpt lat="45.49172" lon="4.62033">
        <ele>426</ele>
        <time>2023-05-21T13:06:08Z</time>
      </trkpt>
      <trkpt lat="45.49112" lon="4.61958">
        <ele>428</ele>
        <time>2023-05-21T13:06:27Z</time>
      </trkpt>
      <trkpt lat="45.49086" lon="4.61917">
        <ele>431</ele>
        <time>2023-05-21T13:06:36Z</time>
      </trkpt>
      <trkpt lat="45.49073" lon="4.61892">
        <ele>431</ele>
        <time>2023-05-21T13:06:41Z</time>
      </trkpt>
      <trkpt lat="45.49037" lon="4.61804">
        <ele>433</ele>
        <time>2023-05-21T13:06:58Z</time>
      </trkpt>
      <trkpt lat="45.49026" lon="4.6176">
        <ele>434</ele>
        <time>2023-05-21T13:07:06Z</time>
      </trkpt>
      <trkpt lat="45.49026" lon="4.61727">
        <ele>438</ele>
        <time>2023-05-21T13:07:11Z</time>
      </trkpt>
      <trkpt lat="45.49023" lon="4.6171">
        <ele>440</ele>
        <time>2023-05-21T13:07:14Z</time>
      </trkpt>
      <trkpt lat="45.49014" lon="4.61703">
        <ele>439</ele>
        <time>2023-05-21T13:07:16Z</time>
      </trkpt>
      <trkpt lat="45.49006" lon="4.61702">
        <ele>438</ele>
        <time>2023-05-21T13:07:18Z</time>
      </trkpt>
      <trkpt lat="45.48996" lon="4.61706">
        <ele>437</ele>
        <time>2023-05-21T13:07:21Z</time>
      </trkpt>
      <trkpt lat="45.48962" lon="4.61742">
        <ele>434</ele>
        <time>2023-05-21T13:07:30Z</time>
      </trkpt>
      <trkpt lat="45.48926" lon="4.61764">
        <ele>433</ele>
        <time>2023-05-21T13:07:40Z</time>
      </trkpt>
      <trkpt lat="45.48898" lon="4.61764">
        <ele>434</ele>
        <time>2023-05-21T13:07:46Z</time>
      </trkpt>
      <trkpt lat="45.48877" lon="4.61756">
        <ele>436</ele>
        <time>2023-05-21T13:07:51Z</time>
      </trkpt>
      <trkpt lat="45.48835" lon="4.61705">
        <ele>447</ele>
        <time>2023-05-21T13:08:04Z</time>
      </trkpt>
      <trkpt lat="45.48823" lon="4.61699">
        <ele>448</ele>
        <time>2023-05-21T13:08:07Z</time>
      </trkpt>
      <trkpt lat="45.48816" lon="4.617">
        <ele>449</ele>
        <time>2023-05-21T13:08:09Z</time>
      </trkpt>
      <trkpt lat="45.48794" lon="4.6172">
        <ele>446</ele>
        <time>2023-05-21T13:08:15Z</time>
      </trkpt>
      <trkpt lat="45.48779" lon="4.61724">
        <ele>446</ele>
        <time>2023-05-21T13:08:18Z</time>
      </trkpt>
      <trkpt lat="45.48689" lon="4.61721">
        <ele>450</ele>
        <time>2023-05-21T13:08:39Z</time>
      </trkpt>
      <trkpt lat="45.48631" lon="4.61711">
        <ele>456</ele>
        <time>2023-05-21T13:08:53Z</time>
      </trkpt>
      <trkpt lat="45.48613" lon="4.61714">
        <ele>458</ele>
        <time>2023-05-21T13:08:57Z</time>
      </trkpt>
      <trkpt lat="45.48613" lon="4.61732">
        <ele>457</ele>
        <time>2023-05-21T13:09:00Z</time>
      </trkpt>
      <trkpt lat="45.48711" lon="4.61926">
        <ele>457</ele>
        <time>2023-05-21T13:09:39Z</time>
      </trkpt>
      <trkpt lat="45.48745" lon="4.62008">
        <ele>458</ele>
        <time>2023-05-21T13:09:55Z</time>
      </trkpt>
      <trkpt lat="45.48757" lon="4.62046">
        <ele>457</ele>
        <time>2023-05-21T13:10:02Z</time>
      </trkpt>
      <trkpt lat="45.4876" lon="4.6208">
        <ele>458</ele>
        <time>2023-05-21T13:10:07Z</time>
      </trkpt>
      <trkpt lat="45.48757" lon="4.62108">
        <ele>457</ele>
        <time>2023-05-21T13:10:12Z</time>
      </trkpt>
      <trkpt lat="45.48749" lon="4.62138">
        <ele>457</ele>
        <time>2023-05-21T13:10:17Z</time>
      </trkpt>
      <trkpt lat="45.48727" lon="4.62181">
        <ele>456</ele>
        <time>2023-05-21T13:10:26Z</time>
      </trkpt>
      <trkpt lat="45.48712" lon="4.622">
        <ele>454</ele>
        <time>2023-05-21T13:10:31Z</time>
      </trkpt>
      <trkpt lat="45.48688" lon="4.62217">
        <ele>454</ele>
        <time>2023-05-21T13:10:37Z</time>
      </trkpt>
      <trkpt lat="45.48677" lon="4.6222">
        <ele>455</ele>
        <time>2023-05-21T13:10:40Z</time>
      </trkpt>
      <trkpt lat="45.48642" lon="4.62239">
        <ele>456</ele>
        <time>2023-05-21T13:10:48Z</time>
      </trkpt>
      <trkpt lat="45.48612" lon="4.62287">
        <ele>455</ele>
        <time>2023-05-21T13:10:59Z</time>
      </trkpt>
      <trkpt lat="45.48601" lon="4.62313">
        <ele>454</ele>
        <time>2023-05-21T13:11:04Z</time>
      </trkpt>
      <trkpt lat="45.48597" lon="4.62345">
        <ele>451</ele>
        <time>2023-05-21T13:11:09Z</time>
      </trkpt>
      <trkpt lat="45.48593" lon="4.62449">
        <ele>442</ele>
        <time>2023-05-21T13:11:26Z</time>
      </trkpt>
      <trkpt lat="45.4863" lon="4.62489">
        <ele>432</ele>
        <time>2023-05-21T13:11:37Z</time>
      </trkpt>
      <trkpt lat="45.4864" lon="4.62471">
        <ele>432</ele>
        <time>2023-05-21T13:11:41Z</time>
      </trkpt>
      <trkpt lat="45.48645" lon="4.62474">
        <ele>431</ele>
        <time>2023-05-21T13:11:42Z</time>
      </trkpt>
      <trkpt lat="45.48654" lon="4.6249">
        <ele>428</ele>
        <time>2023-05-21T13:11:45Z</time>
      </trkpt>
      <trkpt lat="45.48654" lon="4.62498">
        <ele>428</ele>
        <time>2023-05-21T13:11:47Z</time>
      </trkpt>
      <trkpt lat="45.48648" lon="4.6252">
        <ele>427</ele>
        <time>2023-05-21T13:11:51Z</time>
      </trkpt>
      <trkpt lat="45.48661" lon="4.62529">
        <ele>424</ele>
        <time>2023-05-21T13:11:54Z</time>
      </trkpt>
      <trkpt lat="45.48668" lon="4.62526">
        <ele>423</ele>
        <time>2023-05-21T13:11:56Z</time>
      </trkpt>
      <trkpt lat="45.48679" lon="4.62516">
        <ele>421</ele>
        <time>2023-05-21T13:11:59Z</time>
      </trkpt>
      <trkpt lat="45.48688" lon="4.625">
        <ele>420</ele>
        <time>2023-05-21T13:12:02Z</time>
      </trkpt>
      <trkpt lat="45.48692" lon="4.62501">
        <ele>419</ele>
        <time>2023-05-21T13:12:03Z</time>
      </trkpt>
      <trkpt lat="45.48699" lon="4.6251">
        <ele>416</ele>
        <time>2023-05-21T13:12:05Z</time>
      </trkpt>
      <trkpt lat="45.48701" lon="4.6252">
        <ele>414</ele>
        <time>2023-05-21T13:12:07Z</time>
      </trkpt>
      <trkpt lat="45.487" lon="4.62573">
        <ele>410</ele>
        <time>2023-05-21T13:12:16Z</time>
      </trkpt>
      <trkpt lat="45.48703" lon="4.6259">
        <ele>407</ele>
        <time>2023-05-21T13:12:18Z</time>
      </trkpt>
      <trkpt lat="45.48711" lon="4.62609">
        <ele>402</ele>
        <time>2023-05-21T13:12:22Z</time>
      </trkpt>
      <trkpt lat="45.48732" lon="4.62637">
        <ele>393</ele>
        <time>2023-05-21T13:12:29Z</time>
      </trkpt>
      <trkpt lat="45.48734" lon="4.62645">
        <ele>391</ele>
        <time>2023-05-21T13:12:30Z</time>
      </trkpt>
      <trkpt lat="45.48733" lon="4.6266">
        <ele>389</ele>
        <time>2023-05-21T13:12:33Z</time>
      </trkpt>
      <trkpt lat="45.48717" lon="4.62705">
        <ele>385</ele>
        <time>2023-05-21T13:12:41Z</time>
      </trkpt>
      <trkpt lat="45.48716" lon="4.62722">
        <ele>382</ele>
        <time>2023-05-21T13:12:44Z</time>
      </trkpt>
      <trkpt lat="45.4873" lon="4.62721">
        <ele>379</ele>
        <time>2023-05-21T13:12:47Z</time>
      </trkpt>
      <trkpt lat="45.4878" lon="4.62706">
        <ele>372</ele>
        <time>2023-05-21T13:12:59Z</time>
      </trkpt>
      <trkpt lat="45.48788" lon="4.62707">
        <ele>370</ele>
        <time>2023-05-21T13:13:01Z</time>
      </trkpt>
      <trkpt lat="45.48792" lon="4.62715">
        <ele>369</ele>
        <time>2023-05-21T13:13:02Z</time>
      </trkpt>
      <trkpt lat="45.48792" lon="4.62725">
        <ele>368</ele>
        <time>2023-05-21T13:13:04Z</time>
      </trkpt>
      <trkpt lat="45.4878" lon="4.62762">
        <ele>367</ele>
        <time>2023-05-21T13:13:11Z</time>
      </trkpt>
      <trkpt lat="45.48778" lon="4.62775">
        <ele>367</ele>
        <time>2023-05-21T13:13:13Z</time>
      </trkpt>
      <trkpt lat="45.48786" lon="4.62797">
        <ele>366</ele>
        <time>2023-05-21T13:13:17Z</time>
      </trkpt>
      <trkpt lat="45.48797" lon="4.62813">
        <ele>365</ele>
        <time>2023-05-21T13:13:21Z</time>
      </trkpt>
      <trkpt lat="45.48809" lon="4.62824">
        <ele>365</ele>
        <time>2023-05-21T13:13:24Z</time>
      </trkpt>
      <trkpt lat="45.48829" lon="4.62825">
        <ele>365</ele>
        <time>2023-05-21T13:13:29Z</time>
      </trkpt>
      <trkpt lat="45.48836" lon="4.62822">
        <ele>365</ele>
        <time>2023-05-21T13:13:30Z</time>
      </trkpt>
      <trkpt lat="45.48844" lon="4.6281">
        <ele>367</ele>
        <time>2023-05-21T13:13:33Z</time>
      </trkpt>
      <trkpt lat="45.48847" lon="4.62793">
        <ele>367</ele>
        <time>2023-05-21T13:13:36Z</time>
      </trkpt>
      <trkpt lat="45.48857" lon="4.62773">
        <ele>368</ele>
        <time>2023-05-21T13:13:40Z</time>
      </trkpt>
      <trkpt lat="45.48864" lon="4.62745">
        <ele>367</ele>
        <time>2023-05-21T13:13:45Z</time>
      </trkpt>
      <trkpt lat="45.48863" lon="4.62708">
        <ele>365</ele>
        <time>2023-05-21T13:13:51Z</time>
      </trkpt>
      <trkpt lat="45.48858" lon="4.6266">
        <ele>363</ele>
        <time>2023-05-21T13:13:59Z</time>
      </trkpt>
      <trkpt lat="45.48838" lon="4.6262">
        <ele>367</ele>
        <time>2023-05-21T13:14:07Z</time>
      </trkpt>
      <trkpt lat="45.48839" lon="4.62583">
        <ele>371</ele>
        <time>2023-05-21T13:14:13Z</time>
      </trkpt>
      <trkpt lat="45.48851" lon="4.6255">
        <ele>375</ele>
        <time>2023-05-21T13:14:19Z</time>
      </trkpt>
      <trkpt lat="45.48889" lon="4.62525">
        <ele>373</ele>
        <time>2023-05-21T13:14:29Z</time>
      </trkpt>
      <trkpt lat="45.48931" lon="4.62511">
        <ele>369</ele>
        <time>2023-05-21T13:14:39Z</time>
      </trkpt>
      <trkpt lat="45.4896" lon="4.62517">
        <ele>366</ele>
        <time>2023-05-21T13:14:46Z</time>
      </trkpt>
      <trkpt lat="45.4898" lon="4.62524">
        <ele>363</ele>
        <time>2023-05-21T13:14:50Z</time>
      </trkpt>
      <trkpt lat="45.49002" lon="4.62535">
        <ele>361</ele>
        <time>2023-05-21T13:14:56Z</time>
      </trkpt>
      <trkpt lat="45.49029" lon="4.62558">
        <ele>358</ele>
        <time>2023-05-21T13:15:03Z</time>
      </trkpt>
      <trkpt lat="45.49039" lon="4.62563">
        <ele>357</ele>
        <time>2023-05-21T13:15:06Z</time>
      </trkpt>
      <trkpt lat="45.49047" lon="4.62563">
        <ele>357</ele>
        <time>2023-05-21T13:15:08Z</time>
      </trkpt>
      <trkpt lat="45.49055" lon="4.62559">
        <ele>357</ele>
        <time>2023-05-21T13:15:10Z</time>
      </trkpt>
      <trkpt lat="45.49063" lon="4.62549">
        <ele>357</ele>
        <time>2023-05-21T13:15:12Z</time>
      </trkpt>
      <trkpt lat="45.49068" lon="4.62535">
        <ele>357</ele>
        <time>2023-05-21T13:15:15Z</time>
      </trkpt>
      <trkpt lat="45.49071" lon="4.62511">
        <ele>357</ele>
        <time>2023-05-21T13:15:19Z</time>
      </trkpt>
      <trkpt lat="45.49075" lon="4.62413">
        <ele>360</ele>
        <time>2023-05-21T13:15:35Z</time>
      </trkpt>
      <trkpt lat="45.4908" lon="4.62401">
        <ele>360</ele>
        <time>2023-05-21T13:15:37Z</time>
      </trkpt>
      <trkpt lat="45.49096" lon="4.62382">
        <ele>360</ele>
        <time>2023-05-21T13:15:42Z</time>
      </trkpt>
      <trkpt lat="45.49107" lon="4.6236">
        <ele>362</ele>
        <time>2023-05-21T13:15:46Z</time>
      </trkpt>
      <trkpt lat="45.49107" lon="4.62352">
        <ele>363</ele>
        <time>2023-05-21T13:15:48Z</time>
      </trkpt>
      <trkpt lat="45.49091" lon="4.62293">
        <ele>370</ele>
        <time>2023-05-21T13:15:58Z</time>
      </trkpt>
      <trkpt lat="45.49093" lon="4.62285">
        <ele>370</ele>
        <time>2023-05-21T13:15:59Z</time>
      </trkpt>
      <trkpt lat="45.49098" lon="4.62282">
        <ele>370</ele>
        <time>2023-05-21T13:16:01Z</time>
      </trkpt>
      <trkpt lat="45.49112" lon="4.62286">
        <ele>369</ele>
        <time>2023-05-21T13:16:04Z</time>
      </trkpt>
      <trkpt lat="45.49131" lon="4.62308">
        <ele>365</ele>
        <time>2023-05-21T13:16:10Z</time>
      </trkpt>
      <trkpt lat="45.4915" lon="4.62313">
        <ele>362</ele>
        <time>2023-05-21T13:16:14Z</time>
      </trkpt>
      <trkpt lat="45.49185" lon="4.62296">
        <ele>364</ele>
        <time>2023-05-21T13:16:23Z</time>
      </trkpt>
      <trkpt lat="45.49202" lon="4.62281">
        <ele>368</ele>
        <time>2023-05-21T13:16:27Z</time>
      </trkpt>
      <trkpt lat="45.49218" lon="4.62281">
        <ele>368</ele>
        <time>2023-05-21T13:16:31Z</time>
      </trkpt>
      <trkpt lat="45.49255" lon="4.62292">
        <ele>367</ele>
        <time>2023-05-21T13:16:40Z</time>
      </trkpt>
      <trkpt lat="45.49263" lon="4.62296">
        <ele>367</ele>
        <time>2023-05-21T13:16:42Z</time>
      </trkpt>
      <trkpt lat="45.49273" lon="4.62308">
        <ele>364</ele>
        <time>2023-05-21T13:16:45Z</time>
      </trkpt>
      <trkpt lat="45.49308" lon="4.62363">
        <ele>356</ele>
        <time>2023-05-21T13:16:57Z</time>
      </trkpt>
      <trkpt lat="45.49322" lon="4.62367">
        <ele>356</ele>
        <time>2023-05-21T13:17:01Z</time>
      </trkpt>
      <trkpt lat="45.49349" lon="4.62362">
        <ele>356</ele>
        <time>2023-05-21T13:17:07Z</time>
      </trkpt>
      <trkpt lat="45.49374" lon="4.62363">
        <ele>357</ele>
        <time>2023-05-21T13:17:13Z</time>
      </trkpt>
      <trkpt lat="45.49384" lon="4.62361">
        <ele>358</ele>
        <time>2023-05-21T13:17:15Z</time>
      </trkpt>
      <trkpt lat="45.49389" lon="4.62354">
        <ele>358</ele>
        <time>2023-05-21T13:17:17Z</time>
      </trkpt>
      <trkpt lat="45.49409" lon="4.62303">
        <ele>365</ele>
        <time>2023-05-21T13:17:26Z</time>
      </trkpt>
      <trkpt lat="45.49413" lon="4.62297">
        <ele>366</ele>
        <time>2023-05-21T13:17:28Z</time>
      </trkpt>
      <trkpt lat="45.49426" lon="4.62297">
        <ele>368</ele>
        <time>2023-05-21T13:17:31Z</time>
      </trkpt>
      <trkpt lat="45.49432" lon="4.62305">
        <ele>368</ele>
        <time>2023-05-21T13:17:33Z</time>
      </trkpt>
      <trkpt lat="45.49438" lon="4.62322">
        <ele>366</ele>
        <time>2023-05-21T13:17:36Z</time>
      </trkpt>
      <trkpt lat="45.49438" lon="4.62355">
        <ele>363</ele>
        <time>2023-05-21T13:17:41Z</time>
      </trkpt>
      <trkpt lat="45.49445" lon="4.62397">
        <ele>362</ele>
        <time>2023-05-21T13:17:48Z</time>
      </trkpt>
      <trkpt lat="45.49457" lon="4.62418">
        <ele>361</ele>
        <time>2023-05-21T13:17:53Z</time>
      </trkpt>
      <trkpt lat="45.49472" lon="4.62458">
        <ele>360</ele>
        <time>2023-05-21T13:18:00Z</time>
      </trkpt>
      <trkpt lat="45.49479" lon="4.62463">
        <ele>360</ele>
        <time>2023-05-21T13:18:02Z</time>
      </trkpt>
      <trkpt lat="45.49501" lon="4.62467">
        <ele>360</ele>
        <time>2023-05-21T13:18:07Z</time>
      </trkpt>
      <trkpt lat="45.49542" lon="4.62488">
        <ele>359</ele>
        <time>2023-05-21T13:18:17Z</time>
      </trkpt>
      <trkpt lat="45.49589" lon="4.62484">
        <ele>361</ele>
        <time>2023-05-21T13:18:28Z</time>
      </trkpt>
      <trkpt lat="45.49642" lon="4.62503">
        <ele>358</ele>
        <time>2023-05-21T13:18:41Z</time>
      </trkpt>
      <trkpt lat="45.49652" lon="4.62502">
        <ele>358</ele>
        <time>2023-05-21T13:18:43Z</time>
      </trkpt>
      <trkpt lat="45.49658" lon="4.62496">
        <ele>359</ele>
        <time>2023-05-21T13:18:45Z</time>
      </trkpt>
      <trkpt lat="45.49677" lon="4.62454">
        <ele>368</ele>
        <time>2023-05-21T13:18:53Z</time>
      </trkpt>
      <trkpt lat="45.49688" lon="4.62455">
        <ele>369</ele>
        <time>2023-05-21T13:18:56Z</time>
      </trkpt>
      <trkpt lat="45.49693" lon="4.62461">
        <ele>368</ele>
        <time>2023-05-21T13:18:57Z</time>
      </trkpt>
      <trkpt lat="45.49703" lon="4.62496">
        <ele>363</ele>
        <time>2023-05-21T13:19:04Z</time>
      </trkpt>
      <trkpt lat="45.49722" lon="4.62534">
        <ele>362</ele>
        <time>2023-05-21T13:19:11Z</time>
      </trkpt>
      <trkpt lat="45.49731" lon="4.62542">
        <ele>362</ele>
        <time>2023-05-21T13:19:14Z</time>
      </trkpt>
      <trkpt lat="45.49755" lon="4.62547">
        <ele>364</ele>
        <time>2023-05-21T13:19:19Z</time>
      </trkpt>
      <trkpt lat="45.49768" lon="4.62556">
        <ele>365</ele>
        <time>2023-05-21T13:19:23Z</time>
      </trkpt>
      <trkpt lat="45.4981" lon="4.62614">
        <ele>363</ele>
        <time>2023-05-21T13:19:36Z</time>
      </trkpt>
      <trkpt lat="45.49826" lon="4.62661">
        <ele>359</ele>
        <time>2023-05-21T13:19:45Z</time>
      </trkpt>
      <trkpt lat="45.49857" lon="4.62712">
        <ele>361</ele>
        <time>2023-05-21T13:19:56Z</time>
      </trkpt>
      <trkpt lat="45.49867" lon="4.62758">
        <ele>359</ele>
        <time>2023-05-21T13:20:04Z</time>
      </trkpt>
      <trkpt lat="45.49862" lon="4.62772">
        <ele>357</ele>
        <time>2023-05-21T13:20:06Z</time>
      </trkpt>
      <trkpt lat="45.49856" lon="4.62778">
        <ele>357</ele>
        <time>2023-05-21T13:20:08Z</time>
      </trkpt>
      <trkpt lat="45.49771" lon="4.62989">
        <ele>369</ele>
        <time>2023-05-21T13:20:48Z</time>
      </trkpt>
      <trkpt lat="45.49792" lon="4.62975">
        <ele>365</ele>
        <time>2023-05-21T13:20:53Z</time>
      </trkpt>
      <trkpt lat="45.4982" lon="4.63">
        <ele>364</ele>
        <time>2023-05-21T13:21:01Z</time>
      </trkpt>
      <trkpt lat="45.49837" lon="4.63001">
        <ele>362</ele>
        <time>2023-05-21T13:21:05Z</time>
      </trkpt>
      <trkpt lat="45.49865" lon="4.63029">
        <ele>365</ele>
        <time>2023-05-21T13:21:13Z</time>
      </trkpt>
      <trkpt lat="45.49861" lon="4.63032">
        <ele>366</ele>
        <time>2023-05-21T13:21:14Z</time>
      </trkpt>
      <trkpt lat="45.49831" lon="4.63028">
        <ele>369</ele>
        <time>2023-05-21T13:21:21Z</time>
      </trkpt>
      <trkpt lat="45.4983" lon="4.63036">
        <ele>371</ele>
        <time>2023-05-21T13:21:22Z</time>
      </trkpt>
      <trkpt lat="45.49874" lon="4.63066">
        <ele>372</ele>
        <time>2023-05-21T13:21:34Z</time>
      </trkpt>
      <trkpt lat="45.49899" lon="4.63093">
        <ele>374</ele>
        <time>2023-05-21T13:21:41Z</time>
      </trkpt>
      <trkpt lat="45.49926" lon="4.63136">
        <ele>376</ele>
        <time>2023-05-21T13:21:51Z</time>
      </trkpt>
      <trkpt lat="45.49963" lon="4.63222">
        <ele>378</ele>
        <time>2023-05-21T13:22:07Z</time>
      </trkpt>
      <trkpt lat="45.49974" lon="4.63253">
        <ele>379</ele>
        <time>2023-05-21T13:22:13Z</time>
      </trkpt>
      <trkpt lat="45.49986" lon="4.63259">
        <ele>377</ele>
        <time>2023-05-21T13:22:16Z</time>
      </trkpt>
      <trkpt lat="45.50003" lon="4.63249">
        <ele>371</ele>
        <time>2023-05-21T13:22:20Z</time>
      </trkpt>
      <trkpt lat="45.50016" lon="4.63251">
        <ele>370</ele>
        <time>2023-05-21T13:22:23Z</time>
      </trkpt>
      <trkpt lat="45.50026" lon="4.63269">
        <ele>373</ele>
        <time>2023-05-21T13:22:27Z</time>
      </trkpt>
      <trkpt lat="45.50037" lon="4.63308">
        <ele>381</ele>
        <time>2023-05-21T13:22:34Z</time>
      </trkpt>
      <trkpt lat="45.50045" lon="4.63315">
        <ele>383</ele>
        <time>2023-05-21T13:22:36Z</time>
      </trkpt>
      <trkpt lat="45.5009" lon="4.63339">
        <ele>386</ele>
        <time>2023-05-21T13:22:47Z</time>
      </trkpt>
      <trkpt lat="45.50157" lon="4.63366">
        <ele>390</ele>
        <time>2023-05-21T13:23:03Z</time>
      </trkpt>
      <trkpt lat="45.50176" lon="4.63382">
        <ele>391</ele>
        <time>2023-05-21T13:23:09Z</time>
      </trkpt>
      <trkpt lat="45.50185" lon="4.63401">
        <ele>394</ele>
        <time>2023-05-21T13:23:12Z</time>
      </trkpt>
      <trkpt lat="45.50208" lon="4.63468">
        <ele>403</ele>
        <time>2023-05-21T13:23:25Z</time>
      </trkpt>
      <trkpt lat="45.50251" lon="4.63531">
        <ele>409</ele>
        <time>2023-05-21T13:23:39Z</time>
      </trkpt>
      <trkpt lat="45.5026" lon="4.63551">
        <ele>411</ele>
        <time>2023-05-21T13:23:43Z</time>
      </trkpt>
      <trkpt lat="45.5026" lon="4.63559">
        <ele>412</ele>
        <time>2023-05-21T13:23:44Z</time>
      </trkpt>
      <trkpt lat="45.50268" lon="4.63563">
        <ele>412</ele>
        <time>2023-05-21T13:23:46Z</time>
      </trkpt>
      <trkpt lat="45.50296" lon="4.63599">
        <ele>413</ele>
        <time>2023-05-21T13:23:55Z</time>
      </trkpt>
      <trkpt lat="45.50315" lon="4.63613">
        <ele>412</ele>
        <time>2023-05-21T13:24:00Z</time>
      </trkpt>
      <trkpt lat="45.5033" lon="4.63629">
        <ele>412</ele>
        <time>2023-05-21T13:24:04Z</time>
      </trkpt>
      <trkpt lat="45.50336" lon="4.63642">
        <ele>411</ele>
        <time>2023-05-21T13:24:07Z</time>
      </trkpt>
      <trkpt lat="45.50338" lon="4.63665">
        <ele>412</ele>
        <time>2023-05-21T13:24:11Z</time>
      </trkpt>
      <trkpt lat="45.50333" lon="4.63708">
        <ele>414</ele>
        <time>2023-05-21T13:24:18Z</time>
      </trkpt>
      <trkpt lat="45.50331" lon="4.63767">
        <ele>415</ele>
        <time>2023-05-21T13:24:27Z</time>
      </trkpt>
      <trkpt lat="45.50337" lon="4.63791">
        <ele>415</ele>
        <time>2023-05-21T13:24:32Z</time>
      </trkpt>
      <trkpt lat="45.50367" lon="4.63848">
        <ele>411</ele>
        <time>2023-05-21T13:24:43Z</time>
      </trkpt>
      <trkpt lat="45.50362" lon="4.63885">
        <ele>415</ele>
        <time>2023-05-21T13:24:49Z</time>
      </trkpt>
      <trkpt lat="45.50355" lon="4.63906">
        <ele>418</ele>
        <time>2023-05-21T13:24:53Z</time>
      </trkpt>
      <trkpt lat="45.50345" lon="4.63931">
        <ele>420</ele>
        <time>2023-05-21T13:24:58Z</time>
      </trkpt>
      <trkpt lat="45.50326" lon="4.63961">
        <ele>423</ele>
        <time>2023-05-21T13:25:05Z</time>
      </trkpt>
      <trkpt lat="45.50322" lon="4.63964">
        <ele>423</ele>
        <time>2023-05-21T13:25:06Z</time>
      </trkpt>
      <trkpt lat="45.50316" lon="4.6396">
        <ele>424</ele>
        <time>2023-05-21T13:25:07Z</time>
      </trkpt>
      <trkpt lat="45.50301" lon="4.63923">
        <ele>428</ele>
        <time>2023-05-21T13:25:14Z</time>
      </trkpt>
      <trkpt lat="45.50264" lon="4.63851">
        <ele>430</ele>
        <time>2023-05-21T13:25:29Z</time>
      </trkpt>
      <trkpt lat="45.50243" lon="4.6378">
        <ele>433</ele>
        <time>2023-05-21T13:25:41Z</time>
      </trkpt>
      <trkpt lat="45.50235" lon="4.63763">
        <ele>434</ele>
        <time>2023-05-21T13:25:45Z</time>
      </trkpt>
      <trkpt lat="45.50228" lon="4.63752">
        <ele>436</ele>
        <time>2023-05-21T13:25:47Z</time>
      </trkpt>
      <trkpt lat="45.502" lon="4.63726">
        <ele>440</ele>
        <time>2023-05-21T13:25:55Z</time>
      </trkpt>
      <trkpt lat="45.50161" lon="4.63701">
        <ele>446</ele>
        <time>2023-05-21T13:26:05Z</time>
      </trkpt>
      <trkpt lat="45.50115" lon="4.63682">
        <ele>452</ele>
        <time>2023-05-21T13:26:16Z</time>
      </trkpt>
      <trkpt lat="45.50037" lon="4.63683">
        <ele>462</ele>
        <time>2023-05-21T13:26:34Z</time>
      </trkpt>
      <trkpt lat="45.50023" lon="4.63688">
        <ele>464</ele>
        <time>2023-05-21T13:26:38Z</time>
      </trkpt>
      <trkpt lat="45.49988" lon="4.63707">
        <ele>469</ele>
        <time>2023-05-21T13:26:47Z</time>
      </trkpt>
      <trkpt lat="45.49936" lon="4.63727">
        <ele>473</ele>
        <time>2023-05-21T13:26:59Z</time>
      </trkpt>
      <trkpt lat="45.49915" lon="4.6374">
        <ele>475</ele>
        <time>2023-05-21T13:27:04Z</time>
      </trkpt>
      <trkpt lat="45.49897" lon="4.63743">
        <ele>478</ele>
        <time>2023-05-21T13:27:09Z</time>
      </trkpt>
      <trkpt lat="45.49853" lon="4.63718">
        <ele>478</ele>
        <time>2023-05-21T13:27:20Z</time>
      </trkpt>
      <trkpt lat="45.49785" lon="4.63703">
        <ele>487</ele>
        <time>2023-05-21T13:27:36Z</time>
      </trkpt>
      <trkpt lat="45.49765" lon="4.6364">
        <ele>480</ele>
        <time>2023-05-21T13:27:47Z</time>
      </trkpt>
      <trkpt lat="45.49745" lon="4.63627">
        <ele>483</ele>
        <time>2023-05-21T13:27:52Z</time>
      </trkpt>
      <trkpt lat="45.49721" lon="4.6362">
        <ele>487</ele>
        <time>2023-05-21T13:27:58Z</time>
      </trkpt>
      <trkpt lat="45.49681" lon="4.63582">
        <ele>490</ele>
        <time>2023-05-21T13:28:09Z</time>
      </trkpt>
      <trkpt lat="45.49627" lon="4.6357">
        <ele>497</ele>
        <time>2023-05-21T13:28:22Z</time>
      </trkpt>
      <trkpt lat="45.49608" lon="4.63557">
        <ele>498</ele>
        <time>2023-05-21T13:28:27Z</time>
      </trkpt>
      <trkpt lat="45.49541" lon="4.63498">
        <ele>499</ele>
        <time>2023-05-21T13:28:45Z</time>
      </trkpt>
      <trkpt lat="45.49486" lon="4.6348">
        <ele>502</ele>
        <time>2023-05-21T13:28:58Z</time>
      </trkpt>
      <trkpt lat="45.4945" lon="4.63471">
        <ele>502</ele>
        <time>2023-05-21T13:29:07Z</time>
      </trkpt>
      <trkpt lat="45.49415" lon="4.63476">
        <ele>503</ele>
        <time>2023-05-21T13:29:15Z</time>
      </trkpt>
      <trkpt lat="45.49387" lon="4.63492">
        <ele>504</ele>
        <time>2023-05-21T13:29:22Z</time>
      </trkpt>
      <trkpt lat="45.49355" lon="4.63527">
        <ele>504</ele>
        <time>2023-05-21T13:29:32Z</time>
      </trkpt>
      <trkpt lat="45.49394" lon="4.63544">
        <ele>509</ele>
        <time>2023-05-21T13:29:41Z</time>
      </trkpt>
      <trkpt lat="45.49417" lon="4.63559">
        <ele>513</ele>
        <time>2023-05-21T13:29:47Z</time>
      </trkpt>
      <trkpt lat="45.49458" lon="4.63605">
        <ele>517</ele>
        <time>2023-05-21T13:29:59Z</time>
      </trkpt>
      <trkpt lat="45.49467" lon="4.63621">
        <ele>519</ele>
        <time>2023-05-21T13:30:03Z</time>
      </trkpt>
      <trkpt lat="45.49472" lon="4.63637">
        <ele>520</ele>
        <time>2023-05-21T13:30:05Z</time>
      </trkpt>
      <trkpt lat="45.49482" lon="4.63728">
        <ele>528</ele>
        <time>2023-05-21T13:30:21Z</time>
      </trkpt>
      <trkpt lat="45.49501" lon="4.6379">
        <ele>535</ele>
        <time>2023-05-21T13:30:32Z</time>
      </trkpt>
      <trkpt lat="45.49518" lon="4.6383">
        <ele>538</ele>
        <time>2023-05-21T13:30:39Z</time>
      </trkpt>
      <trkpt lat="45.4959" lon="4.63891">
        <ele>545</ele>
        <time>2023-05-21T13:30:59Z</time>
      </trkpt>
      <trkpt lat="45.4963" lon="4.63944">
        <ele>549</ele>
        <time>2023-05-21T13:31:12Z</time>
      </trkpt>
      <trkpt lat="45.49672" lon="4.63992">
        <ele>554</ele>
        <time>2023-05-21T13:31:24Z</time>
      </trkpt>
      <trkpt lat="45.49722" lon="4.64036">
        <ele>557</ele>
        <time>2023-05-21T13:31:38Z</time>
      </trkpt>
      <trkpt lat="45.49731" lon="4.64048">
        <ele>558</ele>
        <time>2023-05-21T13:31:41Z</time>
      </trkpt>
      <trkpt lat="45.49784" lon="4.64094">
        <ele>558</ele>
        <time>2023-05-21T13:31:55Z</time>
      </trkpt>
      <trkpt lat="45.49803" lon="4.64124">
        <ele>558</ele>
        <time>2023-05-21T13:32:02Z</time>
      </trkpt>
      <trkpt lat="45.49836" lon="4.64285">
        <ele>564</ele>
        <time>2023-05-21T13:32:29Z</time>
      </trkpt>
      <trkpt lat="45.49836" lon="4.64363">
        <ele>569</ele>
        <time>2023-05-21T13:32:42Z</time>
      </trkpt>
      <trkpt lat="45.49862" lon="4.64474">
        <ele>571</ele>
        <time>2023-05-21T13:33:01Z</time>
      </trkpt>
      <trkpt lat="45.49875" lon="4.64513">
        <ele>570</ele>
        <time>2023-05-21T13:33:08Z</time>
      </trkpt>
      <trkpt lat="45.49892" lon="4.6459">
        <ele>570</ele>
        <time>2023-05-21T13:33:22Z</time>
      </trkpt>
      <trkpt lat="45.49903" lon="4.64656">
        <ele>571</ele>
        <time>2023-05-21T13:33:33Z</time>
      </trkpt>
      <trkpt lat="45.4996" lon="4.64788">
        <ele>566</ele>
        <time>2023-05-21T13:33:58Z</time>
      </trkpt>
      <trkpt lat="45.49991" lon="4.64887">
        <ele>568</ele>
        <time>2023-05-21T13:34:16Z</time>
      </trkpt>
      <trkpt lat="45.50012" lon="4.64927">
        <ele>566</ele>
        <time>2023-05-21T13:34:24Z</time>
      </trkpt>
      <trkpt lat="45.50019" lon="4.64952">
        <ele>566</ele>
        <time>2023-05-21T13:34:28Z</time>
      </trkpt>
      <trkpt lat="45.50025" lon="4.64982">
        <ele>567</ele>
        <time>2023-05-21T13:34:33Z</time>
      </trkpt>
      <trkpt lat="45.50021" lon="4.6509">
        <ele>573</ele>
        <time>2023-05-21T13:34:51Z</time>
      </trkpt>
      <trkpt lat="45.50026" lon="4.65101">
        <ele>573</ele>
        <time>2023-05-21T13:34:53Z</time>
      </trkpt>
      <trkpt lat="45.50146" lon="4.65112">
        <ele>563</ele>
        <time>2023-05-21T13:35:21Z</time>
      </trkpt>
      <trkpt lat="45.50193" lon="4.65112">
        <ele>563</ele>
        <time>2023-05-21T13:35:32Z</time>
      </trkpt>
      <trkpt lat="45.50218" lon="4.65116">
        <ele>565</ele>
        <time>2023-05-21T13:35:38Z</time>
      </trkpt>
      <trkpt lat="45.50252" lon="4.65131">
        <ele>569</ele>
        <time>2023-05-21T13:35:47Z</time>
      </trkpt>
      <trkpt lat="45.50297" lon="4.65155">
        <ele>571</ele>
        <time>2023-05-21T13:35:58Z</time>
      </trkpt>
      <trkpt lat="45.50312" lon="4.65167">
        <ele>573</ele>
        <time>2023-05-21T13:36:02Z</time>
      </trkpt>
      <trkpt lat="45.5034" lon="4.65221">
        <ele>579</ele>
        <time>2023-05-21T13:36:13Z</time>
      </trkpt>
      <trkpt lat="45.50369" lon="4.65287">
        <ele>584</ele>
        <time>2023-05-21T13:36:26Z</time>
      </trkpt>
      <trkpt lat="45.50358" lon="4.6531">
        <ele>585</ele>
        <time>2023-05-21T13:36:30Z</time>
      </trkpt>
      <trkpt lat="45.50326" lon="4.65346">
        <ele>588</ele>
        <time>2023-05-21T13:36:40Z</time>
      </trkpt>
      <trkpt lat="45.50293" lon="4.65376">
        <ele>592</ele>
        <time>2023-05-21T13:36:49Z</time>
      </trkpt>
      <trkpt lat="45.50252" lon="4.65424">
        <ele>597</ele>
        <time>2023-05-21T13:37:01Z</time>
      </trkpt>
      <trkpt lat="45.50222" lon="4.65466">
        <ele>598</ele>
        <time>2023-05-21T13:37:11Z</time>
      </trkpt>
      <trkpt lat="45.50153" lon="4.65539">
        <ele>603</ele>
        <time>2023-05-21T13:37:31Z</time>
      </trkpt>
      <trkpt lat="45.50067" lon="4.65582">
        <ele>607</ele>
        <time>2023-05-21T13:37:52Z</time>
      </trkpt>
      <trkpt lat="45.50046" lon="4.65589">
        <ele>608</ele>
        <time>2023-05-21T13:37:57Z</time>
      </trkpt>
      <trkpt lat="45.50003" lon="4.65595">
        <ele>611</ele>
        <time>2023-05-21T13:38:07Z</time>
      </trkpt>
      <trkpt lat="45.49987" lon="4.65602">
        <ele>612</ele>
        <time>2023-05-21T13:38:11Z</time>
      </trkpt>
      <trkpt lat="45.49975" lon="4.65617">
        <ele>612</ele>
        <time>2023-05-21T13:38:15Z</time>
      </trkpt>
      <trkpt lat="45.49923" lon="4.657">
        <ele>611</ele>
        <time>2023-05-21T13:38:33Z</time>
      </trkpt>
      <trkpt lat="45.49886" lon="4.65736">
        <ele>610</ele>
        <time>2023-05-21T13:38:44Z</time>
      </trkpt>
      <trkpt lat="45.49874" lon="4.65753">
        <ele>610</ele>
        <time>2023-05-21T13:38:48Z</time>
      </trkpt>
      <trkpt lat="45.49854" lon="4.65801">
        <ele>608</ele>
        <time>2023-05-21T13:38:57Z</time>
      </trkpt>
      <trkpt lat="45.49824" lon="4.65913">
        <ele>604</ele>
        <time>2023-05-21T13:39:16Z</time>
      </trkpt>
      <trkpt lat="45.49817" lon="4.65926">
        <ele>603</ele>
        <time>2023-05-21T13:39:19Z</time>
      </trkpt>
      <trkpt lat="45.49806" lon="4.65937">
        <ele>601</ele>
        <time>2023-05-21T13:39:22Z</time>
      </trkpt>
      <trkpt lat="45.49763" lon="4.65965">
        <ele>597</ele>
        <time>2023-05-21T13:39:33Z</time>
      </trkpt>
      <trkpt lat="45.4974" lon="4.65988">
        <ele>593</ele>
        <time>2023-05-21T13:39:40Z</time>
      </trkpt>
      <trkpt lat="45.49721" lon="4.65996">
        <ele>590</ele>
        <time>2023-05-21T13:39:44Z</time>
      </trkpt>
      <trkpt lat="45.4971" lon="4.66007">
        <ele>588</ele>
        <time>2023-05-21T13:39:48Z</time>
      </trkpt>
      <trkpt lat="45.49699" lon="4.66023">
        <ele>585</ele>
        <time>2023-05-21T13:39:51Z</time>
      </trkpt>
      <trkpt lat="45.49681" lon="4.66039">
        <ele>583</ele>
        <time>2023-05-21T13:39:56Z</time>
      </trkpt>
      <trkpt lat="45.49661" lon="4.66053">
        <ele>580</ele>
        <time>2023-05-21T13:40:01Z</time>
      </trkpt>
      <trkpt lat="45.4958" lon="4.6612">
        <ele>569</ele>
        <time>2023-05-21T13:40:23Z</time>
      </trkpt>
      <trkpt lat="45.49561" lon="4.66133">
        <ele>566</ele>
        <time>2023-05-21T13:40:28Z</time>
      </trkpt>
      <trkpt lat="45.49479" lon="4.66172">
        <ele>554</ele>
        <time>2023-05-21T13:40:48Z</time>
      </trkpt>
      <trkpt lat="45.49332" lon="4.66356">
        <ele>528</ele>
        <time>2023-05-21T13:41:34Z</time>
      </trkpt>
      <trkpt lat="45.4932" lon="4.66379">
        <ele>526</ele>
        <time>2023-05-21T13:41:39Z</time>
      </trkpt>
      <trkpt lat="45.493" lon="4.66395">
        <ele>526</ele>
        <time>2023-05-21T13:41:44Z</time>
      </trkpt>
      <trkpt lat="45.49306" lon="4.66408">
        <ele>525</ele>
        <time>2023-05-21T13:41:47Z</time>
      </trkpt>
      <trkpt lat="45.49333" lon="4.66437">
        <ele>523</ele>
        <time>2023-05-21T13:41:55Z</time>
      </trkpt>
      <trkpt lat="45.49348" lon="4.66448">
        <ele>521</ele>
        <time>2023-05-21T13:41:59Z</time>
      </trkpt>
      <trkpt lat="45.49395" lon="4.66469">
        <ele>516</ele>
        <time>2023-05-21T13:42:10Z</time>
      </trkpt>
      <trkpt lat="45.49455" lon="4.66484">
        <ele>510</ele>
        <time>2023-05-21T13:42:24Z</time>
      </trkpt>
      <trkpt lat="45.49558" lon="4.66499">
        <ele>500</ele>
        <time>2023-05-21T13:42:48Z</time>
      </trkpt>
      <trkpt lat="45.49618" lon="4.66502">
        <ele>501</ele>
        <time>2023-05-21T13:43:02Z</time>
      </trkpt>
      <trkpt lat="45.49627" lon="4.66511">
        <ele>501</ele>
        <time>2023-05-21T13:43:05Z</time>
      </trkpt>
      <trkpt lat="45.49647" lon="4.66574">
        <ele>499</ele>
        <time>2023-05-21T13:43:16Z</time>
      </trkpt>
      <trkpt lat="45.49661" lon="4.66607">
        <ele>497</ele>
        <time>2023-05-21T13:43:23Z</time>
      </trkpt>
      <trkpt lat="45.49684" lon="4.66636">
        <ele>496</ele>
        <time>2023-05-21T13:43:30Z</time>
      </trkpt>
      <trkpt lat="45.49707" lon="4.66658">
        <ele>495</ele>
        <time>2023-05-21T13:43:36Z</time>
      </trkpt>
      <trkpt lat="45.49753" lon="4.66695">
        <ele>495</ele>
        <time>2023-05-21T13:43:49Z</time>
      </trkpt>
      <trkpt lat="45.49794" lon="4.66723">
        <ele>494</ele>
        <time>2023-05-21T13:43:59Z</time>
      </trkpt>
      <trkpt lat="45.49837" lon="4.66747">
        <ele>495</ele>
        <time>2023-05-21T13:44:10Z</time>
      </trkpt>
      <trkpt lat="45.49895" lon="4.66746">
        <ele>494</ele>
        <time>2023-05-21T13:44:24Z</time>
      </trkpt>
      <trkpt lat="45.49912" lon="4.66734">
        <ele>494</ele>
        <time>2023-05-21T13:44:28Z</time>
      </trkpt>
      <trkpt lat="45.49937" lon="4.66726">
        <ele>492</ele>
        <time>2023-05-21T13:44:34Z</time>
      </trkpt>
      <trkpt lat="45.49962" lon="4.66711">
        <ele>490</ele>
        <time>2023-05-21T13:44:40Z</time>
      </trkpt>
      <trkpt lat="45.49998" lon="4.66673">
        <ele>488</ele>
        <time>2023-05-21T13:44:51Z</time>
      </trkpt>
      <trkpt lat="45.50046" lon="4.66606">
        <ele>483</ele>
        <time>2023-05-21T13:45:06Z</time>
      </trkpt>
      <trkpt lat="45.50087" lon="4.66554">
        <ele>480</ele>
        <time>2023-05-21T13:45:19Z</time>
      </trkpt>
      <trkpt lat="45.50101" lon="4.66543">
        <ele>480</ele>
        <time>2023-05-21T13:45:23Z</time>
      </trkpt>
      <trkpt lat="45.5014" lon="4.66524">
        <ele>478</ele>
        <time>2023-05-21T13:45:33Z</time>
      </trkpt>
      <trkpt lat="45.50243" lon="4.66511">
        <ele>479</ele>
        <time>2023-05-21T13:45:57Z</time>
      </trkpt>
      <trkpt lat="45.50293" lon="4.66476">
        <ele>478</ele>
        <time>2023-05-21T13:46:10Z</time>
      </trkpt>
      <trkpt lat="45.5031" lon="4.66458">
        <ele>476</ele>
        <time>2023-05-21T13:46:15Z</time>
      </trkpt>
      <trkpt lat="45.50318" lon="4.66434">
        <ele>476</ele>
        <time>2023-05-21T13:46:19Z</time>
      </trkpt>
      <trkpt lat="45.50327" lon="4.66418">
        <ele>475</ele>
        <time>2023-05-21T13:46:22Z</time>
      </trkpt>
      <trkpt lat="45.50391" lon="4.66356">
        <ele>470</ele>
        <time>2023-05-21T13:46:40Z</time>
      </trkpt>
      <trkpt lat="45.50405" lon="4.6635">
        <ele>469</ele>
        <time>2023-05-21T13:46:44Z</time>
      </trkpt>
      <trkpt lat="45.5043" lon="4.66329">
        <ele>466</ele>
        <time>2023-05-21T13:46:51Z</time>
      </trkpt>
      <trkpt lat="45.50445" lon="4.66311">
        <ele>465</ele>
        <time>2023-05-21T13:46:55Z</time>
      </trkpt>
      <trkpt lat="45.50455" lon="4.66305">
        <ele>464</ele>
        <time>2023-05-21T13:46:58Z</time>
      </trkpt>
      <trkpt lat="45.50541" lon="4.66366">
        <ele>451</ele>
        <time>2023-05-21T13:47:20Z</time>
      </trkpt>
      <trkpt lat="45.5059" lon="4.66392">
        <ele>444</ele>
        <time>2023-05-21T13:47:32Z</time>
      </trkpt>
      <trkpt lat="45.50607" lon="4.66393">
        <ele>443</ele>
        <time>2023-05-21T13:47:36Z</time>
      </trkpt>
      <trkpt lat="45.50613" lon="4.66372">
        <ele>443</ele>
        <time>2023-05-21T13:47:40Z</time>
      </trkpt>
      <trkpt lat="45.5061" lon="4.66338">
        <ele>446</ele>
        <time>2023-05-21T13:47:46Z</time>
      </trkpt>
      <trkpt lat="45.506" lon="4.66324">
        <ele>448</ele>
        <time>2023-05-21T13:47:49Z</time>
      </trkpt>
      <trkpt lat="45.50564" lon="4.66258">
        <ele>452</ele>
        <time>2023-05-21T13:48:03Z</time>
      </trkpt>
      <trkpt lat="45.50541" lon="4.66226">
        <ele>456</ele>
        <time>2023-05-21T13:48:10Z</time>
      </trkpt>
      <trkpt lat="45.50499" lon="4.66138">
        <ele>462</ele>
        <time>2023-05-21T13:48:28Z</time>
      </trkpt>
      <trkpt lat="45.50497" lon="4.66128">
        <ele>463</ele>
        <time>2023-05-21T13:48:29Z</time>
      </trkpt>
      <trkpt lat="45.505" lon="4.66118">
        <ele>463</ele>
        <time>2023-05-21T13:48:31Z</time>
      </trkpt>
      <trkpt lat="45.50508" lon="4.66116">
        <ele>463</ele>
        <time>2023-05-21T13:48:33Z</time>
      </trkpt>
      <trkpt lat="45.50541" lon="4.66125">
        <ele>462</ele>
        <time>2023-05-21T13:48:41Z</time>
      </trkpt>
      <trkpt lat="45.5058" lon="4.66131">
        <ele>461</ele>
        <time>2023-05-21T13:48:50Z</time>
      </trkpt>
      <trkpt lat="45.50605" lon="4.66126">
        <ele>460</ele>
        <time>2023-05-21T13:48:56Z</time>
      </trkpt>
      <trkpt lat="45.50638" lon="4.661">
        <ele>462</ele>
        <time>2023-05-21T13:49:05Z</time>
      </trkpt>
      <trkpt lat="45.50656" lon="4.66063">
        <ele>465</ele>
        <time>2023-05-21T13:49:12Z</time>
      </trkpt>
      <trkpt lat="45.50673" lon="4.66008">
        <ele>470</ele>
        <time>2023-05-21T13:49:22Z</time>
      </trkpt>
      <trkpt lat="45.50692" lon="4.65969">
        <ele>474</ele>
        <time>2023-05-21T13:49:30Z</time>
      </trkpt>
      <trkpt lat="45.50714" lon="4.65931">
        <ele>479</ele>
        <time>2023-05-21T13:49:38Z</time>
      </trkpt>
      <trkpt lat="45.50724" lon="4.65926">
        <ele>480</ele>
        <time>2023-05-21T13:49:40Z</time>
      </trkpt>
      <trkpt lat="45.5075" lon="4.65953">
        <ele>474</ele>
        <time>2023-05-21T13:49:48Z</time>
      </trkpt>
      <trkpt lat="45.50764" lon="4.65974">
        <ele>471</ele>
        <time>2023-05-21T13:49:52Z</time>
      </trkpt>
      <trkpt lat="45.5078" lon="4.65983">
        <ele>471</ele>
        <time>2023-05-21T13:49:56Z</time>
      </trkpt>
      <trkpt lat="45.50816" lon="4.65993">
        <ele>473</ele>
        <time>2023-05-21T13:50:05Z</time>
      </trkpt>
      <trkpt lat="45.50839" lon="4.65985">
        <ele>476</ele>
        <time>2023-05-21T13:50:11Z</time>
      </trkpt>
      <trkpt lat="45.50861" lon="4.65971">
        <ele>477</ele>
        <time>2023-05-21T13:50:16Z</time>
      </trkpt>
      <trkpt lat="45.50879" lon="4.65952">
        <ele>479</ele>
        <time>2023-05-21T13:50:21Z</time>
      </trkpt>
      <trkpt lat="45.50914" lon="4.65879">
        <ele>484</ele>
        <time>2023-05-21T13:50:36Z</time>
      </trkpt>
      <trkpt lat="45.50919" lon="4.6586">
        <ele>486</ele>
        <time>2023-05-21T13:50:39Z</time>
      </trkpt>
      <trkpt lat="45.50898" lon="4.65888">
        <ele>485</ele>
        <time>2023-05-21T13:50:46Z</time>
      </trkpt>
      <trkpt lat="45.50887" lon="4.65895">
        <ele>485</ele>
        <time>2023-05-21T13:50:49Z</time>
      </trkpt>
      <trkpt lat="45.50876" lon="4.65882">
        <ele>487</ele>
        <time>2023-05-21T13:50:52Z</time>
      </trkpt>
      <trkpt lat="45.50855" lon="4.65842">
        <ele>493</ele>
        <time>2023-05-21T13:51:00Z</time>
      </trkpt>
      <trkpt lat="45.50848" lon="4.65822">
        <ele>497</ele>
        <time>2023-05-21T13:51:04Z</time>
      </trkpt>
      <trkpt lat="45.50845" lon="4.6578">
        <ele>503</ele>
        <time>2023-05-21T13:51:11Z</time>
      </trkpt>
      <trkpt lat="45.50839" lon="4.65746">
        <ele>509</ele>
        <time>2023-05-21T13:51:17Z</time>
      </trkpt>
      <trkpt lat="45.50822" lon="4.65599">
        <ele>532</ele>
        <time>2023-05-21T13:51:41Z</time>
      </trkpt>
      <trkpt lat="45.50852" lon="4.6558">
        <ele>533</ele>
        <time>2023-05-21T13:51:49Z</time>
      </trkpt>
      <trkpt lat="45.50874" lon="4.65547">
        <ele>534</ele>
        <time>2023-05-21T13:51:56Z</time>
      </trkpt>
      <trkpt lat="45.50889" lon="4.65522">
        <ele>535</ele>
        <time>2023-05-21T13:52:01Z</time>
      </trkpt>
      <trkpt lat="45.50916" lon="4.65449">
        <ele>541</ele>
        <time>2023-05-21T13:52:15Z</time>
      </trkpt>
      <trkpt lat="45.50946" lon="4.65447">
        <ele>541</ele>
        <time>2023-05-21T13:52:22Z</time>
      </trkpt>
      <trkpt lat="45.51014" lon="4.65462">
        <ele>539</ele>
        <time>2023-05-21T13:52:38Z</time>
      </trkpt>
      <trkpt lat="45.51055" lon="4.65468">
        <ele>542</ele>
        <time>2023-05-21T13:52:48Z</time>
      </trkpt>
      <trkpt lat="45.51102" lon="4.65492">
        <ele>543</ele>
        <time>2023-05-21T13:52:59Z</time>
      </trkpt>
      <trkpt lat="45.51164" lon="4.65533">
        <ele>549</ele>
        <time>2023-05-21T13:53:15Z</time>
      </trkpt>
      <trkpt lat="45.51183" lon="4.65539">
        <ele>550</ele>
        <time>2023-05-21T13:53:20Z</time>
      </trkpt>
      <trkpt lat="45.51205" lon="4.65567">
        <ele>547</ele>
        <time>2023-05-21T13:53:27Z</time>
      </trkpt>
      <trkpt lat="45.51288" lon="4.65612">
        <ele>547</ele>
        <time>2023-05-21T13:53:47Z</time>
      </trkpt>
      <trkpt lat="45.51301" lon="4.65621">
        <ele>547</ele>
        <time>2023-05-21T13:53:51Z</time>
      </trkpt>
      <trkpt lat="45.51321" lon="4.65646">
        <ele>547</ele>
        <time>2023-05-21T13:53:57Z</time>
      </trkpt>
      <trkpt lat="45.51418" lon="4.65707">
        <ele>543</ele>
        <time>2023-05-21T13:54:22Z</time>
      </trkpt>
      <trkpt lat="45.51464" lon="4.65765">
        <ele>540</ele>
        <time>2023-05-21T13:54:36Z</time>
      </trkpt>
      <trkpt lat="45.51499" lon="4.65794">
        <ele>539</ele>
        <time>2023-05-21T13:54:46Z</time>
      </trkpt>
      <trkpt lat="45.51524" lon="4.65825">
        <ele>537</ele>
        <time>2023-05-21T13:54:53Z</time>
      </trkpt>
      <trkpt lat="45.51558" lon="4.6586">
        <ele>533</ele>
        <time>2023-05-21T13:55:03Z</time>
      </trkpt>
      <trkpt lat="45.51575" lon="4.65888">
        <ele>532</ele>
        <time>2023-05-21T13:55:09Z</time>
      </trkpt>
      <trkpt lat="45.51584" lon="4.65917">
        <ele>533</ele>
        <time>2023-05-21T13:55:14Z</time>
      </trkpt>
      <trkpt lat="45.51598" lon="4.6594">
        <ele>530</ele>
        <time>2023-05-21T13:55:19Z</time>
      </trkpt>
      <trkpt lat="45.51639" lon="4.6599">
        <ele>523</ele>
        <time>2023-05-21T13:55:32Z</time>
      </trkpt>
      <trkpt lat="45.51664" lon="4.66035">
        <ele>517</ele>
        <time>2023-05-21T13:55:41Z</time>
      </trkpt>
      <trkpt lat="45.51695" lon="4.66127">
        <ele>506</ele>
        <time>2023-05-21T13:55:58Z</time>
      </trkpt>
      <trkpt lat="45.5171" lon="4.66158">
        <ele>502</ele>
        <time>2023-05-21T13:56:04Z</time>
      </trkpt>
      <trkpt lat="45.51721" lon="4.66193">
        <ele>496</ele>
        <time>2023-05-21T13:56:10Z</time>
      </trkpt>
      <trkpt lat="45.51728" lon="4.66243">
        <ele>488</ele>
        <time>2023-05-21T13:56:19Z</time>
      </trkpt>
      <trkpt lat="45.51766" lon="4.66336">
        <ele>473</ele>
        <time>2023-05-21T13:56:36Z</time>
      </trkpt>
      <trkpt lat="45.51776" lon="4.66371">
        <ele>468</ele>
        <time>2023-05-21T13:56:43Z</time>
      </trkpt>
      <trkpt lat="45.51788" lon="4.66397">
        <ele>465</ele>
        <time>2023-05-21T13:56:48Z</time>
      </trkpt>
      <trkpt lat="45.51812" lon="4.66479">
        <ele>456</ele>
        <time>2023-05-21T13:57:02Z</time>
      </trkpt>
      <trkpt lat="45.51805" lon="4.66526">
        <ele>453</ele>
        <time>2023-05-21T13:57:10Z</time>
      </trkpt>
      <trkpt lat="45.51775" lon="4.66611">
        <ele>448</ele>
        <time>2023-05-21T13:57:26Z</time>
      </trkpt>
      <trkpt lat="45.51779" lon="4.66632">
        <ele>446</ele>
        <time>2023-05-21T13:57:29Z</time>
      </trkpt>
      <trkpt lat="45.51794" lon="4.6665">
        <ele>445</ele>
        <time>2023-05-21T13:57:34Z</time>
      </trkpt>
      <trkpt lat="45.51859" lon="4.66715">
        <ele>440</ele>
        <time>2023-05-21T13:57:52Z</time>
      </trkpt>
      <trkpt lat="45.51879" lon="4.66721">
        <ele>438</ele>
        <time>2023-05-21T13:57:57Z</time>
      </trkpt>
      <trkpt lat="45.51908" lon="4.6674">
        <ele>433</ele>
        <time>2023-05-21T13:58:05Z</time>
      </trkpt>
      <trkpt lat="45.5195" lon="4.66762">
        <ele>426</ele>
        <time>2023-05-21T13:58:15Z</time>
      </trkpt>
      <trkpt lat="45.51964" lon="4.66781">
        <ele>423</ele>
        <time>2023-05-21T13:58:20Z</time>
      </trkpt>
      <trkpt lat="45.51971" lon="4.66785">
        <ele>422</ele>
        <time>2023-05-21T13:58:21Z</time>
      </trkpt>
      <trkpt lat="45.51941" lon="4.66833">
        <ele>424</ele>
        <time>2023-05-21T13:58:32Z</time>
      </trkpt>
      <trkpt lat="45.51894" lon="4.66901">
        <ele>425</ele>
        <time>2023-05-21T13:58:47Z</time>
      </trkpt>
      <trkpt lat="45.51871" lon="4.66926">
        <ele>426</ele>
        <time>2023-05-21T13:58:54Z</time>
      </trkpt>
      <trkpt lat="45.51855" lon="4.66959">
        <ele>426</ele>
        <time>2023-05-21T13:59:01Z</time>
      </trkpt>
      <trkpt lat="45.51835" lon="4.67048">
        <ele>422</ele>
        <time>2023-05-21T13:59:16Z</time>
      </trkpt>
      <trkpt lat="45.51834" lon="4.67075">
        <ele>421</ele>
        <time>2023-05-21T13:59:21Z</time>
      </trkpt>
      <trkpt lat="45.51785" lon="4.67198">
        <ele>408</ele>
        <time>2023-05-21T13:59:44Z</time>
      </trkpt>
      <trkpt lat="45.51772" lon="4.6722">
        <ele>405</ele>
        <time>2023-05-21T13:59:48Z</time>
      </trkpt>
      <trkpt lat="45.51752" lon="4.67241">
        <ele>403</ele>
        <time>2023-05-21T13:59:54Z</time>
      </trkpt>
      <trkpt lat="45.51744" lon="4.67245">
        <ele>401</ele>
        <time>2023-05-21T13:59:56Z</time>
      </trkpt>
      <trkpt lat="45.5173" lon="4.67283">
        <ele>398</ele>
        <time>2023-05-21T14:00:03Z</time>
      </trkpt>
      <trkpt lat="45.51667" lon="4.67388">
        <ele>391</ele>
        <time>2023-05-21T14:00:26Z</time>
      </trkpt>
      <trkpt lat="45.51637" lon="4.67466">
        <ele>384</ele>
        <time>2023-05-21T14:00:40Z</time>
      </trkpt>
      <trkpt lat="45.51635" lon="4.67488">
        <ele>383</ele>
        <time>2023-05-21T14:00:44Z</time>
      </trkpt>
      <trkpt lat="45.51615" lon="4.67502">
        <ele>379</ele>
        <time>2023-05-21T14:00:49Z</time>
      </trkpt>
      <trkpt lat="45.51608" lon="4.67494">
        <ele>379</ele>
        <time>2023-05-21T14:00:51Z</time>
      </trkpt>
      <trkpt lat="45.516" lon="4.67473">
        <ele>377</ele>
        <time>2023-05-21T14:00:55Z</time>
      </trkpt>
      <trkpt lat="45.51602" lon="4.67465">
        <ele>378</ele>
        <time>2023-05-21T14:00:57Z</time>
      </trkpt>
      <trkpt lat="45.51601" lon="4.67448">
        <ele>378</ele>
        <time>2023-05-21T14:00:59Z</time>
      </trkpt>
      <trkpt lat="45.51605" lon="4.67432">
        <ele>378</ele>
        <time>2023-05-21T14:01:02Z</time>
      </trkpt>
      <trkpt lat="45.51619" lon="4.67325">
        <ele>383</ele>
        <time>2023-05-21T14:01:20Z</time>
      </trkpt>
      <trkpt lat="45.51619" lon="4.67297">
        <ele>385</ele>
        <time>2023-05-21T14:01:25Z</time>
      </trkpt>
      <trkpt lat="45.51613" lon="4.67276">
        <ele>386</ele>
        <time>2023-05-21T14:01:28Z</time>
      </trkpt>
      <trkpt lat="45.51603" lon="4.67274">
        <ele>385</ele>
        <time>2023-05-21T14:01:31Z</time>
      </trkpt>
      <trkpt lat="45.51579" lon="4.673">
        <ele>380</ele>
        <time>2023-05-21T14:01:38Z</time>
      </trkpt>
      <trkpt lat="45.51564" lon="4.67324">
        <ele>376</ele>
        <time>2023-05-21T14:01:43Z</time>
      </trkpt>
      <trkpt lat="45.51551" lon="4.67333">
        <ele>374</ele>
        <time>2023-05-21T14:01:46Z</time>
      </trkpt>
      <trkpt lat="45.51528" lon="4.67364">
        <ele>370</ele>
        <time>2023-05-21T14:01:54Z</time>
      </trkpt>
      <trkpt lat="45.5151" lon="4.67378">
        <ele>366</ele>
        <time>2023-05-21T14:01:58Z</time>
      </trkpt>
      <trkpt lat="45.51497" lon="4.67381">
        <ele>364</ele>
        <time>2023-05-21T14:02:02Z</time>
      </trkpt>
      <trkpt lat="45.51474" lon="4.67374">
        <ele>365</ele>
        <time>2023-05-21T14:02:07Z</time>
      </trkpt>
      <trkpt lat="45.51454" lon="4.67361">
        <ele>365</ele>
        <time>2023-05-21T14:02:12Z</time>
      </trkpt>
      <trkpt lat="45.51396" lon="4.67273">
        <ele>367</ele>
        <time>2023-05-21T14:02:32Z</time>
      </trkpt>
      <trkpt lat="45.51371" lon="4.67245">
        <ele>367</ele>
        <time>2023-05-21T14:02:39Z</time>
      </trkpt>
      <trkpt lat="45.51364" lon="4.67246">
        <ele>366</ele>
        <time>2023-05-21T14:02:41Z</time>
      </trkpt>
      <trkpt lat="45.51361" lon="4.67259">
        <ele>366</ele>
        <time>2023-05-21T14:02:43Z</time>
      </trkpt>
      <trkpt lat="45.51395" lon="4.67334">
        <ele>365</ele>
        <time>2023-05-21T14:02:58Z</time>
      </trkpt>
      <trkpt lat="45.51396" lon="4.67356">
        <ele>366</ele>
        <time>2023-05-21T14:03:01Z</time>
      </trkpt>
      <trkpt lat="45.51416" lon="4.67411">
        <ele>367</ele>
        <time>2023-05-21T14:03:12Z</time>
      </trkpt>
      <trkpt lat="45.51432" lon="4.67446">
        <ele>365</ele>
        <time>2023-05-21T14:03:18Z</time>
      </trkpt>
      <trkpt lat="45.51435" lon="4.67485">
        <ele>365</ele>
        <time>2023-05-21T14:03:25Z</time>
      </trkpt>
      <trkpt lat="45.51432" lon="4.67512">
        <ele>364</ele>
        <time>2023-05-21T14:03:29Z</time>
      </trkpt>
      <trkpt lat="45.51423" lon="4.67541">
        <ele>361</ele>
        <time>2023-05-21T14:03:35Z</time>
      </trkpt>
      <trkpt lat="45.51416" lon="4.67553">
        <ele>360</ele>
        <time>2023-05-21T14:03:37Z</time>
      </trkpt>
      <trkpt lat="45.51398" lon="4.6756">
        <ele>360</ele>
        <time>2023-05-21T14:03:41Z</time>
      </trkpt>
      <trkpt lat="45.51329" lon="4.67555">
        <ele>366</ele>
        <time>2023-05-21T14:03:58Z</time>
      </trkpt>
      <trkpt lat="45.51293" lon="4.67567">
        <ele>366</ele>
        <time>2023-05-21T14:04:06Z</time>
      </trkpt>
      <trkpt lat="45.51248" lon="4.67569">
        <ele>370</ele>
        <time>2023-05-21T14:04:17Z</time>
      </trkpt>
      <trkpt lat="45.51117" lon="4.67644">
        <ele>365</ele>
        <time>2023-05-21T14:04:50Z</time>
      </trkpt>
      <trkpt lat="45.51068" lon="4.67669">
        <ele>364</ele>
        <time>2023-05-21T14:05:02Z</time>
      </trkpt>
      <trkpt lat="45.50985" lon="4.67703">
        <ele>369</ele>
        <time>2023-05-21T14:05:22Z</time>
      </trkpt>
      <trkpt lat="45.50887" lon="4.67726">
        <ele>370</ele>
        <time>2023-05-21T14:05:45Z</time>
      </trkpt>
      <trkpt lat="45.50813" lon="4.67738">
        <ele>371</ele>
        <time>2023-05-21T14:06:03Z</time>
      </trkpt>
      <trkpt lat="45.50757" lon="4.6774">
        <ele>372</ele>
        <time>2023-05-21T14:06:16Z</time>
      </trkpt>
      <trkpt lat="45.50746" lon="4.67745">
        <ele>371</ele>
        <time>2023-05-21T14:06:18Z</time>
      </trkpt>
      <trkpt lat="45.50744" lon="4.67758">
        <ele>371</ele>
        <time>2023-05-21T14:06:21Z</time>
      </trkpt>
      <trkpt lat="45.50746" lon="4.67766">
        <ele>371</ele>
        <time>2023-05-21T14:06:22Z</time>
      </trkpt>
      <trkpt lat="45.50755" lon="4.67777">
        <ele>372</ele>
        <time>2023-05-21T14:06:25Z</time>
      </trkpt>
      <trkpt lat="45.50773" lon="4.67777">
        <ele>372</ele>
        <time>2023-05-21T14:06:29Z</time>
      </trkpt>
      <trkpt lat="45.50771" lon="4.67782">
        <ele>373</ele>
        <time>2023-05-21T14:06:30Z</time>
      </trkpt>
      <trkpt lat="45.5076" lon="4.67793">
        <ele>373</ele>
        <time>2023-05-21T14:06:33Z</time>
      </trkpt>
      <trkpt lat="45.50767" lon="4.67773">
        <ele>372</ele>
        <time>2023-05-21T14:06:37Z</time>
      </trkpt>
      <trkpt lat="45.50741" lon="4.67834">
        <ele>377</ele>
        <time>2023-05-21T14:06:48Z</time>
      </trkpt>
      <trkpt lat="45.50697" lon="4.67965">
        <ele>391</ele>
        <time>2023-05-21T14:07:12Z</time>
      </trkpt>
      <trkpt lat="45.50687" lon="4.68011">
        <ele>394</ele>
        <time>2023-05-21T14:07:20Z</time>
      </trkpt>
      <trkpt lat="45.50654" lon="4.68063">
        <ele>397</ele>
        <time>2023-05-21T14:07:31Z</time>
      </trkpt>
      <trkpt lat="45.50635" lon="4.68088">
        <ele>401</ele>
        <time>2023-05-21T14:07:37Z</time>
      </trkpt>
      <trkpt lat="45.50624" lon="4.68134">
        <ele>404</ele>
        <time>2023-05-21T14:07:45Z</time>
      </trkpt>
      <trkpt lat="45.50614" lon="4.6822">
        <ele>408</ele>
        <time>2023-05-21T14:08:00Z</time>
      </trkpt>
      <trkpt lat="45.50576" lon="4.68487">
        <ele>429</ele>
        <time>2023-05-21T14:08:44Z</time>
      </trkpt>
      <trkpt lat="45.50556" lon="4.68558">
        <ele>436</ele>
        <time>2023-05-21T14:08:57Z</time>
      </trkpt>
      <trkpt lat="45.50545" lon="4.68587">
        <ele>439</ele>
        <time>2023-05-21T14:09:02Z</time>
      </trkpt>
      <trkpt lat="45.50504" lon="4.68668">
        <ele>446</ele>
        <time>2023-05-21T14:09:19Z</time>
      </trkpt>
      <trkpt lat="45.50527" lon="4.68747">
        <ele>452</ele>
        <time>2023-05-21T14:09:33Z</time>
      </trkpt>
      <trkpt lat="45.50531" lon="4.68779">
        <ele>453</ele>
        <time>2023-05-21T14:09:38Z</time>
      </trkpt>
      <trkpt lat="45.50491" lon="4.68822">
        <ele>458</ele>
        <time>2023-05-21T14:09:50Z</time>
      </trkpt>
      <trkpt lat="45.5043" lon="4.68831">
        <ele>462</ele>
        <time>2023-05-21T14:10:04Z</time>
      </trkpt>
      <trkpt lat="45.50345" lon="4.68856">
        <ele>468</ele>
        <time>2023-05-21T14:10:24Z</time>
      </trkpt>
      <trkpt lat="45.50293" lon="4.68777">
        <ele>473</ele>
        <time>2023-05-21T14:10:42Z</time>
      </trkpt>
      <trkpt lat="45.50281" lon="4.68767">
        <ele>474</ele>
        <time>2023-05-21T14:10:45Z</time>
      </trkpt>
      <trkpt lat="45.50244" lon="4.6875">
        <ele>479</ele>
        <time>2023-05-21T14:10:54Z</time>
      </trkpt>
      <trkpt lat="45.5024" lon="4.68751">
        <ele>479</ele>
        <time>2023-05-21T14:10:55Z</time>
      </trkpt>
      <trkpt lat="45.50238" lon="4.68763">
        <ele>480</ele>
        <time>2023-05-21T14:10:57Z</time>
      </trkpt>
      <trkpt lat="45.50241" lon="4.68823">
        <ele>482</ele>
        <time>2023-05-21T14:11:07Z</time>
      </trkpt>
      <trkpt lat="45.5023" lon="4.6882">
        <ele>483</ele>
        <time>2023-05-21T14:11:10Z</time>
      </trkpt>
      <trkpt lat="45.50218" lon="4.68799">
        <ele>484</ele>
        <time>2023-05-21T14:11:14Z</time>
      </trkpt>
      <trkpt lat="45.50161" lon="4.68734">
        <ele>489</ele>
        <time>2023-05-21T14:11:31Z</time>
      </trkpt>
      <trkpt lat="45.50096" lon="4.68694">
        <ele>496</ele>
        <time>2023-05-21T14:11:48Z</time>
      </trkpt>
      <trkpt lat="45.50033" lon="4.68639">
        <ele>501</ele>
        <time>2023-05-21T14:12:05Z</time>
      </trkpt>
      <trkpt lat="45.49968" lon="4.68551">
        <ele>502</ele>
        <time>2023-05-21T14:12:26Z</time>
      </trkpt>
      <trkpt lat="45.49896" lon="4.6843">
        <ele>497</ele>
        <time>2023-05-21T14:12:52Z</time>
      </trkpt>
      <trkpt lat="45.49871" lon="4.68396">
        <ele>496</ele>
        <time>2023-05-21T14:13:00Z</time>
      </trkpt>
      <trkpt lat="45.49853" lon="4.68379">
        <ele>495</ele>
        <time>2023-05-21T14:13:05Z</time>
      </trkpt>
      <trkpt lat="45.49835" lon="4.68377">
        <ele>497</ele>
        <time>2023-05-21T14:13:09Z</time>
      </trkpt>
      <trkpt lat="45.49785" lon="4.68387">
        <ele>502</ele>
        <time>2023-05-21T14:13:21Z</time>
      </trkpt>
      <trkpt lat="45.4973" lon="4.68354">
        <ele>503</ele>
        <time>2023-05-21T14:13:35Z</time>
      </trkpt>
      <trkpt lat="45.49696" lon="4.68343">
        <ele>507</ele>
        <time>2023-05-21T14:13:43Z</time>
      </trkpt>
      <trkpt lat="45.49674" lon="4.6834">
        <ele>510</ele>
        <time>2023-05-21T14:13:48Z</time>
      </trkpt>
      <trkpt lat="45.49663" lon="4.6833">
        <ele>511</ele>
        <time>2023-05-21T14:13:51Z</time>
      </trkpt>
      <trkpt lat="45.49664" lon="4.68312">
        <ele>512</ele>
        <time>2023-05-21T14:13:54Z</time>
      </trkpt>
      <trkpt lat="45.49683" lon="4.68226">
        <ele>510</ele>
        <time>2023-05-21T14:14:09Z</time>
      </trkpt>
      <trkpt lat="45.4968" lon="4.68126">
        <ele>510</ele>
        <time>2023-05-21T14:14:25Z</time>
      </trkpt>
      <trkpt lat="45.4967" lon="4.68081">
        <ele>510</ele>
        <time>2023-05-21T14:14:33Z</time>
      </trkpt>
      <trkpt lat="45.49648" lon="4.68032">
        <ele>516</ele>
        <time>2023-05-21T14:14:43Z</time>
      </trkpt>
      <trkpt lat="45.49644" lon="4.68016">
        <ele>516</ele>
        <time>2023-05-21T14:14:45Z</time>
      </trkpt>
      <trkpt lat="45.49648" lon="4.68008">
        <ele>515</ele>
        <time>2023-05-21T14:14:47Z</time>
      </trkpt>
      <trkpt lat="45.49641" lon="4.68003">
        <ele>517</ele>
        <time>2023-05-21T14:14:49Z</time>
      </trkpt>
      <trkpt lat="45.49637" lon="4.6798">
        <ele>518</ele>
        <time>2023-05-21T14:14:53Z</time>
      </trkpt>
      <trkpt lat="45.4964" lon="4.67962">
        <ele>517</ele>
        <time>2023-05-21T14:14:56Z</time>
      </trkpt>
      <trkpt lat="45.49589" lon="4.67901">
        <ele>528</ele>
        <time>2023-05-21T14:15:11Z</time>
      </trkpt>
      <trkpt lat="45.49561" lon="4.67861">
        <ele>535</ele>
        <time>2023-05-21T14:15:21Z</time>
      </trkpt>
      <trkpt lat="45.49508" lon="4.6781">
        <ele>549</ele>
        <time>2023-05-21T14:15:35Z</time>
      </trkpt>
      <trkpt lat="45.49496" lon="4.67804">
        <ele>552</ele>
        <time>2023-05-21T14:15:38Z</time>
      </trkpt>
      <trkpt lat="45.49488" lon="4.67788">
        <ele>554</ele>
        <time>2023-05-21T14:15:42Z</time>
      </trkpt>
      <trkpt lat="45.49484" lon="4.67771">
        <ele>553</ele>
        <time>2023-05-21T14:15:45Z</time>
      </trkpt>
      <trkpt lat="45.49461" lon="4.67732">
        <ele>557</ele>
        <time>2023-05-21T14:15:53Z</time>
      </trkpt>
      <trkpt lat="45.49361" lon="4.67598">
        <ele>579</ele>
        <time>2023-05-21T14:16:25Z</time>
      </trkpt>
      <trkpt lat="45.4936" lon="4.67571">
        <ele>579</ele>
        <time>2023-05-21T14:16:29Z</time>
      </trkpt>
      <trkpt lat="45.49353" lon="4.6753">
        <ele>582</ele>
        <time>2023-05-21T14:16:36Z</time>
      </trkpt>
      <trkpt lat="45.49352" lon="4.67492">
        <ele>583</ele>
        <time>2023-05-21T14:16:43Z</time>
      </trkpt>
      <trkpt lat="45.49375" lon="4.67446">
        <ele>578</ele>
        <time>2023-05-21T14:16:52Z</time>
      </trkpt>
      <trkpt lat="45.49382" lon="4.67404">
        <ele>578</ele>
        <time>2023-05-21T14:16:59Z</time>
      </trkpt>
      <trkpt lat="45.49382" lon="4.67377">
        <ele>578</ele>
        <time>2023-05-21T14:17:03Z</time>
      </trkpt>
      <trkpt lat="45.49378" lon="4.6735">
        <ele>579</ele>
        <time>2023-05-21T14:17:08Z</time>
      </trkpt>
      <trkpt lat="45.49365" lon="4.67293">
        <ele>578</ele>
        <time>2023-05-21T14:17:18Z</time>
      </trkpt>
      <trkpt lat="45.4935" lon="4.67267">
        <ele>578</ele>
        <time>2023-05-21T14:17:23Z</time>
      </trkpt>
      <trkpt lat="45.49243" lon="4.67173">
        <ele>578</ele>
        <time>2023-05-21T14:17:52Z</time>
      </trkpt>
      <trkpt lat="45.4918" lon="4.671">
        <ele>575</ele>
        <time>2023-05-21T14:18:11Z</time>
      </trkpt>
      <trkpt lat="45.4915" lon="4.67088">
        <ele>575</ele>
        <time>2023-05-21T14:18:19Z</time>
      </trkpt>
      <trkpt lat="45.49154" lon="4.67069">
        <ele>575</ele>
        <time>2023-05-21T14:18:22Z</time>
      </trkpt>
      <trkpt lat="45.49175" lon="4.67031">
        <ele>572</ele>
        <time>2023-05-21T14:18:30Z</time>
      </trkpt>
      <trkpt lat="45.49183" lon="4.67006">
        <ele>569</ele>
        <time>2023-05-21T14:18:34Z</time>
      </trkpt>
      <trkpt lat="45.49217" lon="4.6693">
        <ele>562</ele>
        <time>2023-05-21T14:18:49Z</time>
      </trkpt>
      <trkpt lat="45.49227" lon="4.6689">
        <ele>559</ele>
        <time>2023-05-21T14:18:56Z</time>
      </trkpt>
      <trkpt lat="45.49238" lon="4.66789">
        <ele>550</ele>
        <time>2023-05-21T14:19:13Z</time>
      </trkpt>
      <trkpt lat="45.49241" lon="4.66596">
        <ele>533</ele>
        <time>2023-05-21T14:19:44Z</time>
      </trkpt>
      <trkpt lat="45.49246" lon="4.66524">
        <ele>529</ele>
        <time>2023-05-21T14:19:56Z</time>
      </trkpt>
      <trkpt lat="45.49258" lon="4.66426">
        <ele>526</ele>
        <time>2023-05-21T14:20:13Z</time>
      </trkpt>
      <trkpt lat="45.49249" lon="4.66416">
        <ele>526</ele>
        <time>2023-05-21T14:20:15Z</time>
      </trkpt>
      <trkpt lat="45.49231" lon="4.66408">
        <ele>526</ele>
        <time>2023-05-21T14:20:20Z</time>
      </trkpt>
      <trkpt lat="45.4914" lon="4.66382">
        <ele>525</ele>
        <time>2023-05-21T14:20:41Z</time>
      </trkpt>
      <trkpt lat="45.49073" lon="4.66365">
        <ele>523</ele>
        <time>2023-05-21T14:20:57Z</time>
      </trkpt>
      <trkpt lat="45.49053" lon="4.66362">
        <ele>522</ele>
        <time>2023-05-21T14:21:02Z</time>
      </trkpt>
      <trkpt lat="45.49027" lon="4.66368">
        <ele>522</ele>
        <time>2023-05-21T14:21:08Z</time>
      </trkpt>
      <trkpt lat="45.48969" lon="4.66389">
        <ele>522</ele>
        <time>2023-05-21T14:21:22Z</time>
      </trkpt>
      <trkpt lat="45.48932" lon="4.66413">
        <ele>524</ele>
        <time>2023-05-21T14:21:31Z</time>
      </trkpt>
      <trkpt lat="45.489" lon="4.6644">
        <ele>526</ele>
        <time>2023-05-21T14:21:40Z</time>
      </trkpt>
      <trkpt lat="45.48888" lon="4.66444">
        <ele>527</ele>
        <time>2023-05-21T14:21:43Z</time>
      </trkpt>
      <trkpt lat="45.48824" lon="4.66444">
        <ele>526</ele>
        <time>2023-05-21T14:21:58Z</time>
      </trkpt>
      <trkpt lat="45.48766" lon="4.66456">
        <ele>524</ele>
        <time>2023-05-21T14:22:12Z</time>
      </trkpt>
      <trkpt lat="45.48736" lon="4.66465">
        <ele>522</ele>
        <time>2023-05-21T14:22:19Z</time>
      </trkpt>
      <trkpt lat="45.48685" lon="4.66497">
        <ele>522</ele>
        <time>2023-05-21T14:22:32Z</time>
      </trkpt>
      <trkpt lat="45.48638" lon="4.66534">
        <ele>514</ele>
        <time>2023-05-21T14:22:44Z</time>
      </trkpt>
      <trkpt lat="45.48616" lon="4.66556">
        <ele>509</ele>
        <time>2023-05-21T14:22:51Z</time>
      </trkpt>
      <trkpt lat="45.48605" lon="4.66582">
        <ele>506</ele>
        <time>2023-05-21T14:22:56Z</time>
      </trkpt>
      <trkpt lat="45.48593" lon="4.66635">
        <ele>504</ele>
        <time>2023-05-21T14:23:05Z</time>
      </trkpt>
      <trkpt lat="45.48581" lon="4.66744">
        <ele>506</ele>
        <time>2023-05-21T14:23:23Z</time>
      </trkpt>
      <trkpt lat="45.48521" lon="4.66871">
        <ele>503</ele>
        <time>2023-05-21T14:23:48Z</time>
      </trkpt>
      <trkpt lat="45.48512" lon="4.66867">
        <ele>501</ele>
        <time>2023-05-21T14:23:50Z</time>
      </trkpt>
      <trkpt lat="45.48503" lon="4.66858">
        <ele>499</ele>
        <time>2023-05-21T14:23:53Z</time>
      </trkpt>
      <trkpt lat="45.48496" lon="4.66845">
        <ele>498</ele>
        <time>2023-05-21T14:23:55Z</time>
      </trkpt>
      <trkpt lat="45.48482" lon="4.66839">
        <ele>500</ele>
        <time>2023-05-21T14:23:59Z</time>
      </trkpt>
      <trkpt lat="45.48465" lon="4.66849">
        <ele>502</ele>
        <time>2023-05-21T14:24:03Z</time>
      </trkpt>
      <trkpt lat="45.48396" lon="4.66918">
        <ele>508</ele>
        <time>2023-05-21T14:24:23Z</time>
      </trkpt>
      <trkpt lat="45.48379" lon="4.6694">
        <ele>510</ele>
        <time>2023-05-21T14:24:28Z</time>
      </trkpt>
      <trkpt lat="45.4835" lon="4.66985">
        <ele>510</ele>
        <time>2023-05-21T14:24:38Z</time>
      </trkpt>
      <trkpt lat="45.48335" lon="4.67014">
        <ele>508</ele>
        <time>2023-05-21T14:24:44Z</time>
      </trkpt>
      <trkpt lat="45.48323" lon="4.67026">
        <ele>510</ele>
        <time>2023-05-21T14:24:47Z</time>
      </trkpt>
      <trkpt lat="45.4831" lon="4.67032">
        <ele>512</ele>
        <time>2023-05-21T14:24:51Z</time>
      </trkpt>
      <trkpt lat="45.48292" lon="4.67026">
        <ele>516</ele>
        <time>2023-05-21T14:24:55Z</time>
      </trkpt>
      <trkpt lat="45.48247" lon="4.66997">
        <ele>525</ele>
        <time>2023-05-21T14:25:06Z</time>
      </trkpt>
      <trkpt lat="45.48231" lon="4.66983">
        <ele>529</ele>
        <time>2023-05-21T14:25:11Z</time>
      </trkpt>
      <trkpt lat="45.48222" lon="4.66983">
        <ele>530</ele>
        <time>2023-05-21T14:25:13Z</time>
      </trkpt>
      <trkpt lat="45.4822" lon="4.66994">
        <ele>530</ele>
        <time>2023-05-21T14:25:15Z</time>
      </trkpt>
      <trkpt lat="45.48228" lon="4.67019">
        <ele>528</ele>
        <time>2023-05-21T14:25:19Z</time>
      </trkpt>
      <trkpt lat="45.48228" lon="4.67033">
        <ele>528</ele>
        <time>2023-05-21T14:25:22Z</time>
      </trkpt>
      <trkpt lat="45.48222" lon="4.67039">
        <ele>529</ele>
        <time>2023-05-21T14:25:23Z</time>
      </trkpt>
      <trkpt lat="45.48208" lon="4.67028">
        <ele>531</ele>
        <time>2023-05-21T14:25:27Z</time>
      </trkpt>
      <trkpt lat="45.48204" lon="4.67057">
        <ele>532</ele>
        <time>2023-05-21T14:25:32Z</time>
      </trkpt>
      <trkpt lat="45.48197" lon="4.67071">
        <ele>533</ele>
        <time>2023-05-21T14:25:35Z</time>
      </trkpt>
      <trkpt lat="45.48178" lon="4.67065">
        <ele>537</ele>
        <time>2023-05-21T14:25:39Z</time>
      </trkpt>
      <trkpt lat="45.48158" lon="4.67032">
        <ele>540</ele>
        <time>2023-05-21T14:25:46Z</time>
      </trkpt>
      <trkpt lat="45.48142" lon="4.67029">
        <ele>543</ele>
        <time>2023-05-21T14:25:50Z</time>
      </trkpt>
      <trkpt lat="45.48124" lon="4.67033">
        <ele>547</ele>
        <time>2023-05-21T14:25:54Z</time>
      </trkpt>
      <trkpt lat="45.48112" lon="4.67052">
        <ele>550</ele>
        <time>2023-05-21T14:25:59Z</time>
      </trkpt>
      <trkpt lat="45.48085" lon="4.67082">
        <ele>556</ele>
        <time>2023-05-21T14:26:07Z</time>
      </trkpt>
      <trkpt lat="45.48056" lon="4.67123">
        <ele>562</ele>
        <time>2023-05-21T14:26:16Z</time>
      </trkpt>
      <trkpt lat="45.4803" lon="4.67165">
        <ele>566</ele>
        <time>2023-05-21T14:26:25Z</time>
      </trkpt>
      <trkpt lat="45.48016" lon="4.67193">
        <ele>568</ele>
        <time>2023-05-21T14:26:31Z</time>
      </trkpt>
      <trkpt lat="45.48" lon="4.67209">
        <ele>570</ele>
        <time>2023-05-21T14:26:35Z</time>
      </trkpt>
      <trkpt lat="45.47926" lon="4.67262">
        <ele>582</ele>
        <time>2023-05-21T14:26:55Z</time>
      </trkpt>
      <trkpt lat="45.47882" lon="4.67321">
        <ele>589</ele>
        <time>2023-05-21T14:27:09Z</time>
      </trkpt>
      <trkpt lat="45.47859" lon="4.67335">
        <ele>592</ele>
        <time>2023-05-21T14:27:15Z</time>
      </trkpt>
      <trkpt lat="45.47814" lon="4.67346">
        <ele>596</ele>
        <time>2023-05-21T14:27:25Z</time>
      </trkpt>
      <trkpt lat="45.47792" lon="4.67343">
        <ele>597</ele>
        <time>2023-05-21T14:27:31Z</time>
      </trkpt>
      <trkpt lat="45.47757" lon="4.67328">
        <ele>600</ele>
        <time>2023-05-21T14:27:39Z</time>
      </trkpt>
      <trkpt lat="45.47704" lon="4.67291">
        <ele>606</ele>
        <time>2023-05-21T14:27:53Z</time>
      </trkpt>
      <trkpt lat="45.47663" lon="4.67247">
        <ele>612</ele>
        <time>2023-05-21T14:28:05Z</time>
      </trkpt>
      <trkpt lat="45.47642" lon="4.67231">
        <ele>618</ele>
        <time>2023-05-21T14:28:10Z</time>
      </trkpt>
      <trkpt lat="45.47467" lon="4.67193">
        <ele>649</ele>
        <time>2023-05-21T14:28:52Z</time>
      </trkpt>
      <trkpt lat="45.4739" lon="4.67188">
        <ele>655</ele>
        <time>2023-05-21T14:29:10Z</time>
      </trkpt>
      <trkpt lat="45.4732" lon="4.67129">
        <ele>659</ele>
        <time>2023-05-21T14:29:29Z</time>
      </trkpt>
      <trkpt lat="45.47295" lon="4.67186">
        <ele>658</ele>
        <time>2023-05-21T14:29:40Z</time>
      </trkpt>
      <trkpt lat="45.47315" lon="4.672">
        <ele>658</ele>
        <time>2023-05-21T14:29:45Z</time>
      </trkpt>
      <trkpt lat="45.47336" lon="4.67228">
        <ele>656</ele>
        <time>2023-05-21T14:29:52Z</time>
      </trkpt>
      <trkpt lat="45.47345" lon="4.67278">
        <ele>654</ele>
        <time>2023-05-21T14:30:00Z</time>
      </trkpt>
      <trkpt lat="45.47357" lon="4.67492">
        <ele>644</ele>
        <time>2023-05-21T14:30:35Z</time>
      </trkpt>
      <trkpt lat="45.4735" lon="4.67542">
        <ele>643</ele>
        <time>2023-05-21T14:30:44Z</time>
      </trkpt>
      <trkpt lat="45.47305" lon="4.67609">
        <ele>644</ele>
        <time>2023-05-21T14:30:59Z</time>
      </trkpt>
      <trkpt lat="45.47263" lon="4.67652">
        <ele>646</ele>
        <time>2023-05-21T14:31:11Z</time>
      </trkpt>
      <trkpt lat="45.47255" lon="4.67698">
        <ele>644</ele>
        <time>2023-05-21T14:31:19Z</time>
      </trkpt>
      <trkpt lat="45.47271" lon="4.67748">
        <ele>637</ele>
        <time>2023-05-21T14:31:28Z</time>
      </trkpt>
      <trkpt lat="45.473" lon="4.67788">
        <ele>634</ele>
        <time>2023-05-21T14:31:37Z</time>
      </trkpt>
      <trkpt lat="45.4733" lon="4.67861">
        <ele>633</ele>
        <time>2023-05-21T14:31:51Z</time>
      </trkpt>
      <trkpt lat="45.47326" lon="4.67882">
        <ele>635</ele>
        <time>2023-05-21T14:31:55Z</time>
      </trkpt>
      <trkpt lat="45.47308" lon="4.67925">
        <ele>640</ele>
        <time>2023-05-21T14:32:03Z</time>
      </trkpt>
      <trkpt lat="45.47258" lon="4.68012">
        <ele>651</ele>
        <time>2023-05-21T14:32:21Z</time>
      </trkpt>
      <trkpt lat="45.4721" lon="4.6808">
        <ele>663</ele>
        <time>2023-05-21T14:32:37Z</time>
      </trkpt>
      <trkpt lat="45.4721" lon="4.68105">
        <ele>662</ele>
        <time>2023-05-21T14:32:41Z</time>
      </trkpt>
      <trkpt lat="45.47195" lon="4.68143">
        <ele>665</ele>
        <time>2023-05-21T14:32:48Z</time>
      </trkpt>
      <trkpt lat="45.47179" lon="4.68247">
        <ele>670</ele>
        <time>2023-05-21T14:33:06Z</time>
      </trkpt>
      <trkpt lat="45.47148" lon="4.68339">
        <ele>678</ele>
        <time>2023-05-21T14:33:22Z</time>
      </trkpt>
      <trkpt lat="45.47124" lon="4.68378">
        <ele>682</ele>
        <time>2023-05-21T14:33:31Z</time>
      </trkpt>
      <trkpt lat="45.47109" lon="4.68412">
        <ele>684</ele>
        <time>2023-05-21T14:33:37Z</time>
      </trkpt>
      <trkpt lat="45.47092" lon="4.68471">
        <ele>688</ele>
        <time>2023-05-21T14:33:48Z</time>
      </trkpt>
      <trkpt lat="45.47079" lon="4.68532">
        <ele>691</ele>
        <time>2023-05-21T14:33:58Z</time>
      </trkpt>
      <trkpt lat="45.4707" lon="4.68549">
        <ele>693</ele>
        <time>2023-05-21T14:34:02Z</time>
      </trkpt>
      <trkpt lat="45.47064" lon="4.68661">
        <ele>690</ele>
        <time>2023-05-21T14:34:20Z</time>
      </trkpt>
      <trkpt lat="45.47065" lon="4.68691">
        <ele>690</ele>
        <time>2023-05-21T14:34:25Z</time>
      </trkpt>
      <trkpt lat="45.47077" lon="4.68769">
        <ele>688</ele>
        <time>2023-05-21T14:34:38Z</time>
      </trkpt>
      <trkpt lat="45.47095" lon="4.68839">
        <ele>686</ele>
        <time>2023-05-21T14:34:50Z</time>
      </trkpt>
      <trkpt lat="45.47144" lon="4.68917">
        <ele>685</ele>
        <time>2023-05-21T14:35:08Z</time>
      </trkpt>
      <trkpt lat="45.47169" lon="4.68935">
        <ele>684</ele>
        <time>2023-05-21T14:35:14Z</time>
      </trkpt>
      <trkpt lat="45.47228" lon="4.68971">
        <ele>681</ele>
        <time>2023-05-21T14:35:29Z</time>
      </trkpt>
      <trkpt lat="45.47258" lon="4.69003">
        <ele>679</ele>
        <time>2023-05-21T14:35:38Z</time>
      </trkpt>
      <trkpt lat="45.47269" lon="4.69031">
        <ele>677</ele>
        <time>2023-05-21T14:35:43Z</time>
      </trkpt>
      <trkpt lat="45.47283" lon="4.69111">
        <ele>675</ele>
        <time>2023-05-21T14:35:57Z</time>
      </trkpt>
      <trkpt lat="45.47304" lon="4.692">
        <ele>673</ele>
        <time>2023-05-21T14:36:12Z</time>
      </trkpt>
      <trkpt lat="45.4732" lon="4.69234">
        <ele>671</ele>
        <time>2023-05-21T14:36:19Z</time>
      </trkpt>
      <trkpt lat="45.47345" lon="4.69265">
        <ele>669</ele>
        <time>2023-05-21T14:36:26Z</time>
      </trkpt>
      <trkpt lat="45.47378" lon="4.69295">
        <ele>668</ele>
        <time>2023-05-21T14:36:36Z</time>
      </trkpt>
      <trkpt lat="45.47414" lon="4.6932">
        <ele>666</ele>
        <time>2023-05-21T14:36:45Z</time>
      </trkpt>
      <trkpt lat="45.47442" lon="4.69329">
        <ele>665</ele>
        <time>2023-05-21T14:36:52Z</time>
      </trkpt>
      <trkpt lat="45.47467" lon="4.69331">
        <ele>664</ele>
        <time>2023-05-21T14:36:57Z</time>
      </trkpt>
      <trkpt lat="45.47503" lon="4.69339">
        <ele>662</ele>
        <time>2023-05-21T14:37:06Z</time>
      </trkpt>
      <trkpt lat="45.47436" lon="4.69395">
        <ele>674</ele>
        <time>2023-05-21T14:37:24Z</time>
      </trkpt>
      <trkpt lat="45.47441" lon="4.69431">
        <ele>676</ele>
        <time>2023-05-21T14:37:30Z</time>
      </trkpt>
      <trkpt lat="45.47442" lon="4.69463">
        <ele>675</ele>
        <time>2023-05-21T14:37:35Z</time>
      </trkpt>
      <trkpt lat="45.47433" lon="4.69491">
        <ele>677</ele>
        <time>2023-05-21T14:37:40Z</time>
      </trkpt>
      <trkpt lat="45.47418" lon="4.6951">
        <ele>679</ele>
        <time>2023-05-21T14:37:45Z</time>
      </trkpt>
      <trkpt lat="45.47377" lon="4.69524">
        <ele>684</ele>
        <time>2023-05-21T14:37:55Z</time>
      </trkpt>
      <trkpt lat="45.47356" lon="4.69542">
        <ele>687</ele>
        <time>2023-05-21T14:38:01Z</time>
      </trkpt>
      <trkpt lat="45.47305" lon="4.69631">
        <ele>694</ele>
        <time>2023-05-21T14:38:19Z</time>
      </trkpt>
      <trkpt lat="45.47272" lon="4.6967">
        <ele>698</ele>
        <time>2023-05-21T14:38:29Z</time>
      </trkpt>
      <trkpt lat="45.47253" lon="4.69698">
        <ele>700</ele>
        <time>2023-05-21T14:38:36Z</time>
      </trkpt>
      <trkpt lat="45.47199" lon="4.6976">
        <ele>705</ele>
        <time>2023-05-21T14:38:52Z</time>
      </trkpt>
      <trkpt lat="45.47153" lon="4.69774">
        <ele>710</ele>
        <time>2023-05-21T14:39:03Z</time>
      </trkpt>
      <trkpt lat="45.47132" lon="4.69775">
        <ele>710</ele>
        <time>2023-05-21T14:39:08Z</time>
      </trkpt>
      <trkpt lat="45.47088" lon="4.69786">
        <ele>708</ele>
        <time>2023-05-21T14:39:18Z</time>
      </trkpt>
      <trkpt lat="45.47047" lon="4.69786">
        <ele>710</ele>
        <time>2023-05-21T14:39:28Z</time>
      </trkpt>
      <trkpt lat="45.47004" lon="4.69777">
        <ele>714</ele>
        <time>2023-05-21T14:39:38Z</time>
      </trkpt>
      <trkpt lat="45.46971" lon="4.69773">
        <ele>709</ele>
        <time>2023-05-21T14:39:46Z</time>
      </trkpt>
      <trkpt lat="45.46941" lon="4.69759">
        <ele>706</ele>
        <time>2023-05-21T14:39:53Z</time>
      </trkpt>
      <trkpt lat="45.46921" lon="4.69741">
        <ele>704</ele>
        <time>2023-05-21T14:39:59Z</time>
      </trkpt>
      <trkpt lat="45.46886" lon="4.69685">
        <ele>699</ele>
        <time>2023-05-21T14:40:11Z</time>
      </trkpt>
      <trkpt lat="45.46866" lon="4.69646">
        <ele>696</ele>
        <time>2023-05-21T14:40:19Z</time>
      </trkpt>
      <trkpt lat="45.46852" lon="4.69588">
        <ele>697</ele>
        <time>2023-05-21T14:40:29Z</time>
      </trkpt>
      <trkpt lat="45.46824" lon="4.69523">
        <ele>696</ele>
        <time>2023-05-21T14:40:41Z</time>
      </trkpt>
      <trkpt lat="45.46772" lon="4.69425">
        <ele>697</ele>
        <time>2023-05-21T14:41:02Z</time>
      </trkpt>
      <trkpt lat="45.46673" lon="4.69213">
        <ele>708</ele>
        <time>2023-05-21T14:41:43Z</time>
      </trkpt>
      <trkpt lat="45.467" lon="4.69249">
        <ele>712</ele>
        <time>2023-05-21T14:41:52Z</time>
      </trkpt>
      <trkpt lat="45.46737" lon="4.69285">
        <ele>716</ele>
        <time>2023-05-21T14:42:02Z</time>
      </trkpt>
      <trkpt lat="45.46766" lon="4.69327">
        <ele>716</ele>
        <time>2023-05-21T14:42:12Z</time>
      </trkpt>
      <trkpt lat="45.46818" lon="4.69383">
        <ele>723</ele>
        <time>2023-05-21T14:42:27Z</time>
      </trkpt>
      <trkpt lat="45.46847" lon="4.69426">
        <ele>724</ele>
        <time>2023-05-21T14:42:37Z</time>
      </trkpt>
      <trkpt lat="45.46872" lon="4.69474">
        <ele>724</ele>
        <time>2023-05-21T14:42:47Z</time>
      </trkpt>
      <trkpt lat="45.46898" lon="4.69529">
        <ele>726</ele>
        <time>2023-05-21T14:42:58Z</time>
      </trkpt>
      <trkpt lat="45.46937" lon="4.69622">
        <ele>727</ele>
        <time>2023-05-21T14:43:15Z</time>
      </trkpt>
      <trkpt lat="45.46944" lon="4.69631">
        <ele>727</ele>
        <time>2023-05-21T14:43:18Z</time>
      </trkpt>
      <trkpt lat="45.46981" lon="4.69654">
        <ele>734</ele>
        <time>2023-05-21T14:43:27Z</time>
      </trkpt>
      <trkpt lat="45.46985" lon="4.69651">
        <ele>736</ele>
        <time>2023-05-21T14:43:28Z</time>
      </trkpt>
      <trkpt lat="45.46986" lon="4.69646">
        <ele>737</ele>
        <time>2023-05-21T14:43:29Z</time>
      </trkpt>
      <trkpt lat="45.46978" lon="4.69627">
        <ele>737</ele>
        <time>2023-05-21T14:43:33Z</time>
      </trkpt>
      <trkpt lat="45.46967" lon="4.69574">
        <ele>741</ele>
        <time>2023-05-21T14:43:42Z</time>
      </trkpt>
      <trkpt lat="45.46981" lon="4.69404">
        <ele>756</ele>
        <time>2023-05-21T14:44:10Z</time>
      </trkpt>
      <trkpt lat="45.46929" lon="4.69312">
        <ele>755</ele>
        <time>2023-05-21T14:44:29Z</time>
      </trkpt>
      <trkpt lat="45.46877" lon="4.6924">
        <ele>751</ele>
        <time>2023-05-21T14:44:46Z</time>
      </trkpt>
      <trkpt lat="45.46869" lon="4.6922">
        <ele>750</ele>
        <time>2023-05-21T14:44:50Z</time>
      </trkpt>
      <trkpt lat="45.46856" lon="4.69132">
        <ele>750</ele>
        <time>2023-05-21T14:45:04Z</time>
      </trkpt>
      <trkpt lat="45.46837" lon="4.6904">
        <ele>748</ele>
        <time>2023-05-21T14:45:20Z</time>
      </trkpt>
      <trkpt lat="45.46817" lon="4.6899">
        <ele>746</ele>
        <time>2023-05-21T14:45:30Z</time>
      </trkpt>
      <trkpt lat="45.46808" lon="4.68958">
        <ele>745</ele>
        <time>2023-05-21T14:45:35Z</time>
      </trkpt>
      <trkpt lat="45.4679" lon="4.6892">
        <ele>746</ele>
        <time>2023-05-21T14:45:43Z</time>
      </trkpt>
      <trkpt lat="45.46761" lon="4.68814">
        <ele>741</ele>
        <time>2023-05-21T14:46:01Z</time>
      </trkpt>
      <trkpt lat="45.46741" lon="4.68649">
        <ele>739</ele>
        <time>2023-05-21T14:46:29Z</time>
      </trkpt>
      <trkpt lat="45.4674" lon="4.68549">
        <ele>747</ele>
        <time>2023-05-21T14:46:45Z</time>
      </trkpt>
      <trkpt lat="45.46747" lon="4.68488">
        <ele>751</ele>
        <time>2023-05-21T14:46:55Z</time>
      </trkpt>
      <trkpt lat="45.46746" lon="4.68459">
        <ele>751</ele>
        <time>2023-05-21T14:47:00Z</time>
      </trkpt>
      <trkpt lat="45.46751" lon="4.6836">
        <ele>751</ele>
        <time>2023-05-21T14:47:16Z</time>
      </trkpt>
      <trkpt lat="45.46745" lon="4.68289">
        <ele>747</ele>
        <time>2023-05-21T14:47:28Z</time>
      </trkpt>
      <trkpt lat="45.46746" lon="4.68255">
        <ele>746</ele>
        <time>2023-05-21T14:47:34Z</time>
      </trkpt>
      <trkpt lat="45.4674" lon="4.68172">
        <ele>740</ele>
        <time>2023-05-21T14:47:47Z</time>
      </trkpt>
      <trkpt lat="45.46764" lon="4.68125">
        <ele>738</ele>
        <time>2023-05-21T14:47:57Z</time>
      </trkpt>
      <trkpt lat="45.46796" lon="4.68079">
        <ele>734</ele>
        <time>2023-05-21T14:48:07Z</time>
      </trkpt>
      <trkpt lat="45.46837" lon="4.68006">
        <ele>728</ele>
        <time>2023-05-21T14:48:23Z</time>
      </trkpt>
      <trkpt lat="45.46866" lon="4.67962">
        <ele>722</ele>
        <time>2023-05-21T14:48:33Z</time>
      </trkpt>
      <trkpt lat="45.46911" lon="4.67866">
        <ele>712</ele>
        <time>2023-05-21T14:48:52Z</time>
      </trkpt>
      <trkpt lat="45.46909" lon="4.67834">
        <ele>709</ele>
        <time>2023-05-21T14:48:57Z</time>
      </trkpt>
      <trkpt lat="45.46923" lon="4.67788">
        <ele>704</ele>
        <time>2023-05-21T14:49:05Z</time>
      </trkpt>
      <trkpt lat="45.46887" lon="4.67766">
        <ele>699</ele>
        <time>2023-05-21T14:49:14Z</time>
      </trkpt>
      <trkpt lat="45.46869" lon="4.67759">
        <ele>696</ele>
        <time>2023-05-21T14:49:18Z</time>
      </trkpt>
      <trkpt lat="45.46846" lon="4.67754">
        <ele>693</ele>
        <time>2023-05-21T14:49:24Z</time>
      </trkpt>
      <trkpt lat="45.46816" lon="4.67758">
        <ele>691</ele>
        <time>2023-05-21T14:49:31Z</time>
      </trkpt>
      <trkpt lat="45.46763" lon="4.67747">
        <ele>685</ele>
        <time>2023-05-21T14:49:43Z</time>
      </trkpt>
      <trkpt lat="45.46673" lon="4.67737">
        <ele>674</ele>
        <time>2023-05-21T14:50:05Z</time>
      </trkpt>
      <trkpt lat="45.46654" lon="4.67737">
        <ele>672</ele>
        <time>2023-05-21T14:50:09Z</time>
      </trkpt>
      <trkpt lat="45.46641" lon="4.67741">
        <ele>671</ele>
        <time>2023-05-21T14:50:12Z</time>
      </trkpt>
      <trkpt lat="45.46588" lon="4.67779">
        <ele>669</ele>
        <time>2023-05-21T14:50:26Z</time>
      </trkpt>
      <trkpt lat="45.46575" lon="4.67792">
        <ele>668</ele>
        <time>2023-05-21T14:50:30Z</time>
      </trkpt>
      <trkpt lat="45.46531" lon="4.67846">
        <ele>666</ele>
        <time>2023-05-21T14:50:43Z</time>
      </trkpt>
      <trkpt lat="45.46487" lon="4.67905">
        <ele>661</ele>
        <time>2023-05-21T14:50:57Z</time>
      </trkpt>
      <trkpt lat="45.46474" lon="4.67897">
        <ele>659</ele>
        <time>2023-05-21T14:51:01Z</time>
      </trkpt>
      <trkpt lat="45.4645" lon="4.67865">
        <ele>657</ele>
        <time>2023-05-21T14:51:08Z</time>
      </trkpt>
      <trkpt lat="45.46458" lon="4.67836">
        <ele>658</ele>
        <time>2023-05-21T14:51:13Z</time>
      </trkpt>
      <trkpt lat="45.46458" lon="4.6783">
        <ele>658</ele>
        <time>2023-05-21T14:51:14Z</time>
      </trkpt>
      <trkpt lat="45.46452" lon="4.67821">
        <ele>657</ele>
        <time>2023-05-21T14:51:16Z</time>
      </trkpt>
      <trkpt lat="45.4646" lon="4.67822">
        <ele>657</ele>
        <time>2023-05-21T14:51:18Z</time>
      </trkpt>
      <trkpt lat="45.4647" lon="4.67818">
        <ele>657</ele>
        <time>2023-05-21T14:51:21Z</time>
      </trkpt>
      <trkpt lat="45.46476" lon="4.67775">
        <ele>654</ele>
        <time>2023-05-21T14:51:28Z</time>
      </trkpt>
      <trkpt lat="45.46491" lon="4.67725">
        <ele>649</ele>
        <time>2023-05-21T14:51:37Z</time>
      </trkpt>
      <trkpt lat="45.46537" lon="4.67619">
        <ele>639</ele>
        <time>2023-05-21T14:51:57Z</time>
      </trkpt>
      <trkpt lat="45.46571" lon="4.67561">
        <ele>633</ele>
        <time>2023-05-21T14:52:10Z</time>
      </trkpt>
      <trkpt lat="45.46641" lon="4.67378">
        <ele>614</ele>
        <time>2023-05-21T14:52:44Z</time>
      </trkpt>
      <trkpt lat="45.46654" lon="4.6729">
        <ele>606</ele>
        <time>2023-05-21T14:52:58Z</time>
      </trkpt>
      <trkpt lat="45.46653" lon="4.67263">
        <ele>603</ele>
        <time>2023-05-21T14:53:03Z</time>
      </trkpt>
      <trkpt lat="45.46656" lon="4.67216">
        <ele>599</ele>
        <time>2023-05-21T14:53:11Z</time>
      </trkpt>
      <trkpt lat="45.46652" lon="4.67067">
        <ele>587</ele>
        <time>2023-05-21T14:53:35Z</time>
      </trkpt>
      <trkpt lat="45.46638" lon="4.67056">
        <ele>585</ele>
        <time>2023-05-21T14:53:39Z</time>
      </trkpt>
      <trkpt lat="45.46645" lon="4.67017">
        <ele>583</ele>
        <time>2023-05-21T14:53:45Z</time>
      </trkpt>
      <trkpt lat="45.4665" lon="4.66952">
        <ele>578</ele>
        <time>2023-05-21T14:53:56Z</time>
      </trkpt>
      <trkpt lat="45.46648" lon="4.66867">
        <ele>571</ele>
        <time>2023-05-21T14:54:10Z</time>
      </trkpt>
      <trkpt lat="45.4666" lon="4.66815">
        <ele>565</ele>
        <time>2023-05-21T14:54:19Z</time>
      </trkpt>
      <trkpt lat="45.46703" lon="4.66735">
        <ele>559</ele>
        <time>2023-05-21T14:54:35Z</time>
      </trkpt>
      <trkpt lat="45.46729" lon="4.667">
        <ele>556</ele>
        <time>2023-05-21T14:54:44Z</time>
      </trkpt>
      <trkpt lat="45.46774" lon="4.66667">
        <ele>554</ele>
        <time>2023-05-21T14:54:56Z</time>
      </trkpt>
      <trkpt lat="45.46794" lon="4.6663">
        <ele>554</ele>
        <time>2023-05-21T14:55:03Z</time>
      </trkpt>
      <trkpt lat="45.46815" lon="4.66566">
        <ele>551</ele>
        <time>2023-05-21T14:55:15Z</time>
      </trkpt>
      <trkpt lat="45.46844" lon="4.66465">
        <ele>541</ele>
        <time>2023-05-21T14:55:33Z</time>
      </trkpt>
      <trkpt lat="45.46866" lon="4.66402">
        <ele>538</ele>
        <time>2023-05-21T14:55:44Z</time>
      </trkpt>
      <trkpt lat="45.46873" lon="4.66317">
        <ele>532</ele>
        <time>2023-05-21T14:55:58Z</time>
      </trkpt>
      <trkpt lat="45.46881" lon="4.66268">
        <ele>529</ele>
        <time>2023-05-21T14:56:07Z</time>
      </trkpt>
      <trkpt lat="45.46924" lon="4.66191">
        <ele>523</ele>
        <time>2023-05-21T14:56:23Z</time>
      </trkpt>
      <trkpt lat="45.46941" lon="4.66117">
        <ele>520</ele>
        <time>2023-05-21T14:56:35Z</time>
      </trkpt>
      <trkpt lat="45.46951" lon="4.66084">
        <ele>519</ele>
        <time>2023-05-21T14:56:41Z</time>
      </trkpt>
      <trkpt lat="45.46963" lon="4.66027">
        <ele>517</ele>
        <time>2023-05-21T14:56:51Z</time>
      </trkpt>
      <trkpt lat="45.46962" lon="4.66006">
        <ele>515</ele>
        <time>2023-05-21T14:56:54Z</time>
      </trkpt>
      <trkpt lat="45.46957" lon="4.65992">
        <ele>514</ele>
        <time>2023-05-21T14:56:57Z</time>
      </trkpt>
      <trkpt lat="45.46923" lon="4.65928">
        <ele>506</ele>
        <time>2023-05-21T14:57:10Z</time>
      </trkpt>
      <trkpt lat="45.46927" lon="4.65907">
        <ele>506</ele>
        <time>2023-05-21T14:57:14Z</time>
      </trkpt>
      <trkpt lat="45.46936" lon="4.65884">
        <ele>505</ele>
        <time>2023-05-21T14:57:18Z</time>
      </trkpt>
      <trkpt lat="45.46952" lon="4.65858">
        <ele>503</ele>
        <time>2023-05-21T14:57:24Z</time>
      </trkpt>
      <trkpt lat="45.46939" lon="4.65848">
        <ele>502</ele>
        <time>2023-05-21T14:57:27Z</time>
      </trkpt>
      <trkpt lat="45.46917" lon="4.65849">
        <ele>501</ele>
        <time>2023-05-21T14:57:32Z</time>
      </trkpt>
      <trkpt lat="45.46913" lon="4.65839">
        <ele>501</ele>
        <time>2023-05-21T14:57:34Z</time>
      </trkpt>
      <trkpt lat="45.46911" lon="4.6582">
        <ele>502</ele>
        <time>2023-05-21T14:57:37Z</time>
      </trkpt>
      <trkpt lat="45.46918" lon="4.65794">
        <ele>502</ele>
        <time>2023-05-21T14:57:42Z</time>
      </trkpt>
      <trkpt lat="45.46941" lon="4.65773">
        <ele>501</ele>
        <time>2023-05-21T14:57:48Z</time>
      </trkpt>
      <trkpt lat="45.46961" lon="4.65749">
        <ele>499</ele>
        <time>2023-05-21T14:57:54Z</time>
      </trkpt>
      <trkpt lat="45.46978" lon="4.65717">
        <ele>498</ele>
        <time>2023-05-21T14:58:01Z</time>
      </trkpt>
      <trkpt lat="45.46982" lon="4.65696">
        <ele>498</ele>
        <time>2023-05-21T14:58:05Z</time>
      </trkpt>
      <trkpt lat="45.46981" lon="4.65657">
        <ele>500</ele>
        <time>2023-05-21T14:58:11Z</time>
      </trkpt>
      <trkpt lat="45.46974" lon="4.65596">
        <ele>505</ele>
        <time>2023-05-21T14:58:21Z</time>
      </trkpt>
      <trkpt lat="45.46974" lon="4.65578">
        <ele>506</ele>
        <time>2023-05-21T14:58:24Z</time>
      </trkpt>
      <trkpt lat="45.46983" lon="4.65557">
        <ele>506</ele>
        <time>2023-05-21T14:58:28Z</time>
      </trkpt>
      <trkpt lat="45.46998" lon="4.65533">
        <ele>506</ele>
        <time>2023-05-21T14:58:33Z</time>
      </trkpt>
      <trkpt lat="45.47022" lon="4.65438">
        <ele>514</ele>
        <time>2023-05-21T14:58:50Z</time>
      </trkpt>
      <trkpt lat="45.47039" lon="4.65391">
        <ele>518</ele>
        <time>2023-05-21T14:58:59Z</time>
      </trkpt>
      <trkpt lat="45.47054" lon="4.65372">
        <ele>519</ele>
        <time>2023-05-21T14:59:03Z</time>
      </trkpt>
      <trkpt lat="45.47076" lon="4.65352">
        <ele>518</ele>
        <time>2023-05-21T14:59:09Z</time>
      </trkpt>
      <trkpt lat="45.47144" lon="4.65308">
        <ele>519</ele>
        <time>2023-05-21T14:59:27Z</time>
      </trkpt>
      <trkpt lat="45.4715" lon="4.65296">
        <ele>520</ele>
        <time>2023-05-21T14:59:29Z</time>
      </trkpt>
      <trkpt lat="45.47157" lon="4.65254">
        <ele>523</ele>
        <time>2023-05-21T14:59:36Z</time>
      </trkpt>
      <trkpt lat="45.47181" lon="4.65176">
        <ele>523</ele>
        <time>2023-05-21T14:59:50Z</time>
      </trkpt>
      <trkpt lat="45.47196" lon="4.6514">
        <ele>523</ele>
        <time>2023-05-21T14:59:57Z</time>
      </trkpt>
      <trkpt lat="45.47259" lon="4.65031">
        <ele>521</ele>
        <time>2023-05-21T15:00:20Z</time>
      </trkpt>
      <trkpt lat="45.47268" lon="4.64993">
        <ele>522</ele>
        <time>2023-05-21T15:00:27Z</time>
      </trkpt>
      <trkpt lat="45.47269" lon="4.64947">
        <ele>524</ele>
        <time>2023-05-21T15:00:34Z</time>
      </trkpt>
      <trkpt lat="45.47264" lon="4.64834">
        <ele>525</ele>
        <time>2023-05-21T15:00:53Z</time>
      </trkpt>
      <trkpt lat="45.47273" lon="4.64716">
        <ele>524</ele>
        <time>2023-05-21T15:01:12Z</time>
      </trkpt>
      <trkpt lat="45.47268" lon="4.64674">
        <ele>524</ele>
        <time>2023-05-21T15:01:19Z</time>
      </trkpt>
      <trkpt lat="45.47249" lon="4.64624">
        <ele>523</ele>
        <time>2023-05-21T15:01:29Z</time>
      </trkpt>
      <trkpt lat="45.47226" lon="4.64537">
        <ele>515</ele>
        <time>2023-05-21T15:01:44Z</time>
      </trkpt>
      <trkpt lat="45.47215" lon="4.64516">
        <ele>514</ele>
        <time>2023-05-21T15:01:48Z</time>
      </trkpt>
      <trkpt lat="45.47189" lon="4.64478">
        <ele>512</ele>
        <time>2023-05-21T15:01:57Z</time>
      </trkpt>
      <trkpt lat="45.47162" lon="4.64428">
        <ele>504</ele>
        <time>2023-05-21T15:02:07Z</time>
      </trkpt>
      <trkpt lat="45.4714" lon="4.64411">
        <ele>501</ele>
        <time>2023-05-21T15:02:13Z</time>
      </trkpt>
      <trkpt lat="45.47124" lon="4.64393">
        <ele>501</ele>
        <time>2023-05-21T15:02:18Z</time>
      </trkpt>
      <trkpt lat="45.47093" lon="4.64379">
        <ele>501</ele>
        <time>2023-05-21T15:02:25Z</time>
      </trkpt>
      <trkpt lat="45.47092" lon="4.64373">
        <ele>501</ele>
        <time>2023-05-21T15:02:26Z</time>
      </trkpt>
      <trkpt lat="45.47134" lon="4.64299">
        <ele>500</ele>
        <time>2023-05-21T15:02:42Z</time>
      </trkpt>
      <trkpt lat="45.47154" lon="4.64259">
        <ele>505</ele>
        <time>2023-05-21T15:02:50Z</time>
      </trkpt>
      <trkpt lat="45.4726" lon="4.6414">
        <ele>516</ele>
        <time>2023-05-21T15:03:21Z</time>
      </trkpt>
      <trkpt lat="45.4729" lon="4.64097">
        <ele>522</ele>
        <time>2023-05-21T15:03:31Z</time>
      </trkpt>
      <trkpt lat="45.47348" lon="4.64054">
        <ele>526</ele>
        <time>2023-05-21T15:03:47Z</time>
      </trkpt>
      <trkpt lat="45.47367" lon="4.64046">
        <ele>527</ele>
        <time>2023-05-21T15:03:51Z</time>
      </trkpt>
      <trkpt lat="45.4739" lon="4.6403">
        <ele>528</ele>
        <time>2023-05-21T15:03:57Z</time>
      </trkpt>
      <trkpt lat="45.47435" lon="4.63976">
        <ele>526</ele>
        <time>2023-05-21T15:04:11Z</time>
      </trkpt>
      <trkpt lat="45.47497" lon="4.6392">
        <ele>517</ele>
        <time>2023-05-21T15:04:28Z</time>
      </trkpt>
      <trkpt lat="45.47516" lon="4.63899">
        <ele>514</ele>
        <time>2023-05-21T15:04:34Z</time>
      </trkpt>
      <trkpt lat="45.47496" lon="4.63882">
        <ele>516</ele>
        <time>2023-05-21T15:04:39Z</time>
      </trkpt>
      <trkpt lat="45.47453" lon="4.63865">
        <ele>518</ele>
        <time>2023-05-21T15:04:50Z</time>
      </trkpt>
      <trkpt lat="45.47433" lon="4.63861">
        <ele>519</ele>
        <time>2023-05-21T15:04:54Z</time>
      </trkpt>
      <trkpt lat="45.47437" lon="4.63837">
        <ele>516</ele>
        <time>2023-05-21T15:04:58Z</time>
      </trkpt>
      <trkpt lat="45.47435" lon="4.63816">
        <ele>513</ele>
        <time>2023-05-21T15:05:02Z</time>
      </trkpt>
      <trkpt lat="45.47423" lon="4.63774">
        <ele>508</ele>
        <time>2023-05-21T15:05:09Z</time>
      </trkpt>
      <trkpt lat="45.47411" lon="4.63753">
        <ele>505</ele>
        <time>2023-05-21T15:05:14Z</time>
      </trkpt>
      <trkpt lat="45.47399" lon="4.63717">
        <ele>499</ele>
        <time>2023-05-21T15:05:20Z</time>
      </trkpt>
      <trkpt lat="45.47386" lon="4.63696">
        <ele>496</ele>
        <time>2023-05-21T15:05:25Z</time>
      </trkpt>
      <trkpt lat="45.47368" lon="4.63652">
        <ele>490</ele>
        <time>2023-05-21T15:05:33Z</time>
      </trkpt>
      <trkpt lat="45.47366" lon="4.63636">
        <ele>489</ele>
        <time>2023-05-21T15:05:36Z</time>
      </trkpt>
      <trkpt lat="45.47368" lon="4.63593">
        <ele>483</ele>
        <time>2023-05-21T15:05:43Z</time>
      </trkpt>
      <trkpt lat="45.47361" lon="4.63569">
        <ele>480</ele>
        <time>2023-05-21T15:05:47Z</time>
      </trkpt>
      <trkpt lat="45.47363" lon="4.63565">
        <ele>480</ele>
        <time>2023-05-21T15:05:48Z</time>
      </trkpt>
      <trkpt lat="45.47362" lon="4.63554">
        <ele>478</ele>
        <time>2023-05-21T15:05:50Z</time>
      </trkpt>
      <trkpt lat="45.4735" lon="4.63525">
        <ele>475</ele>
        <time>2023-05-21T15:05:55Z</time>
      </trkpt>
      <trkpt lat="45.47343" lon="4.63479">
        <ele>468</ele>
        <time>2023-05-21T15:06:03Z</time>
      </trkpt>
      <trkpt lat="45.47345" lon="4.63453">
        <ele>465</ele>
        <time>2023-05-21T15:06:07Z</time>
      </trkpt>
      <trkpt lat="45.47358" lon="4.63392">
        <ele>457</ele>
        <time>2023-05-21T15:06:18Z</time>
      </trkpt>
      <trkpt lat="45.47358" lon="4.63353">
        <ele>452</ele>
        <time>2023-05-21T15:06:24Z</time>
      </trkpt>
      <trkpt lat="45.47355" lon="4.63339">
        <ele>450</ele>
        <time>2023-05-21T15:06:26Z</time>
      </trkpt>
      <trkpt lat="45.47316" lon="4.63273">
        <ele>446</ele>
        <time>2023-05-21T15:06:41Z</time>
      </trkpt>
      <trkpt lat="45.47314" lon="4.63263">
        <ele>445</ele>
        <time>2023-05-21T15:06:42Z</time>
      </trkpt>
      <trkpt lat="45.47315" lon="4.63238">
        <ele>447</ele>
        <time>2023-05-21T15:06:46Z</time>
      </trkpt>
      <trkpt lat="45.47332" lon="4.63215">
        <ele>452</ele>
        <time>2023-05-21T15:06:52Z</time>
      </trkpt>
      <trkpt lat="45.47342" lon="4.63212">
        <ele>452</ele>
        <time>2023-05-21T15:06:54Z</time>
      </trkpt>
      <trkpt lat="45.47365" lon="4.63216">
        <ele>449</ele>
        <time>2023-05-21T15:07:00Z</time>
      </trkpt>
      <trkpt lat="45.47384" lon="4.63203">
        <ele>449</ele>
        <time>2023-05-21T15:07:05Z</time>
      </trkpt>
      <trkpt lat="45.47535" lon="4.63087">
        <ele>451</ele>
        <time>2023-05-21T15:07:45Z</time>
      </trkpt>
      <trkpt lat="45.47582" lon="4.63038">
        <ele>449</ele>
        <time>2023-05-21T15:07:58Z</time>
      </trkpt>
      <trkpt lat="45.47588" lon="4.63025">
        <ele>450</ele>
        <time>2023-05-21T15:08:01Z</time>
      </trkpt>
      <trkpt lat="45.47588" lon="4.63001">
        <ele>454</ele>
        <time>2023-05-21T15:08:05Z</time>
      </trkpt>
      <trkpt lat="45.47581" lon="4.62952">
        <ele>458</ele>
        <time>2023-05-21T15:08:13Z</time>
      </trkpt>
      <trkpt lat="45.47577" lon="4.6286">
        <ele>464</ele>
        <time>2023-05-21T15:08:28Z</time>
      </trkpt>
      <trkpt lat="45.47579" lon="4.62852">
        <ele>463</ele>
        <time>2023-05-21T15:08:29Z</time>
      </trkpt>
      <trkpt lat="45.47588" lon="4.62844">
        <ele>462</ele>
        <time>2023-05-21T15:08:32Z</time>
      </trkpt>
      <trkpt lat="45.47596" lon="4.62848">
        <ele>461</ele>
        <time>2023-05-21T15:08:34Z</time>
      </trkpt>
      <trkpt lat="45.47617" lon="4.62866">
        <ele>458</ele>
        <time>2023-05-21T15:08:40Z</time>
      </trkpt>
      <trkpt lat="45.47627" lon="4.6287">
        <ele>456</ele>
        <time>2023-05-21T15:08:42Z</time>
      </trkpt>
      <trkpt lat="45.47643" lon="4.62869">
        <ele>454</ele>
        <time>2023-05-21T15:08:46Z</time>
      </trkpt>
      <trkpt lat="45.47663" lon="4.6286">
        <ele>453</ele>
        <time>2023-05-21T15:08:51Z</time>
      </trkpt>
      <trkpt lat="45.47696" lon="4.62823">
        <ele>452</ele>
        <time>2023-05-21T15:09:00Z</time>
      </trkpt>
      <trkpt lat="45.477" lon="4.62809">
        <ele>454</ele>
        <time>2023-05-21T15:09:03Z</time>
      </trkpt>
      <trkpt lat="45.47692" lon="4.62752">
        <ele>462</ele>
        <time>2023-05-21T15:09:12Z</time>
      </trkpt>
      <trkpt lat="45.47694" lon="4.62738">
        <ele>464</ele>
        <time>2023-05-21T15:09:15Z</time>
      </trkpt>
      <trkpt lat="45.47703" lon="4.62716">
        <ele>467</ele>
        <time>2023-05-21T15:09:19Z</time>
      </trkpt>
      <trkpt lat="45.47711" lon="4.62703">
        <ele>468</ele>
        <time>2023-05-21T15:09:22Z</time>
      </trkpt>
      <trkpt lat="45.47745" lon="4.62675">
        <ele>469</ele>
        <time>2023-05-21T15:09:31Z</time>
      </trkpt>
      <trkpt lat="45.4775" lon="4.62663">
        <ele>471</ele>
        <time>2023-05-21T15:09:33Z</time>
      </trkpt>
      <trkpt lat="45.47751" lon="4.62649">
        <ele>473</ele>
        <time>2023-05-21T15:09:36Z</time>
      </trkpt>
      <trkpt lat="45.47746" lon="4.6259">
        <ele>483</ele>
        <time>2023-05-21T15:09:45Z</time>
      </trkpt>
      <trkpt lat="45.47751" lon="4.62559">
        <ele>488</ele>
        <time>2023-05-21T15:09:50Z</time>
      </trkpt>
      <trkpt lat="45.4774" lon="4.6254">
        <ele>492</ele>
        <time>2023-05-21T15:09:54Z</time>
      </trkpt>
      <trkpt lat="45.47727" lon="4.62529">
        <ele>496</ele>
        <time>2023-05-21T15:09:58Z</time>
      </trkpt>
      <trkpt lat="45.47718" lon="4.62526">
        <ele>497</ele>
        <time>2023-05-21T15:10:00Z</time>
      </trkpt>
      <trkpt lat="45.47702" lon="4.62526">
        <ele>499</ele>
        <time>2023-05-21T15:10:04Z</time>
      </trkpt>
      <trkpt lat="45.4769" lon="4.62531">
        <ele>500</ele>
        <time>2023-05-21T15:10:07Z</time>
      </trkpt>
      <trkpt lat="45.47654" lon="4.62554">
        <ele>500</ele>
        <time>2023-05-21T15:10:16Z</time>
      </trkpt>
      <trkpt lat="45.47616" lon="4.62548">
        <ele>505</ele>
        <time>2023-05-21T15:10:25Z</time>
      </trkpt>
      <trkpt lat="45.4759" lon="4.62538">
        <ele>510</ele>
        <time>2023-05-21T15:10:31Z</time>
      </trkpt>
      <trkpt lat="45.47525" lon="4.62484">
        <ele>521</ele>
        <time>2023-05-21T15:10:49Z</time>
      </trkpt>
      <trkpt lat="45.47469" lon="4.62446">
        <ele>531</ele>
        <time>2023-05-21T15:11:03Z</time>
      </trkpt>
      <trkpt lat="45.47444" lon="4.62434">
        <ele>533</ele>
        <time>2023-05-21T15:11:09Z</time>
      </trkpt>
      <trkpt lat="45.47426" lon="4.62431">
        <ele>533</ele>
        <time>2023-05-21T15:11:14Z</time>
      </trkpt>
      <trkpt lat="45.47408" lon="4.62438">
        <ele>533</ele>
        <time>2023-05-21T15:11:18Z</time>
      </trkpt>
      <trkpt lat="45.4735" lon="4.62474">
        <ele>536</ele>
        <time>2023-05-21T15:11:33Z</time>
      </trkpt>
      <trkpt lat="45.47327" lon="4.62471">
        <ele>541</ele>
        <time>2023-05-21T15:11:38Z</time>
      </trkpt>
      <trkpt lat="45.47306" lon="4.62477">
        <ele>544</ele>
        <time>2023-05-21T15:11:43Z</time>
      </trkpt>
      <trkpt lat="45.47237" lon="4.62462">
        <ele>560</ele>
        <time>2023-05-21T15:12:00Z</time>
      </trkpt>
      <trkpt lat="45.47232" lon="4.62468">
        <ele>560</ele>
        <time>2023-05-21T15:12:01Z</time>
      </trkpt>
      <trkpt lat="45.47231" lon="4.62489">
        <ele>557</ele>
        <time>2023-05-21T15:12:04Z</time>
      </trkpt>
      <trkpt lat="45.47239" lon="4.62545">
        <ele>550</ele>
        <time>2023-05-21T15:12:14Z</time>
      </trkpt>
      <trkpt lat="45.4722" lon="4.62705">
        <ele>548</ele>
        <time>2023-05-21T15:12:40Z</time>
      </trkpt>
      <trkpt lat="45.47215" lon="4.62723">
        <ele>549</ele>
        <time>2023-05-21T15:12:44Z</time>
      </trkpt>
      <trkpt lat="45.47181" lon="4.62739">
        <ele>553</ele>
        <time>2023-05-21T15:12:52Z</time>
      </trkpt>
      <trkpt lat="45.47082" lon="4.62743">
        <ele>562</ele>
        <time>2023-05-21T15:13:15Z</time>
      </trkpt>
      <trkpt lat="45.47029" lon="4.62756">
        <ele>563</ele>
        <time>2023-05-21T15:13:28Z</time>
      </trkpt>
      <trkpt lat="45.47007" lon="4.62757">
        <ele>564</ele>
        <time>2023-05-21T15:13:33Z</time>
      </trkpt>
      <trkpt lat="45.46977" lon="4.62751">
        <ele>563</ele>
        <time>2023-05-21T15:13:40Z</time>
      </trkpt>
      <trkpt lat="45.46963" lon="4.62745">
        <ele>563</ele>
        <time>2023-05-21T15:13:43Z</time>
      </trkpt>
      <trkpt lat="45.46944" lon="4.62732">
        <ele>562</ele>
        <time>2023-05-21T15:13:48Z</time>
      </trkpt>
      <trkpt lat="45.46962" lon="4.62732">
        <ele>564</ele>
        <time>2023-05-21T15:13:52Z</time>
      </trkpt>
      <trkpt lat="45.4698" lon="4.62709">
        <ele>568</ele>
        <time>2023-05-21T15:13:58Z</time>
      </trkpt>
      <trkpt lat="45.46995" lon="4.62557">
        <ele>588</ele>
        <time>2023-05-21T15:14:23Z</time>
      </trkpt>
      <trkpt lat="45.47026" lon="4.625">
        <ele>596</ele>
        <time>2023-05-21T15:14:35Z</time>
      </trkpt>
      <trkpt lat="45.47059" lon="4.62388">
        <ele>612</ele>
        <time>2023-05-21T15:14:55Z</time>
      </trkpt>
      <trkpt lat="45.47081" lon="4.6233">
        <ele>622</ele>
        <time>2023-05-21T15:15:06Z</time>
      </trkpt>
      <trkpt lat="45.47092" lon="4.62287">
        <ele>632</ele>
        <time>2023-05-21T15:15:13Z</time>
      </trkpt>
      <trkpt lat="45.471" lon="4.62236">
        <ele>644</ele>
        <time>2023-05-21T15:15:22Z</time>
      </trkpt>
      <trkpt lat="45.4711" lon="4.62217">
        <ele>648</ele>
        <time>2023-05-21T15:15:26Z</time>
      </trkpt>
      <trkpt lat="45.47144" lon="4.62171">
        <ele>655</ele>
        <time>2023-05-21T15:15:37Z</time>
      </trkpt>
      <trkpt lat="45.47196" lon="4.62111">
        <ele>657</ele>
        <time>2023-05-21T15:15:52Z</time>
      </trkpt>
      <trkpt lat="45.47217" lon="4.62074">
        <ele>660</ele>
        <time>2023-05-21T15:16:00Z</time>
      </trkpt>
      <trkpt lat="45.47228" lon="4.62044">
        <ele>661</ele>
        <time>2023-05-21T15:16:06Z</time>
      </trkpt>
      <trkpt lat="45.47147" lon="4.62085">
        <ele>671</ele>
        <time>2023-05-21T15:16:26Z</time>
      </trkpt>
      <trkpt lat="45.4706" lon="4.62133">
        <ele>680</ele>
        <time>2023-05-21T15:16:47Z</time>
      </trkpt>
      <trkpt lat="45.46983" lon="4.6216">
        <ele>687</ele>
        <time>2023-05-21T15:17:06Z</time>
      </trkpt>
      <trkpt lat="45.46904" lon="4.62176">
        <ele>686</ele>
        <time>2023-05-21T15:17:25Z</time>
      </trkpt>
      <trkpt lat="45.46817" lon="4.62182">
        <ele>683</ele>
        <time>2023-05-21T15:17:45Z</time>
      </trkpt>
      <trkpt lat="45.46786" lon="4.62175">
        <ele>682</ele>
        <time>2023-05-21T15:17:52Z</time>
      </trkpt>
      <trkpt lat="45.4677" lon="4.62168">
        <ele>683</ele>
        <time>2023-05-21T15:17:56Z</time>
      </trkpt>
      <trkpt lat="45.46701" lon="4.62098">
        <ele>687</ele>
        <time>2023-05-21T15:18:16Z</time>
      </trkpt>
      <trkpt lat="45.46611" lon="4.62012">
        <ele>687</ele>
        <time>2023-05-21T15:18:41Z</time>
      </trkpt>
      <trkpt lat="45.46573" lon="4.61968">
        <ele>691</ele>
        <time>2023-05-21T15:18:53Z</time>
      </trkpt>
      <trkpt lat="45.46504" lon="4.61952">
        <ele>687</ele>
        <time>2023-05-21T15:19:09Z</time>
      </trkpt>
      <trkpt lat="45.46372" lon="4.61967">
        <ele>676</ele>
        <time>2023-05-21T15:19:40Z</time>
      </trkpt>
      <trkpt lat="45.46297" lon="4.61971">
        <ele>669</ele>
        <time>2023-05-21T15:19:57Z</time>
      </trkpt>
      <trkpt lat="45.46259" lon="4.61963">
        <ele>669</ele>
        <time>2023-05-21T15:20:06Z</time>
      </trkpt>
      <trkpt lat="45.46188" lon="4.61954">
        <ele>664</ele>
        <time>2023-05-21T15:20:23Z</time>
      </trkpt>
      <trkpt lat="45.46118" lon="4.6194">
        <ele>660</ele>
        <time>2023-05-21T15:20:40Z</time>
      </trkpt>
      <trkpt lat="45.46098" lon="4.61933">
        <ele>659</ele>
        <time>2023-05-21T15:20:44Z</time>
      </trkpt>
      <trkpt lat="45.46068" lon="4.61943">
        <ele>655</ele>
        <time>2023-05-21T15:20:52Z</time>
      </trkpt>
      <trkpt lat="45.46047" lon="4.6196">
        <ele>653</ele>
        <time>2023-05-21T15:20:57Z</time>
      </trkpt>
      <trkpt lat="45.46024" lon="4.61934">
        <ele>652</ele>
        <time>2023-05-21T15:21:04Z</time>
      </trkpt>
      <trkpt lat="45.46003" lon="4.61931">
        <ele>650</ele>
        <time>2023-05-21T15:21:09Z</time>
      </trkpt>
      <trkpt lat="45.45981" lon="4.61918">
        <ele>649</ele>
        <time>2023-05-21T15:21:15Z</time>
      </trkpt>
      <trkpt lat="45.45898" lon="4.61887">
        <ele>645</ele>
        <time>2023-05-21T15:21:35Z</time>
      </trkpt>
      <trkpt lat="45.45895" lon="4.61877">
        <ele>643</ele>
        <time>2023-05-21T15:21:36Z</time>
      </trkpt>
      <trkpt lat="45.45853" lon="4.61848">
        <ele>638</ele>
        <time>2023-05-21T15:21:47Z</time>
      </trkpt>
      <trkpt lat="45.45797" lon="4.61825">
        <ele>635</ele>
        <time>2023-05-21T15:22:01Z</time>
      </trkpt>
      <trkpt lat="45.45672" lon="4.61753">
        <ele>625</ele>
        <time>2023-05-21T15:22:32Z</time>
      </trkpt>
      <trkpt lat="45.45659" lon="4.61735">
        <ele>622</ele>
        <time>2023-05-21T15:22:37Z</time>
      </trkpt>
      <trkpt lat="45.45648" lon="4.61726">
        <ele>620</ele>
        <time>2023-05-21T15:22:40Z</time>
      </trkpt>
      <trkpt lat="45.45608" lon="4.61706">
        <ele>614</ele>
        <time>2023-05-21T15:22:49Z</time>
      </trkpt>
      <trkpt lat="45.45596" lon="4.61696">
        <ele>612</ele>
        <time>2023-05-21T15:22:53Z</time>
      </trkpt>
      <trkpt lat="45.45581" lon="4.61675">
        <ele>609</ele>
        <time>2023-05-21T15:22:58Z</time>
      </trkpt>
      <trkpt lat="45.45562" lon="4.61581">
        <ele>596</ele>
        <time>2023-05-21T15:23:14Z</time>
      </trkpt>
      <trkpt lat="45.45563" lon="4.61561">
        <ele>594</ele>
        <time>2023-05-21T15:23:17Z</time>
      </trkpt>
      <trkpt lat="45.45567" lon="4.61551">
        <ele>594</ele>
        <time>2023-05-21T15:23:19Z</time>
      </trkpt>
      <trkpt lat="45.45573" lon="4.61549">
        <ele>595</ele>
        <time>2023-05-21T15:23:20Z</time>
      </trkpt>
      <trkpt lat="45.45598" lon="4.61551">
        <ele>596</ele>
        <time>2023-05-21T15:23:26Z</time>
      </trkpt>
      <trkpt lat="45.4564" lon="4.61564">
        <ele>595</ele>
        <time>2023-05-21T15:23:36Z</time>
      </trkpt>
      <trkpt lat="45.45702" lon="4.61596">
        <ele>596</ele>
        <time>2023-05-21T15:23:52Z</time>
      </trkpt>
      <trkpt lat="45.45716" lon="4.61607">
        <ele>596</ele>
        <time>2023-05-21T15:23:55Z</time>
      </trkpt>
      <trkpt lat="45.45743" lon="4.61644">
        <ele>601</ele>
        <time>2023-05-21T15:24:04Z</time>
      </trkpt>
      <trkpt lat="45.4575" lon="4.61649">
        <ele>601</ele>
        <time>2023-05-21T15:24:06Z</time>
      </trkpt>
      <trkpt lat="45.45757" lon="4.6165">
        <ele>601</ele>
        <time>2023-05-21T15:24:07Z</time>
      </trkpt>
      <trkpt lat="45.45787" lon="4.61624">
        <ele>596</ele>
        <time>2023-05-21T15:24:16Z</time>
      </trkpt>
      <trkpt lat="45.45799" lon="4.6162">
        <ele>595</ele>
        <time>2023-05-21T15:24:19Z</time>
      </trkpt>
      <trkpt lat="45.45864" lon="4.61634">
        <ele>601</ele>
        <time>2023-05-21T15:24:34Z</time>
      </trkpt>
      <trkpt lat="45.45869" lon="4.61633">
        <ele>601</ele>
        <time>2023-05-21T15:24:35Z</time>
      </trkpt>
      <trkpt lat="45.45874" lon="4.61628">
        <ele>601</ele>
        <time>2023-05-21T15:24:36Z</time>
      </trkpt>
      <trkpt lat="45.45879" lon="4.61613">
        <ele>600</ele>
        <time>2023-05-21T15:24:39Z</time>
      </trkpt>
      <trkpt lat="45.45887" lon="4.6147">
        <ele>597</ele>
        <time>2023-05-21T15:25:03Z</time>
      </trkpt>
      <trkpt lat="45.45881" lon="4.61461">
        <ele>597</ele>
        <time>2023-05-21T15:25:05Z</time>
      </trkpt>
      <trkpt lat="45.45834" lon="4.61433">
        <ele>590</ele>
        <time>2023-05-21T15:25:17Z</time>
      </trkpt>
      <trkpt lat="45.45816" lon="4.61413">
        <ele>590</ele>
        <time>2023-05-21T15:25:22Z</time>
      </trkpt>
      <trkpt lat="45.45773" lon="4.61323">
        <ele>596</ele>
        <time>2023-05-21T15:25:40Z</time>
      </trkpt>
      <trkpt lat="45.45743" lon="4.6122">
        <ele>598</ele>
        <time>2023-05-21T15:25:58Z</time>
      </trkpt>
      <trkpt lat="45.45733" lon="4.61152">
        <ele>599</ele>
        <time>2023-05-21T15:26:09Z</time>
      </trkpt>
      <trkpt lat="45.45716" lon="4.61085">
        <ele>598</ele>
        <time>2023-05-21T15:26:21Z</time>
      </trkpt>
      <trkpt lat="45.4571" lon="4.61028">
        <ele>598</ele>
        <time>2023-05-21T15:26:31Z</time>
      </trkpt>
      <trkpt lat="45.45708" lon="4.60958">
        <ele>602</ele>
        <time>2023-05-21T15:26:42Z</time>
      </trkpt>
      <trkpt lat="45.45668" lon="4.60825">
        <ele>596</ele>
        <time>2023-05-21T15:27:06Z</time>
      </trkpt>
      <trkpt lat="45.45646" lon="4.60682">
        <ele>596</ele>
        <time>2023-05-21T15:27:30Z</time>
      </trkpt>
      <trkpt lat="45.45636" lon="4.60591">
        <ele>592</ele>
        <time>2023-05-21T15:27:45Z</time>
      </trkpt>
      <trkpt lat="45.45638" lon="4.60543">
        <ele>589</ele>
        <time>2023-05-21T15:27:53Z</time>
      </trkpt>
      <trkpt lat="45.45651" lon="4.60465">
        <ele>584</ele>
        <time>2023-05-21T15:28:06Z</time>
      </trkpt>
      <trkpt lat="45.45673" lon="4.60376">
        <ele>577</ele>
        <time>2023-05-21T15:28:21Z</time>
      </trkpt>
      <trkpt lat="45.45693" lon="4.6032">
        <ele>572</ele>
        <time>2023-05-21T15:28:32Z</time>
      </trkpt>
      <trkpt lat="45.45711" lon="4.60298">
        <ele>570</ele>
        <time>2023-05-21T15:28:37Z</time>
      </trkpt>
      <trkpt lat="45.45736" lon="4.60283">
        <ele>569</ele>
        <time>2023-05-21T15:28:43Z</time>
      </trkpt>
      <trkpt lat="45.45791" lon="4.60264">
        <ele>564</ele>
        <time>2023-05-21T15:28:57Z</time>
      </trkpt>
      <trkpt lat="45.45812" lon="4.6019">
        <ele>554</ele>
        <time>2023-05-21T15:29:10Z</time>
      </trkpt>
      <trkpt lat="45.45794" lon="4.60166">
        <ele>551</ele>
        <time>2023-05-21T15:29:16Z</time>
      </trkpt>
      <trkpt lat="45.45758" lon="4.60134">
        <ele>550</ele>
        <time>2023-05-21T15:29:25Z</time>
      </trkpt>
      <trkpt lat="45.45738" lon="4.6009">
        <ele>545</ele>
        <time>2023-05-21T15:29:34Z</time>
      </trkpt>
      <trkpt lat="45.45697" lon="4.60046">
        <ele>535</ele>
        <time>2023-05-21T15:29:46Z</time>
      </trkpt>
      <trkpt lat="45.45678" lon="4.60044">
        <ele>532</ele>
        <time>2023-05-21T15:29:50Z</time>
      </trkpt>
      <trkpt lat="45.45639" lon="4.60064">
        <ele>529</ele>
        <time>2023-05-21T15:30:00Z</time>
      </trkpt>
      <trkpt lat="45.45595" lon="4.60067">
        <ele>522</ele>
        <time>2023-05-21T15:30:10Z</time>
      </trkpt>
      <trkpt lat="45.45519" lon="4.60097">
        <ele>510</ele>
        <time>2023-05-21T15:30:29Z</time>
      </trkpt>
      <trkpt lat="45.45463" lon="4.60138">
        <ele>502</ele>
        <time>2023-05-21T15:30:44Z</time>
      </trkpt>
      <trkpt lat="45.45438" lon="4.60188">
        <ele>500</ele>
        <time>2023-05-21T15:30:54Z</time>
      </trkpt>
      <trkpt lat="45.45427" lon="4.60249">
        <ele>502</ele>
        <time>2023-05-21T15:31:04Z</time>
      </trkpt>
      <trkpt lat="45.45409" lon="4.60289">
        <ele>501</ele>
        <time>2023-05-21T15:31:12Z</time>
      </trkpt>
      <trkpt lat="45.4539" lon="4.60283">
        <ele>503</ele>
        <time>2023-05-21T15:31:16Z</time>
      </trkpt>
      <trkpt lat="45.45365" lon="4.60235">
        <ele>502</ele>
        <time>2023-05-21T15:31:26Z</time>
      </trkpt>
      <trkpt lat="45.45349" lon="4.6019">
        <ele>498</ele>
        <time>2023-05-21T15:31:34Z</time>
      </trkpt>
      <trkpt lat="45.45313" lon="4.60165">
        <ele>498</ele>
        <time>2023-05-21T15:31:44Z</time>
      </trkpt>
      <trkpt lat="45.45308" lon="4.60147">
        <ele>501</ele>
        <time>2023-05-21T15:31:47Z</time>
      </trkpt>
      <trkpt lat="45.45336" lon="4.60111">
        <ele>500</ele>
        <time>2023-05-21T15:31:56Z</time>
      </trkpt>
      <trkpt lat="45.45341" lon="4.60031">
        <ele>507</ele>
        <time>2023-05-21T15:32:09Z</time>
      </trkpt>
      <trkpt lat="45.45358" lon="4.59964">
        <ele>509</ele>
        <time>2023-05-21T15:32:20Z</time>
      </trkpt>
      <trkpt lat="45.45382" lon="4.59916">
        <ele>507</ele>
        <time>2023-05-21T15:32:30Z</time>
      </trkpt>
      <trkpt lat="45.45379" lon="4.59851">
        <ele>514</ele>
        <time>2023-05-21T15:32:41Z</time>
      </trkpt>
      <trkpt lat="45.45385" lon="4.59829">
        <ele>515</ele>
        <time>2023-05-21T15:32:45Z</time>
      </trkpt>
      <trkpt lat="45.45421" lon="4.59775">
        <ele>512</ele>
        <time>2023-05-21T15:32:57Z</time>
      </trkpt>
      <trkpt lat="45.45438" lon="4.59756">
        <ele>511</ele>
        <time>2023-05-21T15:33:02Z</time>
      </trkpt>
      <trkpt lat="45.45453" lon="4.59727">
        <ele>510</ele>
        <time>2023-05-21T15:33:08Z</time>
      </trkpt>
      <trkpt lat="45.45473" lon="4.59664">
        <ele>510</ele>
        <time>2023-05-21T15:33:19Z</time>
      </trkpt>
      <trkpt lat="45.45465" lon="4.59628">
        <ele>515</ele>
        <time>2023-05-21T15:33:25Z</time>
      </trkpt>
      <trkpt lat="45.45514" lon="4.59562">
        <ele>511</ele>
        <time>2023-05-21T15:33:41Z</time>
      </trkpt>
      <trkpt lat="45.4553" lon="4.595">
        <ele>519</ele>
        <time>2023-05-21T15:33:52Z</time>
      </trkpt>
      <trkpt lat="45.45553" lon="4.59469">
        <ele>516</ele>
        <time>2023-05-21T15:33:59Z</time>
      </trkpt>
      <trkpt lat="45.45609" lon="4.59402">
        <ele>510</ele>
        <time>2023-05-21T15:34:16Z</time>
      </trkpt>
      <trkpt lat="45.45664" lon="4.59348">
        <ele>504</ele>
        <time>2023-05-21T15:34:32Z</time>
      </trkpt>
      <trkpt lat="45.45717" lon="4.59262">
        <ele>498</ele>
        <time>2023-05-21T15:34:51Z</time>
      </trkpt>
      <trkpt lat="45.45717" lon="4.59245">
        <ele>499</ele>
        <time>2023-05-21T15:34:53Z</time>
      </trkpt>
      <trkpt lat="45.45738" lon="4.5922">
        <ele>496</ele>
        <time>2023-05-21T15:35:00Z</time>
      </trkpt>
      <trkpt lat="45.4576" lon="4.59207">
        <ele>493</ele>
        <time>2023-05-21T15:35:05Z</time>
      </trkpt>
      <trkpt lat="45.45787" lon="4.59167">
        <ele>491</ele>
        <time>2023-05-21T15:35:15Z</time>
      </trkpt>
      <trkpt lat="45.45804" lon="4.59129">
        <ele>487</ele>
        <time>2023-05-21T15:35:22Z</time>
      </trkpt>
      <trkpt lat="45.45813" lon="4.59086">
        <ele>485</ele>
        <time>2023-05-21T15:35:29Z</time>
      </trkpt>
      <trkpt lat="45.45847" lon="4.58977">
        <ele>469</ele>
        <time>2023-05-21T15:35:49Z</time>
      </trkpt>
      <trkpt lat="45.45845" lon="4.58934">
        <ele>467</ele>
        <time>2023-05-21T15:35:56Z</time>
      </trkpt>
      <trkpt lat="45.45832" lon="4.58901">
        <ele>469</ele>
        <time>2023-05-21T15:36:02Z</time>
      </trkpt>
      <trkpt lat="45.45868" lon="4.58838">
        <ele>464</ele>
        <time>2023-05-21T15:36:15Z</time>
      </trkpt>
      <trkpt lat="45.45865" lon="4.58807">
        <ele>466</ele>
        <time>2023-05-21T15:36:20Z</time>
      </trkpt>
      <trkpt lat="45.45856" lon="4.5877">
        <ele>470</ele>
        <time>2023-05-21T15:36:27Z</time>
      </trkpt>
      <trkpt lat="45.45896" lon="4.58721">
        <ele>462</ele>
        <time>2023-05-21T15:36:39Z</time>
      </trkpt>
      <trkpt lat="45.45954" lon="4.58683">
        <ele>452</ele>
        <time>2023-05-21T15:36:54Z</time>
      </trkpt>
      <trkpt lat="45.46017" lon="4.58665">
        <ele>444</ele>
        <time>2023-05-21T15:37:09Z</time>
      </trkpt>
      <trkpt lat="45.46051" lon="4.58643">
        <ele>440</ele>
        <time>2023-05-21T15:37:18Z</time>
      </trkpt>
      <trkpt lat="45.4608" lon="4.58629">
        <ele>437</ele>
        <time>2023-05-21T15:37:25Z</time>
      </trkpt>
      <trkpt lat="45.46102" lon="4.58626">
        <ele>436</ele>
        <time>2023-05-21T15:37:30Z</time>
      </trkpt>
      <trkpt lat="45.46143" lon="4.58637">
        <ele>432</ele>
        <time>2023-05-21T15:37:40Z</time>
      </trkpt>
      <trkpt lat="45.46169" lon="4.58638">
        <ele>430</ele>
        <time>2023-05-21T15:37:46Z</time>
      </trkpt>
      <trkpt lat="45.46216" lon="4.58625">
        <ele>426</ele>
        <time>2023-05-21T15:37:57Z</time>
      </trkpt>
      <trkpt lat="45.46239" lon="4.58624">
        <ele>424</ele>
        <time>2023-05-21T15:38:03Z</time>
      </trkpt>
      <trkpt lat="45.46181" lon="4.58667">
        <ele>426</ele>
        <time>2023-05-21T15:38:18Z</time>
      </trkpt>
      <trkpt lat="45.46156" lon="4.58679">
        <ele>428</ele>
        <time>2023-05-21T15:38:24Z</time>
      </trkpt>
      <trkpt lat="45.4614" lon="4.587">
        <ele>428</ele>
        <time>2023-05-21T15:38:29Z</time>
      </trkpt>
      <trkpt lat="45.46137" lon="4.58711">
        <ele>428</ele>
        <time>2023-05-21T15:38:31Z</time>
      </trkpt>
      <trkpt lat="45.4615" lon="4.58725">
        <ele>427</ele>
        <time>2023-05-21T15:38:35Z</time>
      </trkpt>
      <trkpt lat="45.46192" lon="4.58743">
        <ele>426</ele>
        <time>2023-05-21T15:38:45Z</time>
      </trkpt>
      <trkpt lat="45.46234" lon="4.58751">
        <ele>427</ele>
        <time>2023-05-21T15:38:55Z</time>
      </trkpt>
      <trkpt lat="45.46264" lon="4.58762">
        <ele>428</ele>
        <time>2023-05-21T15:39:02Z</time>
      </trkpt>
      <trkpt lat="45.46287" lon="4.58776">
        <ele>430</ele>
        <time>2023-05-21T15:39:08Z</time>
      </trkpt>
      <trkpt lat="45.46322" lon="4.58786">
        <ele>431</ele>
        <time>2023-05-21T15:39:16Z</time>
      </trkpt>
      <trkpt lat="45.46359" lon="4.58815">
        <ele>434</ele>
        <time>2023-05-21T15:39:26Z</time>
      </trkpt>
      <trkpt lat="45.46396" lon="4.58824">
        <ele>435</ele>
        <time>2023-05-21T15:39:35Z</time>
      </trkpt>
      <trkpt lat="45.46405" lon="4.58824">
        <ele>435</ele>
        <time>2023-05-21T15:39:37Z</time>
      </trkpt>
      <trkpt lat="45.46441" lon="4.58841">
        <ele>436</ele>
        <time>2023-05-21T15:39:46Z</time>
      </trkpt>
      <trkpt lat="45.46523" lon="4.58863">
        <ele>438</ele>
        <time>2023-05-21T15:40:05Z</time>
      </trkpt>
      <trkpt lat="45.46537" lon="4.58864">
        <ele>437</ele>
        <time>2023-05-21T15:40:09Z</time>
      </trkpt>
      <trkpt lat="45.46602" lon="4.58855">
        <ele>434</ele>
        <time>2023-05-21T15:40:24Z</time>
      </trkpt>
      <trkpt lat="45.46643" lon="4.5886">
        <ele>434</ele>
        <time>2023-05-21T15:40:34Z</time>
      </trkpt>
      <trkpt lat="45.46689" lon="4.5888">
        <ele>433</ele>
        <time>2023-05-21T15:40:45Z</time>
      </trkpt>
      <trkpt lat="45.46741" lon="4.58909">
        <ele>431</ele>
        <time>2023-05-21T15:40:58Z</time>
      </trkpt>
      <trkpt lat="45.46754" lon="4.58875">
        <ele>427</ele>
        <time>2023-05-21T15:41:04Z</time>
      </trkpt>
      <trkpt lat="45.46773" lon="4.58869">
        <ele>426</ele>
        <time>2023-05-21T15:41:09Z</time>
      </trkpt>
      <trkpt lat="45.46782" lon="4.5886">
        <ele>425</ele>
        <time>2023-05-21T15:41:11Z</time>
      </trkpt>
      <trkpt lat="45.46789" lon="4.58846">
        <ele>423</ele>
        <time>2023-05-21T15:41:14Z</time>
      </trkpt>
      <trkpt lat="45.46813" lon="4.58763">
        <ele>413</ele>
        <time>2023-05-21T15:41:29Z</time>
      </trkpt>
      <trkpt lat="45.46843" lon="4.58737">
        <ele>408</ele>
        <time>2023-05-21T15:41:37Z</time>
      </trkpt>
      <trkpt lat="45.46861" lon="4.58727">
        <ele>406</ele>
        <time>2023-05-21T15:41:41Z</time>
      </trkpt>
      <trkpt lat="45.46879" lon="4.58703">
        <ele>404</ele>
        <time>2023-05-21T15:41:47Z</time>
      </trkpt>
      <trkpt lat="45.46937" lon="4.58763">
        <ele>403</ele>
        <time>2023-05-21T15:42:04Z</time>
      </trkpt>
      <trkpt lat="45.46965" lon="4.58788">
        <ele>404</ele>
        <time>2023-05-21T15:42:12Z</time>
      </trkpt>
      <trkpt lat="45.47002" lon="4.58786">
        <ele>401</ele>
        <time>2023-05-21T15:42:20Z</time>
      </trkpt>
      <trkpt lat="45.47043" lon="4.58766">
        <ele>400</ele>
        <time>2023-05-21T15:42:30Z</time>
      </trkpt>
      <trkpt lat="45.4708" lon="4.58737">
        <ele>398</ele>
        <time>2023-05-21T15:42:40Z</time>
      </trkpt>
      <trkpt lat="45.47112" lon="4.58698">
        <ele>399</ele>
        <time>2023-05-21T15:42:50Z</time>
      </trkpt>
      <trkpt lat="45.47137" lon="4.58685">
        <ele>398</ele>
        <time>2023-05-21T15:42:56Z</time>
      </trkpt>
      <trkpt lat="45.47177" lon="4.58686">
        <ele>398</ele>
        <time>2023-05-21T15:43:06Z</time>
      </trkpt>
      <trkpt lat="45.47209" lon="4.58691">
        <ele>399</ele>
        <time>2023-05-21T15:43:13Z</time>
      </trkpt>
      <trkpt lat="45.47237" lon="4.58675">
        <ele>396</ele>
        <time>2023-05-21T15:43:20Z</time>
      </trkpt>
      <trkpt lat="45.47272" lon="4.58642">
        <ele>395</ele>
        <time>2023-05-21T15:43:30Z</time>
      </trkpt>
      <trkpt lat="45.47274" lon="4.58625">
        <ele>394</ele>
        <time>2023-05-21T15:43:33Z</time>
      </trkpt>
      <trkpt lat="45.47283" lon="4.58613">
        <ele>393</ele>
        <time>2023-05-21T15:43:36Z</time>
      </trkpt>
      <trkpt lat="45.47344" lon="4.58562">
        <ele>392</ele>
        <time>2023-05-21T15:43:52Z</time>
      </trkpt>
      <trkpt lat="45.47387" lon="4.58519">
        <ele>390</ele>
        <time>2023-05-21T15:44:05Z</time>
      </trkpt>
      <trkpt lat="45.47394" lon="4.58502">
        <ele>388</ele>
        <time>2023-05-21T15:44:08Z</time>
      </trkpt>
      <trkpt lat="45.47413" lon="4.58483">
        <ele>389</ele>
        <time>2023-05-21T15:44:13Z</time>
      </trkpt>
      <trkpt lat="45.4743" lon="4.58478">
        <ele>389</ele>
        <time>2023-05-21T15:44:17Z</time>
      </trkpt>
      <trkpt lat="45.47442" lon="4.58479">
        <ele>388</ele>
        <time>2023-05-21T15:44:20Z</time>
      </trkpt>
      <trkpt lat="45.47485" lon="4.58501">
        <ele>387</ele>
        <time>2023-05-21T15:44:31Z</time>
      </trkpt>
      <trkpt lat="45.47496" lon="4.58495">
        <ele>386</ele>
        <time>2023-05-21T15:44:33Z</time>
      </trkpt>
      <trkpt lat="45.47527" lon="4.58471">
        <ele>387</ele>
        <time>2023-05-21T15:44:42Z</time>
      </trkpt>
      <trkpt lat="45.47533" lon="4.58454">
        <ele>389</ele>
        <time>2023-05-21T15:44:45Z</time>
      </trkpt>
      <trkpt lat="45.47534" lon="4.58429">
        <ele>391</ele>
        <time>2023-05-21T15:44:49Z</time>
      </trkpt>
      <trkpt lat="45.47524" lon="4.58414">
        <ele>392</ele>
        <time>2023-05-21T15:44:52Z</time>
      </trkpt>
      <trkpt lat="45.47521" lon="4.58395">
        <ele>396</ele>
        <time>2023-05-21T15:44:55Z</time>
      </trkpt>
      <trkpt lat="45.47525" lon="4.58378">
        <ele>399</ele>
        <time>2023-05-21T15:44:58Z</time>
      </trkpt>
      <trkpt lat="45.47532" lon="4.58374">
        <ele>400</ele>
        <time>2023-05-21T15:45:00Z</time>
      </trkpt>
      <trkpt lat="45.47541" lon="4.58376">
        <ele>401</ele>
        <time>2023-05-21T15:45:02Z</time>
      </trkpt>
      <trkpt lat="45.4758" lon="4.58445">
        <ele>391</ele>
        <time>2023-05-21T15:45:17Z</time>
      </trkpt>
      <trkpt lat="45.47593" lon="4.58459">
        <ele>390</ele>
        <time>2023-05-21T15:45:21Z</time>
      </trkpt>
      <trkpt lat="45.47611" lon="4.58466">
        <ele>390</ele>
        <time>2023-05-21T15:45:25Z</time>
      </trkpt>
      <trkpt lat="45.4766" lon="4.58446">
        <ele>396</ele>
        <time>2023-05-21T15:45:37Z</time>
      </trkpt>
      <trkpt lat="45.47699" lon="4.58419">
        <ele>400</ele>
        <time>2023-05-21T15:45:47Z</time>
      </trkpt>
      <trkpt lat="45.47731" lon="4.58373">
        <ele>403</ele>
        <time>2023-05-21T15:45:58Z</time>
      </trkpt>
      <trkpt lat="45.47781" lon="4.58294">
        <ele>406</ele>
        <time>2023-05-21T15:46:15Z</time>
      </trkpt>
      <trkpt lat="45.47805" lon="4.58245">
        <ele>408</ele>
        <time>2023-05-21T15:46:25Z</time>
      </trkpt>
      <trkpt lat="45.47822" lon="4.58198">
        <ele>409</ele>
        <time>2023-05-21T15:46:33Z</time>
      </trkpt>
      <trkpt lat="45.47841" lon="4.5816">
        <ele>410</ele>
        <time>2023-05-21T15:46:41Z</time>
      </trkpt>
      <trkpt lat="45.47913" lon="4.58017">
        <ele>414</ele>
        <time>2023-05-21T15:47:10Z</time>
      </trkpt>
      <trkpt lat="45.47972" lon="4.57921">
        <ele>414</ele>
        <time>2023-05-21T15:47:31Z</time>
      </trkpt>
      <trkpt lat="45.47972" lon="4.57914">
        <ele>415</ele>
        <time>2023-05-21T15:47:32Z</time>
      </trkpt>
      <trkpt lat="45.47917" lon="4.57939">
        <ele>418</ele>
        <time>2023-05-21T15:47:45Z</time>
      </trkpt>
      <trkpt lat="45.47869" lon="4.57965">
        <ele>422</ele>
        <time>2023-05-21T15:47:57Z</time>
      </trkpt>
      <trkpt lat="45.47834" lon="4.57994">
        <ele>424</ele>
        <time>2023-05-21T15:48:07Z</time>
      </trkpt>
      <trkpt lat="45.47694" lon="4.58148">
        <ele>423</ele>
        <time>2023-05-21T15:48:48Z</time>
      </trkpt>
      <trkpt lat="45.47649" lon="4.58194">
        <ele>425</ele>
        <time>2023-05-21T15:49:01Z</time>
      </trkpt>
      <trkpt lat="45.47619" lon="4.58214">
        <ele>426</ele>
        <time>2023-05-21T15:49:09Z</time>
      </trkpt>
      <trkpt lat="45.476" lon="4.5822">
        <ele>427</ele>
        <time>2023-05-21T15:49:13Z</time>
      </trkpt>
      <trkpt lat="45.47586" lon="4.5822">
        <ele>427</ele>
        <time>2023-05-21T15:49:17Z</time>
      </trkpt>
      <trkpt lat="45.4756" lon="4.58213">
        <ele>426</ele>
        <time>2023-05-21T15:49:23Z</time>
      </trkpt>
      <trkpt lat="45.47562" lon="4.582">
        <ele>427</ele>
        <time>2023-05-21T15:49:25Z</time>
      </trkpt>
      <trkpt lat="45.47557" lon="4.58099">
        <ele>430</ele>
        <time>2023-05-21T15:49:42Z</time>
      </trkpt>
      <trkpt lat="45.47551" lon="4.58082">
        <ele>430</ele>
        <time>2023-05-21T15:49:45Z</time>
      </trkpt>
    </trkseg>
  </trk>
</gpx>